<?xml version="1.0" encoding="UTF-8"?>
<gpx version="1.1" creator="https://www.youtrack.es" xsi:schemaLocation="http://www.topografix.com/GPX/1/1 http://www.topografix.com/GPX/1/1/gpx.xsd http://www.garmin.com/xmlschemas/GpxExtensions/v3 http://www.garmin.com/xmlschemas/GpxExtensionsv3.xsd http://www.garmin.com/xmlschemas/TrackPointExtension/v1 http://www.garmin.com/xmlschemas/TrackPointExtensionv1.xsd" xmlns:gpxtpx="http://www.garmin.com/xmlschemas/TrackPointExtension/v1" xmlns:gpxx="http://www.garmin.com/xmlschemas/GpxExtensions/v3" xmlns:xsi="http://www.w3.org/2001/XMLSchema-instance">
  <metadata>
    <author>
      <name>Agustín Vega</name>
      <email id="titin_anon" domain="hotmail.com"/>
    </author>
    <link href="https://www.youtrack.es">
      <text>YouTrack.es</text>
    </link>
    <time>2026-05-09T00:32:43Z</time>
  </metadata>
  <trk>
    <src>https://www.youtrack.es</src>
    <link href="https://www.youtrack.es/ruta/28924-44k-mtbh-2022">
      <text>YouTrack.es</text>
    </link>
    <trkseg>
      <trkpt lat="41.7785210" lon="-1.7202910">
        <ele>813.3</ele>
        <time>2020-02-19T20:15:41Z</time>
      </trkpt>
      <trkpt lat="41.7783170" lon="-1.7205970">
        <ele>808.5</ele>
        <time>2020-02-19T20:16:01Z</time>
      </trkpt>
      <trkpt lat="41.7782110" lon="-1.7206690">
        <ele>806.7</ele>
        <time>2020-02-19T20:16:21Z</time>
      </trkpt>
      <trkpt lat="41.7780470" lon="-1.7208010">
        <ele>803.8</ele>
        <time>2020-02-19T20:16:41Z</time>
      </trkpt>
      <trkpt lat="41.7779190" lon="-1.7209160">
        <ele>801.1</ele>
        <time>2020-02-19T20:17:01Z</time>
      </trkpt>
      <trkpt lat="41.7777770" lon="-1.7210740">
        <ele>796.8</ele>
        <time>2020-02-19T20:17:21Z</time>
      </trkpt>
      <trkpt lat="41.7776590" lon="-1.7212300">
        <ele>790.0</ele>
        <time>2020-02-19T20:17:41Z</time>
      </trkpt>
      <trkpt lat="41.7775850" lon="-1.7211790">
        <ele>788.7</ele>
        <time>2020-02-19T20:18:01Z</time>
      </trkpt>
      <trkpt lat="41.7775810" lon="-1.7211410">
        <ele>788.4</ele>
        <time>2020-02-19T20:18:21Z</time>
      </trkpt>
      <trkpt lat="41.7776130" lon="-1.7210450">
        <ele>787.5</ele>
        <time>2020-02-19T20:18:41Z</time>
      </trkpt>
      <trkpt lat="41.7776730" lon="-1.7209130">
        <ele>786.8</ele>
        <time>2020-02-19T20:19:01Z</time>
      </trkpt>
      <trkpt lat="41.7776350" lon="-1.7208810">
        <ele>786.2</ele>
        <time>2020-02-19T20:19:21Z</time>
      </trkpt>
      <trkpt lat="41.7776290" lon="-1.7208410">
        <ele>785.8</ele>
        <time>2020-02-19T20:19:41Z</time>
      </trkpt>
      <trkpt lat="41.7776330" lon="-1.7207310">
        <ele>784.8</ele>
        <time>2020-02-19T20:20:01Z</time>
      </trkpt>
      <trkpt lat="41.7776290" lon="-1.7206610">
        <ele>784.3</ele>
        <time>2020-02-19T20:20:21Z</time>
      </trkpt>
      <trkpt lat="41.7776130" lon="-1.7206290">
        <ele>784.0</ele>
        <time>2020-02-19T20:20:41Z</time>
      </trkpt>
      <trkpt lat="41.7775270" lon="-1.7207180">
        <ele>785.1</ele>
        <time>2020-02-19T20:21:01Z</time>
      </trkpt>
      <trkpt lat="41.7774890" lon="-1.7208780">
        <ele>786.6</ele>
        <time>2020-02-19T20:21:21Z</time>
      </trkpt>
      <trkpt lat="41.7774710" lon="-1.7210850">
        <ele>788.9</ele>
        <time>2020-02-19T20:21:41Z</time>
      </trkpt>
      <trkpt lat="41.7774750" lon="-1.7213450">
        <ele>788.3</ele>
        <time>2020-02-19T20:22:01Z</time>
      </trkpt>
      <trkpt lat="41.7774570" lon="-1.7214550">
        <ele>786.9</ele>
        <time>2020-02-19T20:22:21Z</time>
      </trkpt>
      <trkpt lat="41.7774350" lon="-1.7214280">
        <ele>786.4</ele>
        <time>2020-02-19T20:22:41Z</time>
      </trkpt>
      <trkpt lat="41.7774330" lon="-1.7213130">
        <ele>785.0</ele>
        <time>2020-02-19T20:23:01Z</time>
      </trkpt>
      <trkpt lat="41.7774270" lon="-1.7212220">
        <ele>783.9</ele>
        <time>2020-02-19T20:23:21Z</time>
      </trkpt>
      <trkpt lat="41.7773990" lon="-1.7212330">
        <ele>783.4</ele>
        <time>2020-02-19T20:23:41Z</time>
      </trkpt>
      <trkpt lat="41.7773710" lon="-1.7213880">
        <ele>781.4</ele>
        <time>2020-02-19T20:24:01Z</time>
      </trkpt>
      <trkpt lat="41.7773410" lon="-1.7215600">
        <ele>779.3</ele>
        <time>2020-02-19T20:24:21Z</time>
      </trkpt>
      <trkpt lat="41.7773090" lon="-1.7216190">
        <ele>778.5</ele>
        <time>2020-02-19T20:24:41Z</time>
      </trkpt>
      <trkpt lat="41.7772950" lon="-1.7216130">
        <ele>778.3</ele>
        <time>2020-02-19T20:25:01Z</time>
      </trkpt>
      <trkpt lat="41.7772930" lon="-1.7214870">
        <ele>776.9</ele>
        <time>2020-02-19T20:25:21Z</time>
      </trkpt>
      <trkpt lat="41.7772930" lon="-1.7212650">
        <ele>775.0</ele>
        <time>2020-02-19T20:25:41Z</time>
      </trkpt>
      <trkpt lat="41.7772670" lon="-1.7210050">
        <ele>772.8</ele>
        <time>2020-02-19T20:26:01Z</time>
      </trkpt>
      <trkpt lat="41.7772590" lon="-1.7208490">
        <ele>771.4</ele>
        <time>2020-02-19T20:26:21Z</time>
      </trkpt>
      <trkpt lat="41.7772770" lon="-1.7206480">
        <ele>769.4</ele>
        <time>2020-02-19T20:26:41Z</time>
      </trkpt>
      <trkpt lat="41.7773170" lon="-1.7203630">
        <ele>766.2</ele>
        <time>2020-02-19T20:27:01Z</time>
      </trkpt>
      <trkpt lat="41.7773130" lon="-1.7202430">
        <ele>764.9</ele>
        <time>2020-02-19T20:27:21Z</time>
      </trkpt>
      <trkpt lat="41.7772710" lon="-1.7201920">
        <ele>764.1</ele>
        <time>2020-02-19T20:27:41Z</time>
      </trkpt>
      <trkpt lat="41.7771290" lon="-1.7201170">
        <ele>762.2</ele>
        <time>2020-02-19T20:28:01Z</time>
      </trkpt>
      <trkpt lat="41.7770870" lon="-1.7201140">
        <ele>761.7</ele>
        <time>2020-02-19T20:28:21Z</time>
      </trkpt>
      <trkpt lat="41.7769970" lon="-1.7201730">
        <ele>760.9</ele>
        <time>2020-02-19T20:28:41Z</time>
      </trkpt>
      <trkpt lat="41.7769470" lon="-1.7201810">
        <ele>760.5</ele>
        <time>2020-02-19T20:29:01Z</time>
      </trkpt>
      <trkpt lat="41.7768790" lon="-1.7202800">
        <ele>760.0</ele>
        <time>2020-02-19T20:29:21Z</time>
      </trkpt>
      <trkpt lat="41.7768050" lon="-1.7203260">
        <ele>759.7</ele>
        <time>2020-02-19T20:29:41Z</time>
      </trkpt>
      <trkpt lat="41.7767910" lon="-1.7204630">
        <ele>759.5</ele>
        <time>2020-02-19T20:30:01Z</time>
      </trkpt>
      <trkpt lat="41.7767890" lon="-1.7206080">
        <ele>759.5</ele>
        <time>2020-02-19T20:30:21Z</time>
      </trkpt>
      <trkpt lat="41.7767510" lon="-1.7206720">
        <ele>759.5</ele>
        <time>2020-02-19T20:30:41Z</time>
      </trkpt>
      <trkpt lat="41.7765870" lon="-1.7207900">
        <ele>759.9</ele>
        <time>2020-02-19T20:31:01Z</time>
      </trkpt>
      <trkpt lat="41.7764810" lon="-1.7208890">
        <ele>760.4</ele>
        <time>2020-02-19T20:31:21Z</time>
      </trkpt>
      <trkpt lat="41.7761990" lon="-1.7210290">
        <ele>761.7</ele>
        <time>2020-02-19T20:31:41Z</time>
      </trkpt>
      <trkpt lat="41.7760560" lon="-1.7210800">
        <ele>762.6</ele>
        <time>2020-02-19T20:32:01Z</time>
      </trkpt>
      <trkpt lat="41.7759740" lon="-1.7209780">
        <ele>763.2</ele>
        <time>2020-02-19T20:32:21Z</time>
      </trkpt>
      <trkpt lat="41.7759360" lon="-1.7208620">
        <ele>763.6</ele>
        <time>2020-02-19T20:32:41Z</time>
      </trkpt>
      <trkpt lat="41.7758260" lon="-1.7208010">
        <ele>764.1</ele>
        <time>2020-02-19T20:33:01Z</time>
      </trkpt>
      <trkpt lat="41.7755560" lon="-1.7207930">
        <ele>765.2</ele>
        <time>2020-02-19T20:33:21Z</time>
      </trkpt>
      <trkpt lat="41.7753100" lon="-1.7207470">
        <ele>766.3</ele>
        <time>2020-02-19T20:33:41Z</time>
      </trkpt>
      <trkpt lat="41.7752940" lon="-1.7206830">
        <ele>766.6</ele>
        <time>2020-02-19T20:34:01Z</time>
      </trkpt>
      <trkpt lat="41.7753220" lon="-1.7204630">
        <ele>767.7</ele>
        <time>2020-02-19T20:34:21Z</time>
      </trkpt>
      <trkpt lat="41.7753360" lon="-1.7203130">
        <ele>768.6</ele>
        <time>2020-02-19T20:34:41Z</time>
      </trkpt>
      <trkpt lat="41.7751020" lon="-1.7202540">
        <ele>770.5</ele>
        <time>2020-02-19T20:35:01Z</time>
      </trkpt>
      <trkpt lat="41.7749620" lon="-1.7202400">
        <ele>771.8</ele>
        <time>2020-02-19T20:35:21Z</time>
      </trkpt>
      <trkpt lat="41.7747740" lon="-1.7201860">
        <ele>773.8</ele>
        <time>2020-02-19T20:35:41Z</time>
      </trkpt>
      <trkpt lat="41.7746160" lon="-1.7201270">
        <ele>775.7</ele>
        <time>2020-02-19T20:36:01Z</time>
      </trkpt>
      <trkpt lat="41.7745240" lon="-1.7200580">
        <ele>777.1</ele>
        <time>2020-02-19T20:36:21Z</time>
      </trkpt>
      <trkpt lat="41.7744660" lon="-1.7200260">
        <ele>778.0</ele>
        <time>2020-02-19T20:36:41Z</time>
      </trkpt>
      <trkpt lat="41.7744020" lon="-1.7200470">
        <ele>778.9</ele>
        <time>2020-02-19T20:37:01Z</time>
      </trkpt>
      <trkpt lat="41.7743600" lon="-1.7201060">
        <ele>779.7</ele>
        <time>2020-02-19T20:37:21Z</time>
      </trkpt>
      <trkpt lat="41.7742680" lon="-1.7202350">
        <ele>781.5</ele>
        <time>2020-02-19T20:37:41Z</time>
      </trkpt>
      <trkpt lat="41.7741880" lon="-1.7203420">
        <ele>783.0</ele>
        <time>2020-02-19T20:38:01Z</time>
      </trkpt>
      <trkpt lat="41.7741180" lon="-1.7204680">
        <ele>784.8</ele>
        <time>2020-02-19T20:38:21Z</time>
      </trkpt>
      <trkpt lat="41.7740360" lon="-1.7205220">
        <ele>786.1</ele>
        <time>2020-02-19T20:38:41Z</time>
      </trkpt>
      <trkpt lat="41.7739960" lon="-1.7204790">
        <ele>786.9</ele>
        <time>2020-02-19T20:39:01Z</time>
      </trkpt>
      <trkpt lat="41.7739740" lon="-1.7204120">
        <ele>787.5</ele>
        <time>2020-02-19T20:39:21Z</time>
      </trkpt>
      <trkpt lat="41.7739660" lon="-1.7203450">
        <ele>788.7</ele>
        <time>2020-02-19T20:39:41Z</time>
      </trkpt>
      <trkpt lat="41.7739960" lon="-1.7202350">
        <ele>790.8</ele>
        <time>2020-02-19T20:40:01Z</time>
      </trkpt>
      <trkpt lat="41.7739660" lon="-1.7201410">
        <ele>792.5</ele>
        <time>2020-02-19T20:40:21Z</time>
      </trkpt>
      <trkpt lat="41.7739360" lon="-1.7200150">
        <ele>794.6</ele>
        <time>2020-02-19T20:40:41Z</time>
      </trkpt>
      <trkpt lat="41.7739220" lon="-1.7198220">
        <ele>797.5</ele>
        <time>2020-02-19T20:41:01Z</time>
      </trkpt>
      <trkpt lat="41.7738560" lon="-1.7196310">
        <ele>800.3</ele>
        <time>2020-02-19T20:41:21Z</time>
      </trkpt>
      <trkpt lat="41.7738280" lon="-1.7195450">
        <ele>801.6</ele>
        <time>2020-02-19T20:41:41Z</time>
      </trkpt>
      <trkpt lat="41.7738320" lon="-1.7194520">
        <ele>802.9</ele>
        <time>2020-02-19T20:42:01Z</time>
      </trkpt>
      <trkpt lat="41.7737780" lon="-1.7192750">
        <ele>805.5</ele>
        <time>2020-02-19T20:42:21Z</time>
      </trkpt>
      <trkpt lat="41.7737680" lon="-1.7192130">
        <ele>806.4</ele>
        <time>2020-02-19T20:42:41Z</time>
      </trkpt>
      <trkpt lat="41.7737540" lon="-1.7191190">
        <ele>807.7</ele>
        <time>2020-02-19T20:43:01Z</time>
      </trkpt>
      <trkpt lat="41.7736620" lon="-1.7189450">
        <ele>810.1</ele>
        <time>2020-02-19T20:43:21Z</time>
      </trkpt>
      <trkpt lat="41.7736320" lon="-1.7188880">
        <ele>810.9</ele>
        <time>2020-02-19T20:43:41Z</time>
      </trkpt>
      <trkpt lat="41.7735980" lon="-1.7187570">
        <ele>812.6</ele>
        <time>2020-02-19T20:44:01Z</time>
      </trkpt>
      <trkpt lat="41.7735160" lon="-1.7185910">
        <ele>815.8</ele>
        <time>2020-02-19T20:44:21Z</time>
      </trkpt>
      <trkpt lat="41.7734520" lon="-1.7184350">
        <ele>819.1</ele>
        <time>2020-02-19T20:44:41Z</time>
      </trkpt>
      <trkpt lat="41.7734260" lon="-1.7182850">
        <ele>821.2</ele>
        <time>2020-02-19T20:45:01Z</time>
      </trkpt>
      <trkpt lat="41.7734300" lon="-1.7180380">
        <ele>823.7</ele>
        <time>2020-02-19T20:45:21Z</time>
      </trkpt>
      <trkpt lat="41.7734500" lon="-1.7178690">
        <ele>825.6</ele>
        <time>2020-02-19T20:45:41Z</time>
      </trkpt>
      <trkpt lat="41.7735260" lon="-1.7176540">
        <ele>828.1</ele>
        <time>2020-02-19T20:46:01Z</time>
      </trkpt>
      <trkpt lat="41.7735980" lon="-1.7174320">
        <ele>831.2</ele>
        <time>2020-02-19T20:46:21Z</time>
      </trkpt>
      <trkpt lat="41.7735620" lon="-1.7173460">
        <ele>832.7</ele>
        <time>2020-02-19T20:46:41Z</time>
      </trkpt>
      <trkpt lat="41.7734400" lon="-1.7173890">
        <ele>834.9</ele>
        <time>2020-02-19T20:47:01Z</time>
      </trkpt>
      <trkpt lat="41.7733760" lon="-1.7174670">
        <ele>836.4</ele>
        <time>2020-02-19T20:47:21Z</time>
      </trkpt>
      <trkpt lat="41.7731680" lon="-1.7175550">
        <ele>840.3</ele>
        <time>2020-02-19T20:47:41Z</time>
      </trkpt>
      <trkpt lat="41.7730240" lon="-1.7176380">
        <ele>842.8</ele>
        <time>2020-02-19T20:48:01Z</time>
      </trkpt>
      <trkpt lat="41.7728380" lon="-1.7176790">
        <ele>845.4</ele>
        <time>2020-02-19T20:48:21Z</time>
      </trkpt>
      <trkpt lat="41.7727240" lon="-1.7177080">
        <ele>846.9</ele>
        <time>2020-02-19T20:48:41Z</time>
      </trkpt>
      <trkpt lat="41.7726600" lon="-1.7176760">
        <ele>847.7</ele>
        <time>2020-02-19T20:49:01Z</time>
      </trkpt>
      <trkpt lat="41.7726180" lon="-1.7175790">
        <ele>848.5</ele>
        <time>2020-02-19T20:49:21Z</time>
      </trkpt>
      <trkpt lat="41.7724560" lon="-1.7175180">
        <ele>849.6</ele>
        <time>2020-02-19T20:49:41Z</time>
      </trkpt>
      <trkpt lat="41.7722080" lon="-1.7173540">
        <ele>850.5</ele>
        <time>2020-02-19T20:50:01Z</time>
      </trkpt>
      <trkpt lat="41.7718880" lon="-1.7171340">
        <ele>850.9</ele>
        <time>2020-02-19T20:50:21Z</time>
      </trkpt>
      <trkpt lat="41.7714640" lon="-1.7168440">
        <ele>851.3</ele>
        <time>2020-02-19T20:50:41Z</time>
      </trkpt>
      <trkpt lat="41.7708600" lon="-1.7165600">
        <ele>851.8</ele>
        <time>2020-02-19T20:51:01Z</time>
      </trkpt>
      <trkpt lat="41.7704710" lon="-1.7176010">
        <ele>853.7</ele>
        <time>2020-02-19T20:51:21Z</time>
      </trkpt>
      <trkpt lat="41.7702350" lon="-1.7181640">
        <ele>854.9</ele>
        <time>2020-02-19T20:51:41Z</time>
      </trkpt>
      <trkpt lat="41.7699550" lon="-1.7180840">
        <ele>855.2</ele>
        <time>2020-02-19T20:52:01Z</time>
      </trkpt>
      <trkpt lat="41.7697870" lon="-1.7180030">
        <ele>855.1</ele>
        <time>2020-02-19T20:52:21Z</time>
      </trkpt>
      <trkpt lat="41.7696190" lon="-1.7178850">
        <ele>854.9</ele>
        <time>2020-02-19T20:52:41Z</time>
      </trkpt>
      <trkpt lat="41.7694150" lon="-1.7178150">
        <ele>854.8</ele>
        <time>2020-02-19T20:53:01Z</time>
      </trkpt>
      <trkpt lat="41.7691790" lon="-1.7178370">
        <ele>854.8</ele>
        <time>2020-02-19T20:53:21Z</time>
      </trkpt>
      <trkpt lat="41.7690350" lon="-1.7178800">
        <ele>854.9</ele>
        <time>2020-02-19T20:53:41Z</time>
      </trkpt>
      <trkpt lat="41.7689830" lon="-1.7178150">
        <ele>854.9</ele>
        <time>2020-02-19T20:54:01Z</time>
      </trkpt>
      <trkpt lat="41.7687950" lon="-1.7178370">
        <ele>854.8</ele>
        <time>2020-02-19T20:54:21Z</time>
      </trkpt>
      <trkpt lat="41.7685550" lon="-1.7177830">
        <ele>854.3</ele>
        <time>2020-02-19T20:54:41Z</time>
      </trkpt>
      <trkpt lat="41.7682270" lon="-1.7176870">
        <ele>853.5</ele>
        <time>2020-02-19T20:55:01Z</time>
      </trkpt>
      <trkpt lat="41.7680030" lon="-1.7176380">
        <ele>852.7</ele>
        <time>2020-02-19T20:55:21Z</time>
      </trkpt>
      <trkpt lat="41.7676950" lon="-1.7174720">
        <ele>850.9</ele>
        <time>2020-02-19T20:55:41Z</time>
      </trkpt>
      <trkpt lat="41.7670830" lon="-1.7173170">
        <ele>849.2</ele>
        <time>2020-02-19T20:56:01Z</time>
      </trkpt>
      <trkpt lat="41.7667630" lon="-1.7171450">
        <ele>850.9</ele>
        <time>2020-02-19T20:56:21Z</time>
      </trkpt>
      <trkpt lat="41.7664980" lon="-1.7170910">
        <ele>852.1</ele>
        <time>2020-02-19T20:56:41Z</time>
      </trkpt>
      <trkpt lat="41.7659020" lon="-1.7168660">
        <ele>854.5</ele>
        <time>2020-02-19T20:57:01Z</time>
      </trkpt>
      <trkpt lat="41.7657100" lon="-1.7167910">
        <ele>855.2</ele>
        <time>2020-02-19T20:57:21Z</time>
      </trkpt>
      <trkpt lat="41.7654820" lon="-1.7164740">
        <ele>856.0</ele>
        <time>2020-02-19T20:57:41Z</time>
      </trkpt>
      <trkpt lat="41.7651660" lon="-1.7163560">
        <ele>857.5</ele>
        <time>2020-02-19T20:58:01Z</time>
      </trkpt>
      <trkpt lat="41.7649940" lon="-1.7162490">
        <ele>859.2</ele>
        <time>2020-02-19T20:58:21Z</time>
      </trkpt>
      <trkpt lat="41.7646300" lon="-1.7161150">
        <ele>863.2</ele>
        <time>2020-02-19T20:58:41Z</time>
      </trkpt>
      <trkpt lat="41.7644180" lon="-1.7160290">
        <ele>864.8</ele>
        <time>2020-02-19T20:59:01Z</time>
      </trkpt>
      <trkpt lat="41.7640820" lon="-1.7157720">
        <ele>867.6</ele>
        <time>2020-02-19T20:59:21Z</time>
      </trkpt>
      <trkpt lat="41.7638420" lon="-1.7156540">
        <ele>869.1</ele>
        <time>2020-02-19T20:59:41Z</time>
      </trkpt>
      <trkpt lat="41.7637100" lon="-1.7155520">
        <ele>869.9</ele>
        <time>2020-02-19T21:00:01Z</time>
      </trkpt>
      <trkpt lat="41.7635180" lon="-1.7157180">
        <ele>871.5</ele>
        <time>2020-02-19T21:00:21Z</time>
      </trkpt>
      <trkpt lat="41.7634220" lon="-1.7157980">
        <ele>872.0</ele>
        <time>2020-02-19T21:00:41Z</time>
      </trkpt>
      <trkpt lat="41.7632730" lon="-1.7158410">
        <ele>872.9</ele>
        <time>2020-02-19T21:01:01Z</time>
      </trkpt>
      <trkpt lat="41.7626730" lon="-1.7158730">
        <ele>877.2</ele>
        <time>2020-02-19T21:01:21Z</time>
      </trkpt>
      <trkpt lat="41.7624170" lon="-1.7157820">
        <ele>879.3</ele>
        <time>2020-02-19T21:01:41Z</time>
      </trkpt>
      <trkpt lat="41.7621210" lon="-1.7156210">
        <ele>882.0</ele>
        <time>2020-02-19T21:02:01Z</time>
      </trkpt>
      <trkpt lat="41.7619850" lon="-1.7156540">
        <ele>883.2</ele>
        <time>2020-02-19T21:02:21Z</time>
      </trkpt>
      <trkpt lat="41.7618650" lon="-1.7156160">
        <ele>884.2</ele>
        <time>2020-02-19T21:02:41Z</time>
      </trkpt>
      <trkpt lat="41.7615930" lon="-1.7154710">
        <ele>886.2</ele>
        <time>2020-02-19T21:03:01Z</time>
      </trkpt>
      <trkpt lat="41.7615210" lon="-1.7152400">
        <ele>887.6</ele>
        <time>2020-02-19T21:03:21Z</time>
      </trkpt>
      <trkpt lat="41.7612290" lon="-1.7149880">
        <ele>889.7</ele>
        <time>2020-02-19T21:03:41Z</time>
      </trkpt>
      <trkpt lat="41.7606450" lon="-1.7146210">
        <ele>893.2</ele>
        <time>2020-02-19T21:04:01Z</time>
      </trkpt>
      <trkpt lat="41.7602880" lon="-1.7144200">
        <ele>894.0</ele>
        <time>2020-02-19T21:04:21Z</time>
      </trkpt>
      <trkpt lat="41.7599080" lon="-1.7142130">
        <ele>896.4</ele>
        <time>2020-02-19T21:04:41Z</time>
      </trkpt>
      <trkpt lat="41.7595120" lon="-1.7139930">
        <ele>899.7</ele>
        <time>2020-02-19T21:05:01Z</time>
      </trkpt>
      <trkpt lat="41.7592620" lon="-1.7138620">
        <ele>902.1</ele>
        <time>2020-02-19T21:05:21Z</time>
      </trkpt>
      <trkpt lat="41.7590100" lon="-1.7137300">
        <ele>903.0</ele>
        <time>2020-02-19T21:05:41Z</time>
      </trkpt>
      <trkpt lat="41.7588500" lon="-1.7136390">
        <ele>903.0</ele>
        <time>2020-02-19T21:06:01Z</time>
      </trkpt>
      <trkpt lat="41.7587640" lon="-1.7136980">
        <ele>902.8</ele>
        <time>2020-02-19T21:06:21Z</time>
      </trkpt>
      <trkpt lat="41.7585920" lon="-1.7137410">
        <ele>901.7</ele>
        <time>2020-02-19T21:06:41Z</time>
      </trkpt>
      <trkpt lat="41.7584240" lon="-1.7137060">
        <ele>900.9</ele>
        <time>2020-02-19T21:07:01Z</time>
      </trkpt>
      <trkpt lat="41.7583700" lon="-1.7138320">
        <ele>901.1</ele>
        <time>2020-02-19T21:07:21Z</time>
      </trkpt>
      <trkpt lat="41.7583280" lon="-1.7138890">
        <ele>901.5</ele>
        <time>2020-02-19T21:07:41Z</time>
      </trkpt>
      <trkpt lat="41.7581880" lon="-1.7139480">
        <ele>903.0</ele>
        <time>2020-02-19T21:08:01Z</time>
      </trkpt>
      <trkpt lat="41.7581280" lon="-1.7139930">
        <ele>903.7</ele>
        <time>2020-02-19T21:08:21Z</time>
      </trkpt>
      <trkpt lat="41.7580060" lon="-1.7140500">
        <ele>905.1</ele>
        <time>2020-02-19T21:08:41Z</time>
      </trkpt>
      <trkpt lat="41.7578590" lon="-1.7143150">
        <ele>907.5</ele>
        <time>2020-02-19T21:09:01Z</time>
      </trkpt>
      <trkpt lat="41.7577070" lon="-1.7146050">
        <ele>910.3</ele>
        <time>2020-02-19T21:09:21Z</time>
      </trkpt>
      <trkpt lat="41.7575710" lon="-1.7148140">
        <ele>912.4</ele>
        <time>2020-02-19T21:09:41Z</time>
      </trkpt>
      <trkpt lat="41.7571230" lon="-1.7151870">
        <ele>913.1</ele>
        <time>2020-02-19T21:10:01Z</time>
      </trkpt>
      <trkpt lat="41.7568950" lon="-1.7155030">
        <ele>911.6</ele>
        <time>2020-02-19T21:10:21Z</time>
      </trkpt>
      <trkpt lat="41.7566310" lon="-1.7157550">
        <ele>909.8</ele>
        <time>2020-02-19T21:10:41Z</time>
      </trkpt>
      <trkpt lat="41.7564310" lon="-1.7160930">
        <ele>908.9</ele>
        <time>2020-02-19T21:11:01Z</time>
      </trkpt>
      <trkpt lat="41.7562670" lon="-1.7162920">
        <ele>909.3</ele>
        <time>2020-02-19T21:11:21Z</time>
      </trkpt>
      <trkpt lat="41.7559350" lon="-1.7164580">
        <ele>910.0</ele>
        <time>2020-02-19T21:11:41Z</time>
      </trkpt>
      <trkpt lat="41.7556910" lon="-1.7163880">
        <ele>910.2</ele>
        <time>2020-02-19T21:12:01Z</time>
      </trkpt>
      <trkpt lat="41.7555220" lon="-1.7162810">
        <ele>910.5</ele>
        <time>2020-02-19T21:12:21Z</time>
      </trkpt>
      <trkpt lat="41.7552180" lon="-1.7162970">
        <ele>911.2</ele>
        <time>2020-02-19T21:12:41Z</time>
      </trkpt>
      <trkpt lat="41.7549860" lon="-1.7164310">
        <ele>912.2</ele>
        <time>2020-02-19T21:13:01Z</time>
      </trkpt>
      <trkpt lat="41.7546500" lon="-1.7165870">
        <ele>913.7</ele>
        <time>2020-02-19T21:13:21Z</time>
      </trkpt>
      <trkpt lat="41.7543500" lon="-1.7167690">
        <ele>915.3</ele>
        <time>2020-02-19T21:13:41Z</time>
      </trkpt>
      <trkpt lat="41.7541900" lon="-1.7169300">
        <ele>917.1</ele>
        <time>2020-02-19T21:14:01Z</time>
      </trkpt>
      <trkpt lat="41.7540540" lon="-1.7170910">
        <ele>920.0</ele>
        <time>2020-02-19T21:14:21Z</time>
      </trkpt>
      <trkpt lat="41.7539980" lon="-1.7170110">
        <ele>922.3</ele>
        <time>2020-02-19T21:14:41Z</time>
      </trkpt>
      <trkpt lat="41.7539140" lon="-1.7169140">
        <ele>926.5</ele>
        <time>2020-02-19T21:15:01Z</time>
      </trkpt>
      <trkpt lat="41.7538580" lon="-1.7168500">
        <ele>929.4</ele>
        <time>2020-02-19T21:15:21Z</time>
      </trkpt>
      <trkpt lat="41.7537700" lon="-1.7167690">
        <ele>933.4</ele>
        <time>2020-02-19T21:15:41Z</time>
      </trkpt>
      <trkpt lat="41.7536300" lon="-1.7167370">
        <ele>937.4</ele>
        <time>2020-02-19T21:16:01Z</time>
      </trkpt>
      <trkpt lat="41.7534770" lon="-1.7167260">
        <ele>940.1</ele>
        <time>2020-02-19T21:16:21Z</time>
      </trkpt>
      <trkpt lat="41.7532490" lon="-1.7169840">
        <ele>942.5</ele>
        <time>2020-02-19T21:16:41Z</time>
      </trkpt>
      <trkpt lat="41.7530530" lon="-1.7171720">
        <ele>943.4</ele>
        <time>2020-02-19T21:17:01Z</time>
      </trkpt>
      <trkpt lat="41.7528490" lon="-1.7173220">
        <ele>944.3</ele>
        <time>2020-02-19T21:17:21Z</time>
      </trkpt>
      <trkpt lat="41.7525410" lon="-1.7175470">
        <ele>945.5</ele>
        <time>2020-02-19T21:17:41Z</time>
      </trkpt>
      <trkpt lat="41.7522770" lon="-1.7176220">
        <ele>946.5</ele>
        <time>2020-02-19T21:18:01Z</time>
      </trkpt>
      <trkpt lat="41.7521490" lon="-1.7179010">
        <ele>947.4</ele>
        <time>2020-02-19T21:18:21Z</time>
      </trkpt>
      <trkpt lat="41.7520610" lon="-1.7180620">
        <ele>948.3</ele>
        <time>2020-02-19T21:18:41Z</time>
      </trkpt>
      <trkpt lat="41.7517450" lon="-1.7178150">
        <ele>949.2</ele>
        <time>2020-02-19T21:19:01Z</time>
      </trkpt>
      <trkpt lat="41.7516410" lon="-1.7176120">
        <ele>947.2</ele>
        <time>2020-02-19T21:19:21Z</time>
      </trkpt>
      <trkpt lat="41.7514240" lon="-1.7178960">
        <ele>942.7</ele>
        <time>2020-02-19T21:19:41Z</time>
      </trkpt>
      <trkpt lat="41.7513040" lon="-1.7178150">
        <ele>942.2</ele>
        <time>2020-02-19T21:20:01Z</time>
      </trkpt>
      <trkpt lat="41.7512480" lon="-1.7177670">
        <ele>942.3</ele>
        <time>2020-02-19T21:20:21Z</time>
      </trkpt>
      <trkpt lat="41.7511800" lon="-1.7176120">
        <ele>942.1</ele>
        <time>2020-02-19T21:20:41Z</time>
      </trkpt>
      <trkpt lat="41.7510920" lon="-1.7173220">
        <ele>941.8</ele>
        <time>2020-02-19T21:21:01Z</time>
      </trkpt>
      <trkpt lat="41.7510080" lon="-1.7171390">
        <ele>943.3</ele>
        <time>2020-02-19T21:21:21Z</time>
      </trkpt>
      <trkpt lat="41.7505640" lon="-1.7169460">
        <ele>948.0</ele>
        <time>2020-02-19T21:21:41Z</time>
      </trkpt>
      <trkpt lat="41.7504560" lon="-1.7168550">
        <ele>948.8</ele>
        <time>2020-02-19T21:22:01Z</time>
      </trkpt>
      <trkpt lat="41.7503160" lon="-1.7167430">
        <ele>949.5</ele>
        <time>2020-02-19T21:22:21Z</time>
      </trkpt>
      <trkpt lat="41.7501360" lon="-1.7161260">
        <ele>948.8</ele>
        <time>2020-02-19T21:22:41Z</time>
      </trkpt>
      <trkpt lat="41.7498320" lon="-1.7159160">
        <ele>943.9</ele>
        <time>2020-02-19T21:23:01Z</time>
      </trkpt>
      <trkpt lat="41.7494750" lon="-1.7157610">
        <ele>948.1</ele>
        <time>2020-02-19T21:23:21Z</time>
      </trkpt>
      <trkpt lat="41.7491830" lon="-1.7155520">
        <ele>951.0</ele>
        <time>2020-02-19T21:23:41Z</time>
      </trkpt>
      <trkpt lat="41.7490790" lon="-1.7155460">
        <ele>951.5</ele>
        <time>2020-02-19T21:24:01Z</time>
      </trkpt>
      <trkpt lat="41.7486070" lon="-1.7154120">
        <ele>952.6</ele>
        <time>2020-02-19T21:24:21Z</time>
      </trkpt>
      <trkpt lat="41.7484590" lon="-1.7153580">
        <ele>952.8</ele>
        <time>2020-02-19T21:24:41Z</time>
      </trkpt>
      <trkpt lat="41.7478950" lon="-1.7159970">
        <ele>955.9</ele>
        <time>2020-02-19T21:25:01Z</time>
      </trkpt>
      <trkpt lat="41.7475220" lon="-1.7163080">
        <ele>957.5</ele>
        <time>2020-02-19T21:25:21Z</time>
      </trkpt>
      <trkpt lat="41.7472260" lon="-1.7165010">
        <ele>958.2</ele>
        <time>2020-02-19T21:25:41Z</time>
      </trkpt>
      <trkpt lat="41.7468820" lon="-1.7167160">
        <ele>958.9</ele>
        <time>2020-02-19T21:26:01Z</time>
      </trkpt>
      <trkpt lat="41.7464860" lon="-1.7169360">
        <ele>959.1</ele>
        <time>2020-02-19T21:26:21Z</time>
      </trkpt>
      <trkpt lat="41.7462540" lon="-1.7172200">
        <ele>958.7</ele>
        <time>2020-02-19T21:26:41Z</time>
      </trkpt>
      <trkpt lat="41.7459810" lon="-1.7175310">
        <ele>958.3</ele>
        <time>2020-02-19T21:27:01Z</time>
      </trkpt>
      <trkpt lat="41.7458210" lon="-1.7176870">
        <ele>958.4</ele>
        <time>2020-02-19T21:27:21Z</time>
      </trkpt>
      <trkpt lat="41.7457410" lon="-1.7179070">
        <ele>959.2</ele>
        <time>2020-02-19T21:27:41Z</time>
      </trkpt>
      <trkpt lat="41.7456810" lon="-1.7177940">
        <ele>960.0</ele>
        <time>2020-02-19T21:28:01Z</time>
      </trkpt>
      <trkpt lat="41.7456530" lon="-1.7176060">
        <ele>961.6</ele>
        <time>2020-02-19T21:28:21Z</time>
      </trkpt>
      <trkpt lat="41.7455330" lon="-1.7174180">
        <ele>964.5</ele>
        <time>2020-02-19T21:28:41Z</time>
      </trkpt>
      <trkpt lat="41.7452730" lon="-1.7174290">
        <ele>968.7</ele>
        <time>2020-02-19T21:29:01Z</time>
      </trkpt>
      <trkpt lat="41.7450130" lon="-1.7173540">
        <ele>973.5</ele>
        <time>2020-02-19T21:29:21Z</time>
      </trkpt>
      <trkpt lat="41.7448330" lon="-1.7173380">
        <ele>975.7</ele>
        <time>2020-02-19T21:29:41Z</time>
      </trkpt>
      <trkpt lat="41.7444040" lon="-1.7174450">
        <ele>979.8</ele>
        <time>2020-02-19T21:30:01Z</time>
      </trkpt>
      <trkpt lat="41.7442920" lon="-1.7176540">
        <ele>981.7</ele>
        <time>2020-02-19T21:30:21Z</time>
      </trkpt>
      <trkpt lat="41.7440880" lon="-1.7178530">
        <ele>984.9</ele>
        <time>2020-02-19T21:30:41Z</time>
      </trkpt>
      <trkpt lat="41.7437760" lon="-1.7181430">
        <ele>988.9</ele>
        <time>2020-02-19T21:31:01Z</time>
      </trkpt>
      <trkpt lat="41.7437760" lon="-1.7183570">
        <ele>990.0</ele>
        <time>2020-02-19T21:31:21Z</time>
      </trkpt>
      <trkpt lat="41.7440840" lon="-1.7188080">
        <ele>991.6</ele>
        <time>2020-02-19T21:31:41Z</time>
      </trkpt>
      <trkpt lat="41.7439400" lon="-1.7190330">
        <ele>992.4</ele>
        <time>2020-02-19T21:32:01Z</time>
      </trkpt>
      <trkpt lat="41.7436560" lon="-1.7192640">
        <ele>994.9</ele>
        <time>2020-02-19T21:32:21Z</time>
      </trkpt>
      <trkpt lat="41.7432560" lon="-1.7197140">
        <ele>999.1</ele>
        <time>2020-02-19T21:32:41Z</time>
      </trkpt>
      <trkpt lat="41.7429920" lon="-1.7201270">
        <ele>1001.3</ele>
        <time>2020-02-19T21:33:01Z</time>
      </trkpt>
      <trkpt lat="41.7427910" lon="-1.7203960">
        <ele>1003.2</ele>
        <time>2020-02-19T21:33:21Z</time>
      </trkpt>
      <trkpt lat="41.7425790" lon="-1.7205030">
        <ele>1005.4</ele>
        <time>2020-02-19T21:33:41Z</time>
      </trkpt>
      <trkpt lat="41.7424150" lon="-1.7206850">
        <ele>1007.5</ele>
        <time>2020-02-19T21:34:01Z</time>
      </trkpt>
      <trkpt lat="41.7421110" lon="-1.7210610">
        <ele>1010.3</ele>
        <time>2020-02-19T21:34:21Z</time>
      </trkpt>
      <trkpt lat="41.7418070" lon="-1.7213670">
        <ele>1013.6</ele>
        <time>2020-02-19T21:34:41Z</time>
      </trkpt>
      <trkpt lat="41.7415550" lon="-1.7215870">
        <ele>1016.8</ele>
        <time>2020-02-19T21:35:01Z</time>
      </trkpt>
      <trkpt lat="41.7412820" lon="-1.7216130">
        <ele>1019.5</ele>
        <time>2020-02-19T21:35:21Z</time>
      </trkpt>
      <trkpt lat="41.7410740" lon="-1.7216990">
        <ele>1020.4</ele>
        <time>2020-02-19T21:35:41Z</time>
      </trkpt>
      <trkpt lat="41.7408980" lon="-1.7218870">
        <ele>1019.6</ele>
        <time>2020-02-19T21:36:01Z</time>
      </trkpt>
      <trkpt lat="41.7408980" lon="-1.7220050">
        <ele>1019.2</ele>
        <time>2020-02-19T21:36:21Z</time>
      </trkpt>
      <trkpt lat="41.7409060" lon="-1.7221070">
        <ele>1019.0</ele>
        <time>2020-02-19T21:36:41Z</time>
      </trkpt>
      <trkpt lat="41.7406780" lon="-1.7221820">
        <ele>1019.6</ele>
        <time>2020-02-19T21:37:01Z</time>
      </trkpt>
      <trkpt lat="41.7402980" lon="-1.7222570">
        <ele>1023.4</ele>
        <time>2020-02-19T21:37:21Z</time>
      </trkpt>
      <trkpt lat="41.7399170" lon="-1.7222410">
        <ele>1028.4</ele>
        <time>2020-02-19T21:37:41Z</time>
      </trkpt>
      <trkpt lat="41.7397410" lon="-1.7223430">
        <ele>1030.7</ele>
        <time>2020-02-19T21:38:01Z</time>
      </trkpt>
      <trkpt lat="41.7394090" lon="-1.7226540">
        <ele>1035.3</ele>
        <time>2020-02-19T21:38:21Z</time>
      </trkpt>
      <trkpt lat="41.7396090" lon="-1.7227770">
        <ele>1036.0</ele>
        <time>2020-02-19T21:38:41Z</time>
      </trkpt>
      <trkpt lat="41.7400140" lon="-1.7229010">
        <ele>1036.7</ele>
        <time>2020-02-19T21:39:01Z</time>
      </trkpt>
      <trkpt lat="41.7402100" lon="-1.7231580">
        <ele>1037.7</ele>
        <time>2020-02-19T21:39:21Z</time>
      </trkpt>
      <trkpt lat="41.7406180" lon="-1.7235020">
        <ele>1036.4</ele>
        <time>2020-02-19T21:39:41Z</time>
      </trkpt>
      <trkpt lat="41.7406860" lon="-1.7235880">
        <ele>1035.3</ele>
        <time>2020-02-19T21:40:01Z</time>
      </trkpt>
      <trkpt lat="41.7407500" lon="-1.7235450">
        <ele>1033.9</ele>
        <time>2020-02-19T21:40:21Z</time>
      </trkpt>
      <trkpt lat="41.7407620" lon="-1.7234720">
        <ele>1032.6</ele>
        <time>2020-02-19T21:40:41Z</time>
      </trkpt>
      <trkpt lat="41.7407920" lon="-1.7233700">
        <ele>1030.5</ele>
        <time>2020-02-19T21:41:01Z</time>
      </trkpt>
      <trkpt lat="41.7408360" lon="-1.7232680">
        <ele>1027.8</ele>
        <time>2020-02-19T21:41:21Z</time>
      </trkpt>
      <trkpt lat="41.7409440" lon="-1.7233110">
        <ele>1024.0</ele>
        <time>2020-02-19T21:41:41Z</time>
      </trkpt>
      <trkpt lat="41.7410740" lon="-1.7233650">
        <ele>1021.3</ele>
        <time>2020-02-19T21:42:01Z</time>
      </trkpt>
      <trkpt lat="41.7411460" lon="-1.7233250">
        <ele>1021.2</ele>
        <time>2020-02-19T21:42:21Z</time>
      </trkpt>
      <trkpt lat="41.7412660" lon="-1.7232710">
        <ele>1022.6</ele>
        <time>2020-02-19T21:42:41Z</time>
      </trkpt>
      <trkpt lat="41.7414550" lon="-1.7231660">
        <ele>1024.8</ele>
        <time>2020-02-19T21:43:01Z</time>
      </trkpt>
      <trkpt lat="41.7416990" lon="-1.7229950">
        <ele>1024.5</ele>
        <time>2020-02-19T21:43:21Z</time>
      </trkpt>
      <trkpt lat="41.7418590" lon="-1.7229730">
        <ele>1024.0</ele>
        <time>2020-02-19T21:43:41Z</time>
      </trkpt>
      <trkpt lat="41.7419330" lon="-1.7230620">
        <ele>1024.5</ele>
        <time>2020-02-19T21:44:01Z</time>
      </trkpt>
      <trkpt lat="41.7419910" lon="-1.7231580">
        <ele>1026.1</ele>
        <time>2020-02-19T21:44:21Z</time>
      </trkpt>
      <trkpt lat="41.7417270" lon="-1.7234480">
        <ele>1030.2</ele>
        <time>2020-02-19T21:44:41Z</time>
      </trkpt>
      <trkpt lat="41.7414530" lon="-1.7238240">
        <ele>1034.6</ele>
        <time>2020-02-19T21:45:01Z</time>
      </trkpt>
      <trkpt lat="41.7412320" lon="-1.7241510">
        <ele>1037.6</ele>
        <time>2020-02-19T21:45:21Z</time>
      </trkpt>
      <trkpt lat="41.7410020" lon="-1.7244620">
        <ele>1041.2</ele>
        <time>2020-02-19T21:45:41Z</time>
      </trkpt>
      <trkpt lat="41.7408820" lon="-1.7247030">
        <ele>1044.4</ele>
        <time>2020-02-19T21:46:01Z</time>
      </trkpt>
      <trkpt lat="41.7407120" lon="-1.7250120">
        <ele>1049.2</ele>
        <time>2020-02-19T21:46:21Z</time>
      </trkpt>
      <trkpt lat="41.7405440" lon="-1.7253010">
        <ele>1053.3</ele>
        <time>2020-02-19T21:46:41Z</time>
      </trkpt>
      <trkpt lat="41.7403640" lon="-1.7255430">
        <ele>1056.0</ele>
        <time>2020-02-19T21:47:01Z</time>
      </trkpt>
      <trkpt lat="41.7402420" lon="-1.7259080">
        <ele>1058.7</ele>
        <time>2020-02-19T21:47:21Z</time>
      </trkpt>
      <trkpt lat="41.7401460" lon="-1.7260870">
        <ele>1060.8</ele>
        <time>2020-02-19T21:47:41Z</time>
      </trkpt>
      <trkpt lat="41.7400340" lon="-1.7262320">
        <ele>1063.6</ele>
        <time>2020-02-19T21:48:01Z</time>
      </trkpt>
      <trkpt lat="41.7398490" lon="-1.7262750">
        <ele>1068.6</ele>
        <time>2020-02-19T21:48:21Z</time>
      </trkpt>
      <trkpt lat="41.7395670" lon="-1.7261570">
        <ele>1074.3</ele>
        <time>2020-02-19T21:48:41Z</time>
      </trkpt>
      <trkpt lat="41.7393210" lon="-1.7260180">
        <ele>1079.0</ele>
        <time>2020-02-19T21:49:01Z</time>
      </trkpt>
      <trkpt lat="41.7390810" lon="-1.7258620">
        <ele>1082.5</ele>
        <time>2020-02-19T21:49:21Z</time>
      </trkpt>
      <trkpt lat="41.7388270" lon="-1.7257920">
        <ele>1086.1</ele>
        <time>2020-02-19T21:49:41Z</time>
      </trkpt>
      <trkpt lat="41.7385810" lon="-1.7258220">
        <ele>1089.6</ele>
        <time>2020-02-19T21:50:01Z</time>
      </trkpt>
      <trkpt lat="41.7382920" lon="-1.7259530">
        <ele>1094.7</ele>
        <time>2020-02-19T21:50:21Z</time>
      </trkpt>
      <trkpt lat="41.7381300" lon="-1.7259720">
        <ele>1097.0</ele>
        <time>2020-02-19T21:50:41Z</time>
      </trkpt>
      <trkpt lat="41.7378400" lon="-1.7259720">
        <ele>1100.6</ele>
        <time>2020-02-19T21:51:01Z</time>
      </trkpt>
      <trkpt lat="41.7376600" lon="-1.7260230">
        <ele>1102.8</ele>
        <time>2020-02-19T21:51:21Z</time>
      </trkpt>
      <trkpt lat="41.7373540" lon="-1.7261060">
        <ele>1108.6</ele>
        <time>2020-02-19T21:51:41Z</time>
      </trkpt>
      <trkpt lat="41.7369130" lon="-1.7262210">
        <ele>1116.2</ele>
        <time>2020-02-19T21:52:01Z</time>
      </trkpt>
      <trkpt lat="41.7366250" lon="-1.7262780">
        <ele>1120.6</ele>
        <time>2020-02-19T21:52:21Z</time>
      </trkpt>
      <trkpt lat="41.7363970" lon="-1.7263530">
        <ele>1124.6</ele>
        <time>2020-02-19T21:52:41Z</time>
      </trkpt>
      <trkpt lat="41.7360190" lon="-1.7265410">
        <ele>1131.9</ele>
        <time>2020-02-19T21:53:01Z</time>
      </trkpt>
      <trkpt lat="41.7358300" lon="-1.7266210">
        <ele>1135.4</ele>
        <time>2020-02-19T21:53:21Z</time>
      </trkpt>
      <trkpt lat="41.7353400" lon="-1.7269270">
        <ele>1144.6</ele>
        <time>2020-02-19T21:53:41Z</time>
      </trkpt>
      <trkpt lat="41.7352200" lon="-1.7270180">
        <ele>1147.1</ele>
        <time>2020-02-19T21:54:01Z</time>
      </trkpt>
      <trkpt lat="41.7348800" lon="-1.7272170">
        <ele>1153.8</ele>
        <time>2020-02-19T21:54:21Z</time>
      </trkpt>
      <trkpt lat="41.7346940" lon="-1.7273370">
        <ele>1157.4</ele>
        <time>2020-02-19T21:54:41Z</time>
      </trkpt>
      <trkpt lat="41.7344890" lon="-1.7275460">
        <ele>1161.6</ele>
        <time>2020-02-19T21:55:01Z</time>
      </trkpt>
      <trkpt lat="41.7340530" lon="-1.7279380">
        <ele>1171.4</ele>
        <time>2020-02-19T21:55:21Z</time>
      </trkpt>
      <trkpt lat="41.7338730" lon="-1.7280880">
        <ele>1175.4</ele>
        <time>2020-02-19T21:55:41Z</time>
      </trkpt>
      <trkpt lat="41.7337010" lon="-1.7282970">
        <ele>1179.4</ele>
        <time>2020-02-19T21:56:01Z</time>
      </trkpt>
      <trkpt lat="41.7333850" lon="-1.7288550">
        <ele>1186.3</ele>
        <time>2020-02-19T21:56:21Z</time>
      </trkpt>
      <trkpt lat="41.7332360" lon="-1.7292040">
        <ele>1187.8</ele>
        <time>2020-02-19T21:56:41Z</time>
      </trkpt>
      <trkpt lat="41.7331080" lon="-1.7296060">
        <ele>1194.0</ele>
        <time>2020-02-19T21:57:01Z</time>
      </trkpt>
      <trkpt lat="41.7329560" lon="-1.7300030">
        <ele>1202.7</ele>
        <time>2020-02-19T21:57:21Z</time>
      </trkpt>
      <trkpt lat="41.7328120" lon="-1.7302230">
        <ele>1208.6</ele>
        <time>2020-02-19T21:57:41Z</time>
      </trkpt>
      <trkpt lat="41.7325600" lon="-1.7306950">
        <ele>1219.9</ele>
        <time>2020-02-19T21:58:01Z</time>
      </trkpt>
      <trkpt lat="41.7324640" lon="-1.7309100">
        <ele>1224.8</ele>
        <time>2020-02-19T21:58:21Z</time>
      </trkpt>
      <trkpt lat="41.7321400" lon="-1.7313280">
        <ele>1235.3</ele>
        <time>2020-02-19T21:58:41Z</time>
      </trkpt>
      <trkpt lat="41.7319710" lon="-1.7315430">
        <ele>1240.5</ele>
        <time>2020-02-19T21:59:01Z</time>
      </trkpt>
      <trkpt lat="41.7314950" lon="-1.7321120">
        <ele>1254.0</ele>
        <time>2020-02-19T21:59:21Z</time>
      </trkpt>
      <trkpt lat="41.7314150" lon="-1.7322190">
        <ele>1256.5</ele>
        <time>2020-02-19T21:59:41Z</time>
      </trkpt>
      <trkpt lat="41.7311350" lon="-1.7324710">
        <ele>1263.8</ele>
        <time>2020-02-19T22:00:01Z</time>
      </trkpt>
      <trkpt lat="41.7309630" lon="-1.7325620">
        <ele>1268.1</ele>
        <time>2020-02-19T22:00:21Z</time>
      </trkpt>
      <trkpt lat="41.7308750" lon="-1.7326860">
        <ele>1272.5</ele>
        <time>2020-02-19T22:00:41Z</time>
      </trkpt>
      <trkpt lat="41.7307820" lon="-1.7328630">
        <ele>1278.7</ele>
        <time>2020-02-19T22:01:01Z</time>
      </trkpt>
      <trkpt lat="41.7305820" lon="-1.7332270">
        <ele>1290.8</ele>
        <time>2020-02-19T22:01:21Z</time>
      </trkpt>
      <trkpt lat="41.7303860" lon="-1.7336890">
        <ele>1308.8</ele>
        <time>2020-02-19T22:01:41Z</time>
      </trkpt>
      <trkpt lat="41.7302820" lon="-1.7341610">
        <ele>1320.7</ele>
        <time>2020-02-19T22:02:01Z</time>
      </trkpt>
      <trkpt lat="41.7301180" lon="-1.7346650">
        <ele>1331.0</ele>
        <time>2020-02-19T22:02:21Z</time>
      </trkpt>
      <trkpt lat="41.7299860" lon="-1.7350350">
        <ele>1342.0</ele>
        <time>2020-02-19T22:02:41Z</time>
      </trkpt>
      <trkpt lat="41.7298620" lon="-1.7354000">
        <ele>1347.6</ele>
        <time>2020-02-19T22:03:01Z</time>
      </trkpt>
      <trkpt lat="41.7297420" lon="-1.7358670">
        <ele>1353.3</ele>
        <time>2020-02-19T22:03:21Z</time>
      </trkpt>
      <trkpt lat="41.7296450" lon="-1.7361670">
        <ele>1357.0</ele>
        <time>2020-02-19T22:03:41Z</time>
      </trkpt>
      <trkpt lat="41.7294730" lon="-1.7364030">
        <ele>1362.6</ele>
        <time>2020-02-19T22:04:01Z</time>
      </trkpt>
      <trkpt lat="41.7292730" lon="-1.7366550">
        <ele>1369.0</ele>
        <time>2020-02-19T22:04:21Z</time>
      </trkpt>
      <trkpt lat="41.7291770" lon="-1.7367630">
        <ele>1372.1</ele>
        <time>2020-02-19T22:04:41Z</time>
      </trkpt>
      <trkpt lat="41.7290610" lon="-1.7371000">
        <ele>1379.0</ele>
        <time>2020-02-19T22:05:01Z</time>
      </trkpt>
      <trkpt lat="41.7290290" lon="-1.7375400">
        <ele>1386.2</ele>
        <time>2020-02-19T22:05:21Z</time>
      </trkpt>
      <trkpt lat="41.7289570" lon="-1.7379480">
        <ele>1393.1</ele>
        <time>2020-02-19T22:05:41Z</time>
      </trkpt>
      <trkpt lat="41.7288930" lon="-1.7381840">
        <ele>1397.9</ele>
        <time>2020-02-19T22:06:01Z</time>
      </trkpt>
      <trkpt lat="41.7288010" lon="-1.7387100">
        <ele>1406.5</ele>
        <time>2020-02-19T22:06:21Z</time>
      </trkpt>
      <trkpt lat="41.7287210" lon="-1.7389140">
        <ele>1409.4</ele>
        <time>2020-02-19T22:06:41Z</time>
      </trkpt>
      <trkpt lat="41.7285890" lon="-1.7392300">
        <ele>1413.8</ele>
        <time>2020-02-19T22:07:01Z</time>
      </trkpt>
      <trkpt lat="41.7285200" lon="-1.7395310">
        <ele>1417.8</ele>
        <time>2020-02-19T22:07:21Z</time>
      </trkpt>
      <trkpt lat="41.7282840" lon="-1.7402710">
        <ele>1426.5</ele>
        <time>2020-02-19T22:07:41Z</time>
      </trkpt>
      <trkpt lat="41.7280640" lon="-1.7410430">
        <ele>1435.6</ele>
        <time>2020-02-19T22:08:01Z</time>
      </trkpt>
      <trkpt lat="41.7279680" lon="-1.7413810">
        <ele>1439.1</ele>
        <time>2020-02-19T22:08:21Z</time>
      </trkpt>
      <trkpt lat="41.7277080" lon="-1.7419180">
        <ele>1444.8</ele>
        <time>2020-02-19T22:08:41Z</time>
      </trkpt>
      <trkpt lat="41.7274760" lon="-1.7426530">
        <ele>1450.6</ele>
        <time>2020-02-19T22:09:01Z</time>
      </trkpt>
      <trkpt lat="41.7274120" lon="-1.7428030">
        <ele>1451.8</ele>
        <time>2020-02-19T22:09:21Z</time>
      </trkpt>
      <trkpt lat="41.7270110" lon="-1.7434790">
        <ele>1457.9</ele>
        <time>2020-02-19T22:09:41Z</time>
      </trkpt>
      <trkpt lat="41.7269230" lon="-1.7438650">
        <ele>1459.8</ele>
        <time>2020-02-19T22:10:01Z</time>
      </trkpt>
      <trkpt lat="41.7267070" lon="-1.7442080">
        <ele>1463.7</ele>
        <time>2020-02-19T22:10:21Z</time>
      </trkpt>
      <trkpt lat="41.7262340" lon="-1.7444340">
        <ele>1464.0</ele>
        <time>2020-02-19T22:10:41Z</time>
      </trkpt>
      <trkpt lat="41.7260740" lon="-1.7446320">
        <ele>1463.9</ele>
        <time>2020-02-19T22:11:01Z</time>
      </trkpt>
      <trkpt lat="41.7258260" lon="-1.7448840">
        <ele>1462.9</ele>
        <time>2020-02-19T22:11:21Z</time>
      </trkpt>
      <trkpt lat="41.7256140" lon="-1.7449060">
        <ele>1462.1</ele>
        <time>2020-02-19T22:11:41Z</time>
      </trkpt>
      <trkpt lat="41.7254380" lon="-1.7449380">
        <ele>1461.1</ele>
        <time>2020-02-19T22:12:01Z</time>
      </trkpt>
      <trkpt lat="41.7254020" lon="-1.7449160">
        <ele>1460.8</ele>
        <time>2020-02-19T22:12:21Z</time>
      </trkpt>
      <trkpt lat="41.7250610" lon="-1.7445620">
        <ele>1460.5</ele>
        <time>2020-02-19T22:12:41Z</time>
      </trkpt>
      <trkpt lat="41.7243770" lon="-1.7437850">
        <ele>1462.3</ele>
        <time>2020-02-19T22:13:01Z</time>
      </trkpt>
      <trkpt lat="41.7238360" lon="-1.7425240">
        <ele>1465.7</ele>
        <time>2020-02-19T22:13:21Z</time>
      </trkpt>
      <trkpt lat="41.7236720" lon="-1.7419660">
        <ele>1467.4</ele>
        <time>2020-02-19T22:13:41Z</time>
      </trkpt>
      <trkpt lat="41.7234600" lon="-1.7409360">
        <ele>1471.2</ele>
        <time>2020-02-19T22:14:01Z</time>
      </trkpt>
      <trkpt lat="41.7233160" lon="-1.7400720">
        <ele>1470.5</ele>
        <time>2020-02-19T22:14:21Z</time>
      </trkpt>
      <trkpt lat="41.7234000" lon="-1.7396380">
        <ele>1469.6</ele>
        <time>2020-02-19T22:14:41Z</time>
      </trkpt>
      <trkpt lat="41.7236000" lon="-1.7389140">
        <ele>1467.3</ele>
        <time>2020-02-19T22:15:01Z</time>
      </trkpt>
      <trkpt lat="41.7236200" lon="-1.7384150">
        <ele>1464.6</ele>
        <time>2020-02-19T22:15:21Z</time>
      </trkpt>
      <trkpt lat="41.7236680" lon="-1.7382060">
        <ele>1462.9</ele>
        <time>2020-02-19T22:15:41Z</time>
      </trkpt>
      <trkpt lat="41.7238200" lon="-1.7374060">
        <ele>1457.9</ele>
        <time>2020-02-19T22:16:01Z</time>
      </trkpt>
      <trkpt lat="41.7239240" lon="-1.7368480">
        <ele>1456.2</ele>
        <time>2020-02-19T22:16:21Z</time>
      </trkpt>
      <trkpt lat="41.7239400" lon="-1.7365260">
        <ele>1456.0</ele>
        <time>2020-02-19T22:16:41Z</time>
      </trkpt>
      <trkpt lat="41.7237800" lon="-1.7363390">
        <ele>1456.0</ele>
        <time>2020-02-19T22:17:01Z</time>
      </trkpt>
      <trkpt lat="41.7235960" lon="-1.7362260">
        <ele>1455.9</ele>
        <time>2020-02-19T22:17:21Z</time>
      </trkpt>
      <trkpt lat="41.7234400" lon="-1.7360650">
        <ele>1455.6</ele>
        <time>2020-02-19T22:17:41Z</time>
      </trkpt>
      <trkpt lat="41.7234120" lon="-1.7358930">
        <ele>1455.0</ele>
        <time>2020-02-19T22:18:01Z</time>
      </trkpt>
      <trkpt lat="41.7235800" lon="-1.7354320">
        <ele>1453.0</ele>
        <time>2020-02-19T22:18:21Z</time>
      </trkpt>
      <trkpt lat="41.7238120" lon="-1.7349120">
        <ele>1452.2</ele>
        <time>2020-02-19T22:18:41Z</time>
      </trkpt>
      <trkpt lat="41.7239280" lon="-1.7347080">
        <ele>1451.9</ele>
        <time>2020-02-19T22:19:01Z</time>
      </trkpt>
      <trkpt lat="41.7245810" lon="-1.7345790">
        <ele>1447.9</ele>
        <time>2020-02-19T22:19:21Z</time>
      </trkpt>
      <trkpt lat="41.7248930" lon="-1.7342250">
        <ele>1446.2</ele>
        <time>2020-02-19T22:19:41Z</time>
      </trkpt>
      <trkpt lat="41.7254420" lon="-1.7336780">
        <ele>1446.7</ele>
        <time>2020-02-19T22:20:01Z</time>
      </trkpt>
      <trkpt lat="41.7256500" lon="-1.7332970">
        <ele>1448.7</ele>
        <time>2020-02-19T22:20:21Z</time>
      </trkpt>
      <trkpt lat="41.7258660" lon="-1.7330560">
        <ele>1450.9</ele>
        <time>2020-02-19T22:20:41Z</time>
      </trkpt>
      <trkpt lat="41.7262500" lon="-1.7324500">
        <ele>1456.5</ele>
        <time>2020-02-19T22:21:01Z</time>
      </trkpt>
      <trkpt lat="41.7264310" lon="-1.7320950">
        <ele>1459.8</ele>
        <time>2020-02-19T22:21:21Z</time>
      </trkpt>
      <trkpt lat="41.7268230" lon="-1.7308030">
        <ele>1459.9</ele>
        <time>2020-02-19T22:21:41Z</time>
      </trkpt>
      <trkpt lat="41.7269790" lon="-1.7304540">
        <ele>1462.7</ele>
        <time>2020-02-19T22:22:01Z</time>
      </trkpt>
      <trkpt lat="41.7271710" lon="-1.7301480">
        <ele>1466.1</ele>
        <time>2020-02-19T22:22:21Z</time>
      </trkpt>
      <trkpt lat="41.7273430" lon="-1.7297940">
        <ele>1465.2</ele>
        <time>2020-02-19T22:22:41Z</time>
      </trkpt>
      <trkpt lat="41.7273270" lon="-1.7295530">
        <ele>1462.6</ele>
        <time>2020-02-19T22:23:01Z</time>
      </trkpt>
      <trkpt lat="41.7272750" lon="-1.7290650">
        <ele>1458.9</ele>
        <time>2020-02-19T22:23:21Z</time>
      </trkpt>
      <trkpt lat="41.7272110" lon="-1.7286940">
        <ele>1459.4</ele>
        <time>2020-02-19T22:23:41Z</time>
      </trkpt>
      <trkpt lat="41.7272510" lon="-1.7283890">
        <ele>1461.5</ele>
        <time>2020-02-19T22:24:01Z</time>
      </trkpt>
      <trkpt lat="41.7273150" lon="-1.7282170">
        <ele>1462.5</ele>
        <time>2020-02-19T22:24:21Z</time>
      </trkpt>
      <trkpt lat="41.7275000" lon="-1.7277820">
        <ele>1463.1</ele>
        <time>2020-02-19T22:24:41Z</time>
      </trkpt>
      <trkpt lat="41.7278800" lon="-1.7273480">
        <ele>1458.3</ele>
        <time>2020-02-19T22:25:01Z</time>
      </trkpt>
      <trkpt lat="41.7281040" lon="-1.7268170">
        <ele>1452.5</ele>
        <time>2020-02-19T22:25:21Z</time>
      </trkpt>
      <trkpt lat="41.7282560" lon="-1.7265380">
        <ele>1449.7</ele>
        <time>2020-02-19T22:25:41Z</time>
      </trkpt>
      <trkpt lat="41.7282480" lon="-1.7264470">
        <ele>1448.7</ele>
        <time>2020-02-19T22:26:01Z</time>
      </trkpt>
      <trkpt lat="41.7283560" lon="-1.7261730">
        <ele>1445.2</ele>
        <time>2020-02-19T22:26:21Z</time>
      </trkpt>
      <trkpt lat="41.7284360" lon="-1.7259690">
        <ele>1443.2</ele>
        <time>2020-02-19T22:26:41Z</time>
      </trkpt>
      <trkpt lat="41.7285730" lon="-1.7256580">
        <ele>1440.3</ele>
        <time>2020-02-19T22:27:01Z</time>
      </trkpt>
      <trkpt lat="41.7287170" lon="-1.7253260">
        <ele>1437.0</ele>
        <time>2020-02-19T22:27:21Z</time>
      </trkpt>
      <trkpt lat="41.7288290" lon="-1.7250140">
        <ele>1433.5</ele>
        <time>2020-02-19T22:27:41Z</time>
      </trkpt>
      <trkpt lat="41.7289490" lon="-1.7245960">
        <ele>1433.5</ele>
        <time>2020-02-19T22:28:01Z</time>
      </trkpt>
      <trkpt lat="41.7289890" lon="-1.7242800">
        <ele>1433.8</ele>
        <time>2020-02-19T22:28:21Z</time>
      </trkpt>
      <trkpt lat="41.7290330" lon="-1.7240760">
        <ele>1433.8</ele>
        <time>2020-02-19T22:28:41Z</time>
      </trkpt>
      <trkpt lat="41.7292050" lon="-1.7233350">
        <ele>1435.5</ele>
        <time>2020-02-19T22:29:01Z</time>
      </trkpt>
      <trkpt lat="41.7292450" lon="-1.7231100">
        <ele>1434.0</ele>
        <time>2020-02-19T22:29:21Z</time>
      </trkpt>
      <trkpt lat="41.7291690" lon="-1.7230000">
        <ele>1431.6</ele>
        <time>2020-02-19T22:29:41Z</time>
      </trkpt>
      <trkpt lat="41.7291110" lon="-1.7229120">
        <ele>1429.6</ele>
        <time>2020-02-19T22:30:01Z</time>
      </trkpt>
      <trkpt lat="41.7291970" lon="-1.7226760">
        <ele>1426.1</ele>
        <time>2020-02-19T22:30:21Z</time>
      </trkpt>
      <trkpt lat="41.7291790" lon="-1.7225710">
        <ele>1424.3</ele>
        <time>2020-02-19T22:30:41Z</time>
      </trkpt>
      <trkpt lat="41.7287750" lon="-1.7226350">
        <ele>1415.6</ele>
        <time>2020-02-19T22:31:01Z</time>
      </trkpt>
      <trkpt lat="41.7286590" lon="-1.7225980">
        <ele>1413.0</ele>
        <time>2020-02-19T22:31:21Z</time>
      </trkpt>
      <trkpt lat="41.7286810" lon="-1.7224800">
        <ele>1411.0</ele>
        <time>2020-02-19T22:31:41Z</time>
      </trkpt>
      <trkpt lat="41.7288710" lon="-1.7221470">
        <ele>1404.3</ele>
        <time>2020-02-19T22:32:01Z</time>
      </trkpt>
      <trkpt lat="41.7288090" lon="-1.7221180">
        <ele>1402.9</ele>
        <time>2020-02-19T22:32:21Z</time>
      </trkpt>
      <trkpt lat="41.7285390" lon="-1.7222170">
        <ele>1396.8</ele>
        <time>2020-02-19T22:32:41Z</time>
      </trkpt>
      <trkpt lat="41.7286470" lon="-1.7220350">
        <ele>1393.1</ele>
        <time>2020-02-19T22:33:01Z</time>
      </trkpt>
      <trkpt lat="41.7284740" lon="-1.7220690">
        <ele>1389.3</ele>
        <time>2020-02-19T22:33:21Z</time>
      </trkpt>
      <trkpt lat="41.7286710" lon="-1.7215810">
        <ele>1380.4</ele>
        <time>2020-02-19T22:33:41Z</time>
      </trkpt>
      <trkpt lat="41.7287890" lon="-1.7212970">
        <ele>1375.2</ele>
        <time>2020-02-19T22:34:01Z</time>
      </trkpt>
      <trkpt lat="41.7288230" lon="-1.7212000">
        <ele>1373.4</ele>
        <time>2020-02-19T22:34:21Z</time>
      </trkpt>
      <trkpt lat="41.7289330" lon="-1.7209590">
        <ele>1368.9</ele>
        <time>2020-02-19T22:34:41Z</time>
      </trkpt>
      <trkpt lat="41.7292190" lon="-1.7203770">
        <ele>1357.7</ele>
        <time>2020-02-19T22:35:01Z</time>
      </trkpt>
      <trkpt lat="41.7292270" lon="-1.7202400">
        <ele>1355.5</ele>
        <time>2020-02-19T22:35:21Z</time>
      </trkpt>
      <trkpt lat="41.7290330" lon="-1.7202050">
        <ele>1351.3</ele>
        <time>2020-02-19T22:35:41Z</time>
      </trkpt>
      <trkpt lat="41.7290150" lon="-1.7201860">
        <ele>1350.8</ele>
        <time>2020-02-19T22:36:01Z</time>
      </trkpt>
      <trkpt lat="41.7290510" lon="-1.7200010">
        <ele>1347.7</ele>
        <time>2020-02-19T22:36:21Z</time>
      </trkpt>
      <trkpt lat="41.7291190" lon="-1.7198990">
        <ele>1345.5</ele>
        <time>2020-02-19T22:36:41Z</time>
      </trkpt>
      <trkpt lat="41.7290670" lon="-1.7199050">
        <ele>1344.4</ele>
        <time>2020-02-19T22:37:01Z</time>
      </trkpt>
      <trkpt lat="41.7289090" lon="-1.7199420">
        <ele>1340.2</ele>
        <time>2020-02-19T22:37:21Z</time>
      </trkpt>
      <trkpt lat="41.7290770" lon="-1.7195510">
        <ele>1334.1</ele>
        <time>2020-02-19T22:37:41Z</time>
      </trkpt>
      <trkpt lat="41.7291510" lon="-1.7194250">
        <ele>1332.0</ele>
        <time>2020-02-19T22:38:01Z</time>
      </trkpt>
      <trkpt lat="41.7292170" lon="-1.7193500">
        <ele>1330.4</ele>
        <time>2020-02-19T22:38:21Z</time>
      </trkpt>
      <trkpt lat="41.7291710" lon="-1.7193170">
        <ele>1329.5</ele>
        <time>2020-02-19T22:38:41Z</time>
      </trkpt>
      <trkpt lat="41.7290530" lon="-1.7193040">
        <ele>1327.3</ele>
        <time>2020-02-19T22:39:01Z</time>
      </trkpt>
      <trkpt lat="41.7289170" lon="-1.7193390">
        <ele>1324.9</ele>
        <time>2020-02-19T22:39:21Z</time>
      </trkpt>
      <trkpt lat="41.7286590" lon="-1.7194600">
        <ele>1319.9</ele>
        <time>2020-02-19T22:39:41Z</time>
      </trkpt>
      <trkpt lat="41.7286930" lon="-1.7192290">
        <ele>1316.8</ele>
        <time>2020-02-19T22:40:01Z</time>
      </trkpt>
      <trkpt lat="41.7287510" lon="-1.7187780">
        <ele>1310.6</ele>
        <time>2020-02-19T22:40:21Z</time>
      </trkpt>
      <trkpt lat="41.7287650" lon="-1.7186760">
        <ele>1309.2</ele>
        <time>2020-02-19T22:40:41Z</time>
      </trkpt>
      <trkpt lat="41.7287330" lon="-1.7183520">
        <ele>1304.8</ele>
        <time>2020-02-19T22:41:01Z</time>
      </trkpt>
      <trkpt lat="41.7287830" lon="-1.7180890">
        <ele>1301.2</ele>
        <time>2020-02-19T22:41:21Z</time>
      </trkpt>
      <trkpt lat="41.7287710" lon="-1.7174560">
        <ele>1292.7</ele>
        <time>2020-02-19T22:41:41Z</time>
      </trkpt>
      <trkpt lat="41.7288030" lon="-1.7171850">
        <ele>1289.0</ele>
        <time>2020-02-19T22:42:01Z</time>
      </trkpt>
      <trkpt lat="41.7288370" lon="-1.7167770">
        <ele>1283.5</ele>
        <time>2020-02-19T22:42:21Z</time>
      </trkpt>
      <trkpt lat="41.7287990" lon="-1.7161390">
        <ele>1274.9</ele>
        <time>2020-02-19T22:42:41Z</time>
      </trkpt>
      <trkpt lat="41.7287970" lon="-1.7159080">
        <ele>1271.8</ele>
        <time>2020-02-19T22:43:01Z</time>
      </trkpt>
      <trkpt lat="41.7287490" lon="-1.7153960">
        <ele>1264.8</ele>
        <time>2020-02-19T22:43:21Z</time>
      </trkpt>
      <trkpt lat="41.7287250" lon="-1.7149050">
        <ele>1258.2</ele>
        <time>2020-02-19T22:43:41Z</time>
      </trkpt>
      <trkpt lat="41.7287210" lon="-1.7145750">
        <ele>1253.8</ele>
        <time>2020-02-19T22:44:01Z</time>
      </trkpt>
      <trkpt lat="41.7287030" lon="-1.7143260">
        <ele>1250.4</ele>
        <time>2020-02-19T22:44:21Z</time>
      </trkpt>
      <trkpt lat="41.7288370" lon="-1.7140010">
        <ele>1245.4</ele>
        <time>2020-02-19T22:44:41Z</time>
      </trkpt>
      <trkpt lat="41.7289690" lon="-1.7140760">
        <ele>1242.9</ele>
        <time>2020-02-19T22:45:01Z</time>
      </trkpt>
      <trkpt lat="41.7290730" lon="-1.7143550">
        <ele>1238.7</ele>
        <time>2020-02-19T22:45:21Z</time>
      </trkpt>
      <trkpt lat="41.7291410" lon="-1.7142430">
        <ele>1236.7</ele>
        <time>2020-02-19T22:45:41Z</time>
      </trkpt>
      <trkpt lat="41.7294130" lon="-1.7135450">
        <ele>1226.1</ele>
        <time>2020-02-19T22:46:01Z</time>
      </trkpt>
      <trkpt lat="41.7295050" lon="-1.7132400">
        <ele>1221.7</ele>
        <time>2020-02-19T22:46:21Z</time>
      </trkpt>
      <trkpt lat="41.7294570" lon="-1.7128640">
        <ele>1216.6</ele>
        <time>2020-02-19T22:46:41Z</time>
      </trkpt>
      <trkpt lat="41.7293370" lon="-1.7122260">
        <ele>1207.8</ele>
        <time>2020-02-19T22:47:01Z</time>
      </trkpt>
      <trkpt lat="41.7293690" lon="-1.7118450">
        <ele>1202.6</ele>
        <time>2020-02-19T22:47:21Z</time>
      </trkpt>
      <trkpt lat="41.7292650" lon="-1.7118290">
        <ele>1200.7</ele>
        <time>2020-02-19T22:47:41Z</time>
      </trkpt>
      <trkpt lat="41.7292290" lon="-1.7117210">
        <ele>1199.1</ele>
        <time>2020-02-19T22:48:01Z</time>
      </trkpt>
      <trkpt lat="41.7292570" lon="-1.7114590">
        <ele>1195.6</ele>
        <time>2020-02-19T22:48:21Z</time>
      </trkpt>
      <trkpt lat="41.7292890" lon="-1.7109490">
        <ele>1188.9</ele>
        <time>2020-02-19T22:48:41Z</time>
      </trkpt>
      <trkpt lat="41.7293210" lon="-1.7099190">
        <ele>1180.1</ele>
        <time>2020-02-19T22:49:01Z</time>
      </trkpt>
      <trkpt lat="41.7293770" lon="-1.7092860">
        <ele>1174.6</ele>
        <time>2020-02-19T22:49:21Z</time>
      </trkpt>
      <trkpt lat="41.7293130" lon="-1.7084490">
        <ele>1163.0</ele>
        <time>2020-02-19T22:49:41Z</time>
      </trkpt>
      <trkpt lat="41.7294410" lon="-1.7077730">
        <ele>1155.0</ele>
        <time>2020-02-19T22:50:01Z</time>
      </trkpt>
      <trkpt lat="41.7296170" lon="-1.7071400">
        <ele>1143.9</ele>
        <time>2020-02-19T22:50:21Z</time>
      </trkpt>
      <trkpt lat="41.7295650" lon="-1.7068990">
        <ele>1140.6</ele>
        <time>2020-02-19T22:50:41Z</time>
      </trkpt>
      <trkpt lat="41.7294970" lon="-1.7068340">
        <ele>1139.6</ele>
        <time>2020-02-19T22:51:01Z</time>
      </trkpt>
      <trkpt lat="41.7293010" lon="-1.7066840">
        <ele>1137.3</ele>
        <time>2020-02-19T22:51:21Z</time>
      </trkpt>
      <trkpt lat="41.7291570" lon="-1.7065980">
        <ele>1135.3</ele>
        <time>2020-02-19T22:51:41Z</time>
      </trkpt>
      <trkpt lat="41.7289930" lon="-1.7067750">
        <ele>1131.8</ele>
        <time>2020-02-19T22:52:01Z</time>
      </trkpt>
      <trkpt lat="41.7286810" lon="-1.7070330">
        <ele>1123.7</ele>
        <time>2020-02-19T22:52:21Z</time>
      </trkpt>
      <trkpt lat="41.7285650" lon="-1.7071350">
        <ele>1120.3</ele>
        <time>2020-02-19T22:52:41Z</time>
      </trkpt>
      <trkpt lat="41.7284400" lon="-1.7072150">
        <ele>1116.9</ele>
        <time>2020-02-19T22:53:01Z</time>
      </trkpt>
      <trkpt lat="41.7282560" lon="-1.7073330">
        <ele>1111.8</ele>
        <time>2020-02-19T22:53:21Z</time>
      </trkpt>
      <trkpt lat="41.7280000" lon="-1.7073710">
        <ele>1104.4</ele>
        <time>2020-02-19T22:53:41Z</time>
      </trkpt>
      <trkpt lat="41.7278880" lon="-1.7074060">
        <ele>1100.3</ele>
        <time>2020-02-19T22:54:01Z</time>
      </trkpt>
      <trkpt lat="41.7277960" lon="-1.7074970">
        <ele>1096.2</ele>
        <time>2020-02-19T22:54:21Z</time>
      </trkpt>
      <trkpt lat="41.7277380" lon="-1.7075640">
        <ele>1093.5</ele>
        <time>2020-02-19T22:54:41Z</time>
      </trkpt>
      <trkpt lat="41.7275880" lon="-1.7075100">
        <ele>1089.0</ele>
        <time>2020-02-19T22:55:01Z</time>
      </trkpt>
      <trkpt lat="41.7275640" lon="-1.7074890">
        <ele>1088.5</ele>
        <time>2020-02-19T22:55:21Z</time>
      </trkpt>
      <trkpt lat="41.7274560" lon="-1.7073680">
        <ele>1087.3</ele>
        <time>2020-02-19T22:55:41Z</time>
      </trkpt>
      <trkpt lat="41.7274220" lon="-1.7072100">
        <ele>1086.8</ele>
        <time>2020-02-19T22:56:01Z</time>
      </trkpt>
      <trkpt lat="41.7273930" lon="-1.7068210">
        <ele>1087.4</ele>
        <time>2020-02-19T22:56:21Z</time>
      </trkpt>
      <trkpt lat="41.7274360" lon="-1.7065420">
        <ele>1086.5</ele>
        <time>2020-02-19T22:56:41Z</time>
      </trkpt>
      <trkpt lat="41.7274820" lon="-1.7063460">
        <ele>1085.3</ele>
        <time>2020-02-19T22:57:01Z</time>
      </trkpt>
      <trkpt lat="41.7276180" lon="-1.7060270">
        <ele>1081.5</ele>
        <time>2020-02-19T22:57:21Z</time>
      </trkpt>
      <trkpt lat="41.7277240" lon="-1.7057640">
        <ele>1078.8</ele>
        <time>2020-02-19T22:57:41Z</time>
      </trkpt>
      <trkpt lat="41.7280800" lon="-1.7054020">
        <ele>1074.9</ele>
        <time>2020-02-19T22:58:01Z</time>
      </trkpt>
      <trkpt lat="41.7282560" lon="-1.7053160">
        <ele>1073.5</ele>
        <time>2020-02-19T22:58:21Z</time>
      </trkpt>
      <trkpt lat="41.7284580" lon="-1.7051230">
        <ele>1070.4</ele>
        <time>2020-02-19T22:58:41Z</time>
      </trkpt>
      <trkpt lat="41.7285200" lon="-1.7048040">
        <ele>1067.4</ele>
        <time>2020-02-19T22:59:01Z</time>
      </trkpt>
      <trkpt lat="41.7286230" lon="-1.7044820">
        <ele>1063.1</ele>
        <time>2020-02-19T22:59:21Z</time>
      </trkpt>
      <trkpt lat="41.7286530" lon="-1.7043370">
        <ele>1061.6</ele>
        <time>2020-02-19T22:59:41Z</time>
      </trkpt>
      <trkpt lat="41.7286630" lon="-1.7040910">
        <ele>1059.4</ele>
        <time>2020-02-19T23:00:01Z</time>
      </trkpt>
      <trkpt lat="41.7287470" lon="-1.7038040">
        <ele>1056.7</ele>
        <time>2020-02-19T23:00:21Z</time>
      </trkpt>
      <trkpt lat="41.7288150" lon="-1.7035890">
        <ele>1055.2</ele>
        <time>2020-02-19T23:00:41Z</time>
      </trkpt>
      <trkpt lat="41.7289510" lon="-1.7032700">
        <ele>1053.4</ele>
        <time>2020-02-19T23:01:01Z</time>
      </trkpt>
      <trkpt lat="41.7291210" lon="-1.7029510">
        <ele>1049.6</ele>
        <time>2020-02-19T23:01:21Z</time>
      </trkpt>
      <trkpt lat="41.7292490" lon="-1.7027870">
        <ele>1046.3</ele>
        <time>2020-02-19T23:01:41Z</time>
      </trkpt>
      <trkpt lat="41.7292810" lon="-1.7026960">
        <ele>1044.7</ele>
        <time>2020-02-19T23:02:01Z</time>
      </trkpt>
      <trkpt lat="41.7293250" lon="-1.7024620">
        <ele>1040.8</ele>
        <time>2020-02-19T23:02:21Z</time>
      </trkpt>
      <trkpt lat="41.7293250" lon="-1.7023150">
        <ele>1037.9</ele>
        <time>2020-02-19T23:02:41Z</time>
      </trkpt>
      <trkpt lat="41.7293370" lon="-1.7021970">
        <ele>1035.3</ele>
        <time>2020-02-19T23:03:01Z</time>
      </trkpt>
      <trkpt lat="41.7293070" lon="-1.7019340">
        <ele>1029.7</ele>
        <time>2020-02-19T23:03:21Z</time>
      </trkpt>
      <trkpt lat="41.7294830" lon="-1.7016770">
        <ele>1022.1</ele>
        <time>2020-02-19T23:03:41Z</time>
      </trkpt>
      <trkpt lat="41.7296670" lon="-1.7012230">
        <ele>1013.4</ele>
        <time>2020-02-19T23:04:01Z</time>
      </trkpt>
      <trkpt lat="41.7299240" lon="-1.7004830">
        <ele>1009.9</ele>
        <time>2020-02-19T23:04:21Z</time>
      </trkpt>
      <trkpt lat="41.7300260" lon="-1.7003090">
        <ele>1008.2</ele>
        <time>2020-02-19T23:04:41Z</time>
      </trkpt>
      <trkpt lat="41.7300580" lon="-1.7001290">
        <ele>1007.0</ele>
        <time>2020-02-19T23:05:01Z</time>
      </trkpt>
      <trkpt lat="41.7304620" lon="-1.6994230">
        <ele>997.5</ele>
        <time>2020-02-19T23:05:21Z</time>
      </trkpt>
      <trkpt lat="41.7305460" lon="-1.6992950">
        <ele>996.0</ele>
        <time>2020-02-19T23:05:41Z</time>
      </trkpt>
      <trkpt lat="41.7307940" lon="-1.6990180">
        <ele>991.8</ele>
        <time>2020-02-19T23:06:01Z</time>
      </trkpt>
      <trkpt lat="41.7309790" lon="-1.6986160">
        <ele>988.2</ele>
        <time>2020-02-19T23:06:21Z</time>
      </trkpt>
      <trkpt lat="41.7310390" lon="-1.6981440">
        <ele>985.4</ele>
        <time>2020-02-19T23:06:41Z</time>
      </trkpt>
      <trkpt lat="41.7310670" lon="-1.6977150">
        <ele>983.0</ele>
        <time>2020-02-19T23:07:01Z</time>
      </trkpt>
      <trkpt lat="41.7309110" lon="-1.6968460">
        <ele>975.2</ele>
        <time>2020-02-19T23:07:21Z</time>
      </trkpt>
      <trkpt lat="41.7307980" lon="-1.6964760">
        <ele>972.1</ele>
        <time>2020-02-19T23:07:41Z</time>
      </trkpt>
      <trkpt lat="41.7306140" lon="-1.6954830">
        <ele>966.6</ele>
        <time>2020-02-19T23:08:01Z</time>
      </trkpt>
      <trkpt lat="41.7305380" lon="-1.6952310">
        <ele>964.5</ele>
        <time>2020-02-19T23:08:21Z</time>
      </trkpt>
      <trkpt lat="41.7304580" lon="-1.6940890">
        <ele>956.0</ele>
        <time>2020-02-19T23:08:41Z</time>
      </trkpt>
      <trkpt lat="41.7305220" lon="-1.6936700">
        <ele>954.9</ele>
        <time>2020-02-19T23:09:01Z</time>
      </trkpt>
      <trkpt lat="41.7305220" lon="-1.6932680">
        <ele>954.6</ele>
        <time>2020-02-19T23:09:21Z</time>
      </trkpt>
      <trkpt lat="41.7305220" lon="-1.6928600">
        <ele>952.0</ele>
        <time>2020-02-19T23:09:41Z</time>
      </trkpt>
      <trkpt lat="41.7304380" lon="-1.6920660">
        <ele>945.4</ele>
        <time>2020-02-19T23:10:01Z</time>
      </trkpt>
      <trkpt lat="41.7305180" lon="-1.6914810">
        <ele>943.5</ele>
        <time>2020-02-19T23:10:21Z</time>
      </trkpt>
      <trkpt lat="41.7305460" lon="-1.6910150">
        <ele>942.0</ele>
        <time>2020-02-19T23:10:41Z</time>
      </trkpt>
      <trkpt lat="41.7304700" lon="-1.6902100">
        <ele>933.3</ele>
        <time>2020-02-19T23:11:01Z</time>
      </trkpt>
      <trkpt lat="41.7307860" lon="-1.6891430">
        <ele>925.0</ele>
        <time>2020-02-19T23:11:21Z</time>
      </trkpt>
      <trkpt lat="41.7309470" lon="-1.6885150">
        <ele>923.9</ele>
        <time>2020-02-19T23:11:41Z</time>
      </trkpt>
      <trkpt lat="41.7311390" lon="-1.6879730">
        <ele>923.0</ele>
        <time>2020-02-19T23:12:01Z</time>
      </trkpt>
      <trkpt lat="41.7312790" lon="-1.6873620">
        <ele>921.6</ele>
        <time>2020-02-19T23:12:21Z</time>
      </trkpt>
      <trkpt lat="41.7313830" lon="-1.6869750">
        <ele>919.6</ele>
        <time>2020-02-19T23:12:41Z</time>
      </trkpt>
      <trkpt lat="41.7314950" lon="-1.6866530">
        <ele>919.1</ele>
        <time>2020-02-19T23:13:01Z</time>
      </trkpt>
      <trkpt lat="41.7313950" lon="-1.6862570">
        <ele>919.0</ele>
        <time>2020-02-19T23:13:21Z</time>
      </trkpt>
      <trkpt lat="41.7313070" lon="-1.6857310">
        <ele>917.2</ele>
        <time>2020-02-19T23:13:41Z</time>
      </trkpt>
      <trkpt lat="41.7312990" lon="-1.6853340">
        <ele>915.7</ele>
        <time>2020-02-19T23:14:01Z</time>
      </trkpt>
      <trkpt lat="41.7312950" lon="-1.6849210">
        <ele>914.3</ele>
        <time>2020-02-19T23:14:21Z</time>
      </trkpt>
      <trkpt lat="41.7314190" lon="-1.6839340">
        <ele>911.8</ele>
        <time>2020-02-19T23:14:41Z</time>
      </trkpt>
      <trkpt lat="41.7315350" lon="-1.6836440">
        <ele>911.7</ele>
        <time>2020-02-19T23:15:01Z</time>
      </trkpt>
      <trkpt lat="41.7315030" lon="-1.6832790">
        <ele>911.9</ele>
        <time>2020-02-19T23:15:21Z</time>
      </trkpt>
      <trkpt lat="41.7313670" lon="-1.6831180">
        <ele>912.2</ele>
        <time>2020-02-19T23:15:41Z</time>
      </trkpt>
      <trkpt lat="41.7312950" lon="-1.6826890">
        <ele>911.2</ele>
        <time>2020-02-19T23:16:01Z</time>
      </trkpt>
      <trkpt lat="41.7312070" lon="-1.6824260">
        <ele>909.8</ele>
        <time>2020-02-19T23:16:21Z</time>
      </trkpt>
      <trkpt lat="41.7309270" lon="-1.6820670">
        <ele>906.9</ele>
        <time>2020-02-19T23:16:41Z</time>
      </trkpt>
      <trkpt lat="41.7306900" lon="-1.6810530">
        <ele>901.9</ele>
        <time>2020-02-19T23:17:01Z</time>
      </trkpt>
      <trkpt lat="41.7306180" lon="-1.6805860">
        <ele>900.4</ele>
        <time>2020-02-19T23:17:21Z</time>
      </trkpt>
      <trkpt lat="41.7305780" lon="-1.6801300">
        <ele>896.6</ele>
        <time>2020-02-19T23:17:41Z</time>
      </trkpt>
      <trkpt lat="41.7304100" lon="-1.6800230">
        <ele>893.0</ele>
        <time>2020-02-19T23:18:01Z</time>
      </trkpt>
      <trkpt lat="41.7302540" lon="-1.6798300">
        <ele>890.3</ele>
        <time>2020-02-19T23:18:21Z</time>
      </trkpt>
      <trkpt lat="41.7302460" lon="-1.6797070">
        <ele>889.5</ele>
        <time>2020-02-19T23:18:41Z</time>
      </trkpt>
      <trkpt lat="41.7302660" lon="-1.6794710">
        <ele>887.6</ele>
        <time>2020-02-19T23:19:01Z</time>
      </trkpt>
      <trkpt lat="41.7302500" lon="-1.6791380">
        <ele>884.4</ele>
        <time>2020-02-19T23:19:21Z</time>
      </trkpt>
      <trkpt lat="41.7302600" lon="-1.6789610">
        <ele>882.8</ele>
        <time>2020-02-19T23:19:41Z</time>
      </trkpt>
      <trkpt lat="41.7301760" lon="-1.6788190">
        <ele>878.0</ele>
        <time>2020-02-19T23:20:01Z</time>
      </trkpt>
      <trkpt lat="41.7300720" lon="-1.6785530">
        <ele>869.8</ele>
        <time>2020-02-19T23:20:21Z</time>
      </trkpt>
      <trkpt lat="41.7300660" lon="-1.6784330">
        <ele>867.0</ele>
        <time>2020-02-19T23:20:41Z</time>
      </trkpt>
      <trkpt lat="41.7300600" lon="-1.6783410">
        <ele>865.1</ele>
        <time>2020-02-19T23:21:01Z</time>
      </trkpt>
      <trkpt lat="41.7299160" lon="-1.6783490">
        <ele>865.7</ele>
        <time>2020-02-19T23:21:21Z</time>
      </trkpt>
      <trkpt lat="41.7298880" lon="-1.6783250">
        <ele>867.7</ele>
        <time>2020-02-19T23:21:41Z</time>
      </trkpt>
      <trkpt lat="41.7297860" lon="-1.6782930">
        <ele>868.4</ele>
        <time>2020-02-19T23:22:01Z</time>
      </trkpt>
      <trkpt lat="41.7296170" lon="-1.6781540">
        <ele>868.8</ele>
        <time>2020-02-19T23:22:21Z</time>
      </trkpt>
      <trkpt lat="41.7295690" lon="-1.6781370">
        <ele>869.0</ele>
        <time>2020-02-19T23:22:41Z</time>
      </trkpt>
      <trkpt lat="41.7294790" lon="-1.6782070">
        <ele>869.4</ele>
        <time>2020-02-19T23:23:01Z</time>
      </trkpt>
      <trkpt lat="41.7294130" lon="-1.6782930">
        <ele>869.9</ele>
        <time>2020-02-19T23:23:21Z</time>
      </trkpt>
      <trkpt lat="41.7293270" lon="-1.6783840">
        <ele>870.7</ele>
        <time>2020-02-19T23:23:41Z</time>
      </trkpt>
      <trkpt lat="41.7292210" lon="-1.6784460">
        <ele>872.0</ele>
        <time>2020-02-19T23:24:01Z</time>
      </trkpt>
      <trkpt lat="41.7291150" lon="-1.6784410">
        <ele>873.2</ele>
        <time>2020-02-19T23:24:21Z</time>
      </trkpt>
      <trkpt lat="41.7290210" lon="-1.6784430">
        <ele>874.4</ele>
        <time>2020-02-19T23:24:41Z</time>
      </trkpt>
      <trkpt lat="41.7289370" lon="-1.6783710">
        <ele>875.9</ele>
        <time>2020-02-19T23:25:01Z</time>
      </trkpt>
      <trkpt lat="41.7287770" lon="-1.6783600">
        <ele>878.2</ele>
        <time>2020-02-19T23:25:21Z</time>
      </trkpt>
      <trkpt lat="41.7286050" lon="-1.6783950">
        <ele>880.4</ele>
        <time>2020-02-19T23:25:41Z</time>
      </trkpt>
      <trkpt lat="41.7283120" lon="-1.6785020">
        <ele>883.2</ele>
        <time>2020-02-19T23:26:01Z</time>
      </trkpt>
      <trkpt lat="41.7278720" lon="-1.6782450">
        <ele>889.0</ele>
        <time>2020-02-19T23:26:21Z</time>
      </trkpt>
      <trkpt lat="41.7277420" lon="-1.6783410">
        <ele>891.5</ele>
        <time>2020-02-19T23:26:41Z</time>
      </trkpt>
      <trkpt lat="41.7274720" lon="-1.6784080">
        <ele>896.8</ele>
        <time>2020-02-19T23:27:01Z</time>
      </trkpt>
      <trkpt lat="41.7273750" lon="-1.6786440">
        <ele>900.7</ele>
        <time>2020-02-19T23:27:21Z</time>
      </trkpt>
      <trkpt lat="41.7269270" lon="-1.6795030">
        <ele>913.3</ele>
        <time>2020-02-19T23:27:41Z</time>
      </trkpt>
      <trkpt lat="41.7266390" lon="-1.6802320">
        <ele>914.1</ele>
        <time>2020-02-19T23:28:01Z</time>
      </trkpt>
      <trkpt lat="41.7265990" lon="-1.6804150">
        <ele>914.4</ele>
        <time>2020-02-19T23:28:21Z</time>
      </trkpt>
      <trkpt lat="41.7264970" lon="-1.6805680">
        <ele>914.9</ele>
        <time>2020-02-19T23:28:41Z</time>
      </trkpt>
      <trkpt lat="41.7264310" lon="-1.6806430">
        <ele>916.0</ele>
        <time>2020-02-19T23:29:01Z</time>
      </trkpt>
      <trkpt lat="41.7263230" lon="-1.6808550">
        <ele>918.9</ele>
        <time>2020-02-19T23:29:21Z</time>
      </trkpt>
      <trkpt lat="41.7256460" lon="-1.6811980">
        <ele>926.1</ele>
        <time>2020-02-19T23:29:41Z</time>
      </trkpt>
      <trkpt lat="41.7254220" lon="-1.6814120">
        <ele>928.6</ele>
        <time>2020-02-19T23:30:01Z</time>
      </trkpt>
      <trkpt lat="41.7249810" lon="-1.6815730">
        <ele>934.4</ele>
        <time>2020-02-19T23:30:21Z</time>
      </trkpt>
      <trkpt lat="41.7246930" lon="-1.6816700">
        <ele>938.2</ele>
        <time>2020-02-19T23:30:41Z</time>
      </trkpt>
      <trkpt lat="41.7244210" lon="-1.6819440">
        <ele>943.3</ele>
        <time>2020-02-19T23:31:01Z</time>
      </trkpt>
      <trkpt lat="41.7241490" lon="-1.6821800">
        <ele>947.4</ele>
        <time>2020-02-19T23:31:21Z</time>
      </trkpt>
      <trkpt lat="41.7238160" lon="-1.6827480">
        <ele>954.1</ele>
        <time>2020-02-19T23:31:41Z</time>
      </trkpt>
      <trkpt lat="41.7236520" lon="-1.6828770">
        <ele>957.4</ele>
        <time>2020-02-19T23:32:01Z</time>
      </trkpt>
      <trkpt lat="41.7234160" lon="-1.6830490">
        <ele>961.3</ele>
        <time>2020-02-19T23:32:21Z</time>
      </trkpt>
      <trkpt lat="41.7231280" lon="-1.6831180">
        <ele>966.0</ele>
        <time>2020-02-19T23:32:41Z</time>
      </trkpt>
      <trkpt lat="41.7226830" lon="-1.6832360">
        <ele>973.8</ele>
        <time>2020-02-19T23:33:01Z</time>
      </trkpt>
      <trkpt lat="41.7223830" lon="-1.6833970">
        <ele>980.3</ele>
        <time>2020-02-19T23:33:21Z</time>
      </trkpt>
      <trkpt lat="41.7220990" lon="-1.6835420">
        <ele>984.6</ele>
        <time>2020-02-19T23:33:41Z</time>
      </trkpt>
      <trkpt lat="41.7216940" lon="-1.6836710">
        <ele>989.3</ele>
        <time>2020-02-19T23:34:01Z</time>
      </trkpt>
      <trkpt lat="41.7213420" lon="-1.6839390">
        <ele>995.7</ele>
        <time>2020-02-19T23:34:21Z</time>
      </trkpt>
      <trkpt lat="41.7211860" lon="-1.6840140">
        <ele>998.7</ele>
        <time>2020-02-19T23:34:41Z</time>
      </trkpt>
      <trkpt lat="41.7209730" lon="-1.6840360">
        <ele>1002.2</ele>
        <time>2020-02-19T23:35:01Z</time>
      </trkpt>
      <trkpt lat="41.7205510" lon="-1.6840680">
        <ele>1007.9</ele>
        <time>2020-02-19T23:35:21Z</time>
      </trkpt>
      <trkpt lat="41.7201990" lon="-1.6839180">
        <ele>1013.7</ele>
        <time>2020-02-19T23:35:41Z</time>
      </trkpt>
      <trkpt lat="41.7199680" lon="-1.6839200">
        <ele>1017.9</ele>
        <time>2020-02-19T23:36:01Z</time>
      </trkpt>
      <trkpt lat="41.7197760" lon="-1.6840200">
        <ele>1022.5</ele>
        <time>2020-02-19T23:36:21Z</time>
      </trkpt>
      <trkpt lat="41.7195300" lon="-1.6841990">
        <ele>1029.3</ele>
        <time>2020-02-19T23:36:41Z</time>
      </trkpt>
      <trkpt lat="41.7191600" lon="-1.6843980">
        <ele>1040.3</ele>
        <time>2020-02-19T23:37:01Z</time>
      </trkpt>
      <trkpt lat="41.7190230" lon="-1.6846340">
        <ele>1044.9</ele>
        <time>2020-02-19T23:37:21Z</time>
      </trkpt>
      <trkpt lat="41.7188770" lon="-1.6850410">
        <ele>1050.8</ele>
        <time>2020-02-19T23:37:41Z</time>
      </trkpt>
      <trkpt lat="41.7187490" lon="-1.6854120">
        <ele>1055.6</ele>
        <time>2020-02-19T23:38:01Z</time>
      </trkpt>
      <trkpt lat="41.7184430" lon="-1.6858330">
        <ele>1058.7</ele>
        <time>2020-02-19T23:38:21Z</time>
      </trkpt>
      <trkpt lat="41.7182070" lon="-1.6862300">
        <ele>1061.1</ele>
        <time>2020-02-19T23:38:41Z</time>
      </trkpt>
      <trkpt lat="41.7176620" lon="-1.6869650">
        <ele>1066.2</ele>
        <time>2020-02-19T23:39:01Z</time>
      </trkpt>
      <trkpt lat="41.7174620" lon="-1.6873350">
        <ele>1068.3</ele>
        <time>2020-02-19T23:39:21Z</time>
      </trkpt>
      <trkpt lat="41.7172660" lon="-1.6872810">
        <ele>1070.7</ele>
        <time>2020-02-19T23:39:41Z</time>
      </trkpt>
      <trkpt lat="41.7171180" lon="-1.6872540">
        <ele>1072.6</ele>
        <time>2020-02-19T23:40:01Z</time>
      </trkpt>
      <trkpt lat="41.7167850" lon="-1.6873620">
        <ele>1077.1</ele>
        <time>2020-02-19T23:40:21Z</time>
      </trkpt>
      <trkpt lat="41.7163370" lon="-1.6873400">
        <ele>1081.8</ele>
        <time>2020-02-19T23:40:41Z</time>
      </trkpt>
      <trkpt lat="41.7162810" lon="-1.6875280">
        <ele>1082.6</ele>
        <time>2020-02-19T23:41:01Z</time>
      </trkpt>
      <trkpt lat="41.7162590" lon="-1.6875470">
        <ele>1082.9</ele>
        <time>2020-02-19T23:41:21Z</time>
      </trkpt>
      <trkpt lat="41.7161910" lon="-1.6876080">
        <ele>1084.8</ele>
        <time>2020-02-19T23:41:41Z</time>
      </trkpt>
      <trkpt lat="41.7162690" lon="-1.6876590">
        <ele>1087.0</ele>
        <time>2020-02-19T23:42:01Z</time>
      </trkpt>
      <trkpt lat="41.7161240" lon="-1.6877100">
        <ele>1090.7</ele>
        <time>2020-02-19T23:42:21Z</time>
      </trkpt>
      <trkpt lat="41.7160420" lon="-1.6876890">
        <ele>1092.7</ele>
        <time>2020-02-19T23:42:41Z</time>
      </trkpt>
      <trkpt lat="41.7158900" lon="-1.6877420">
        <ele>1096.6</ele>
        <time>2020-02-19T23:43:01Z</time>
      </trkpt>
      <trkpt lat="41.7157660" lon="-1.6877770">
        <ele>1099.6</ele>
        <time>2020-02-19T23:43:21Z</time>
      </trkpt>
      <trkpt lat="41.7156500" lon="-1.6878150">
        <ele>1102.2</ele>
        <time>2020-02-19T23:43:41Z</time>
      </trkpt>
      <trkpt lat="41.7153680" lon="-1.6879890">
        <ele>1109.2</ele>
        <time>2020-02-19T23:44:01Z</time>
      </trkpt>
      <trkpt lat="41.7152270" lon="-1.6880480">
        <ele>1112.2</ele>
        <time>2020-02-19T23:44:21Z</time>
      </trkpt>
      <trkpt lat="41.7148910" lon="-1.6882150">
        <ele>1119.3</ele>
        <time>2020-02-19T23:44:41Z</time>
      </trkpt>
      <trkpt lat="41.7147010" lon="-1.6883270">
        <ele>1123.3</ele>
        <time>2020-02-19T23:45:01Z</time>
      </trkpt>
      <trkpt lat="41.7145270" lon="-1.6883110">
        <ele>1126.6</ele>
        <time>2020-02-19T23:45:21Z</time>
      </trkpt>
      <trkpt lat="41.7143490" lon="-1.6883810">
        <ele>1130.5</ele>
        <time>2020-02-19T23:45:41Z</time>
      </trkpt>
      <trkpt lat="41.7139860" lon="-1.6886060">
        <ele>1138.9</ele>
        <time>2020-02-19T23:46:01Z</time>
      </trkpt>
      <trkpt lat="41.7136500" lon="-1.6887350">
        <ele>1146.5</ele>
        <time>2020-02-19T23:46:21Z</time>
      </trkpt>
      <trkpt lat="41.7134540" lon="-1.6888150">
        <ele>1150.6</ele>
        <time>2020-02-19T23:46:41Z</time>
      </trkpt>
      <trkpt lat="41.7132450" lon="-1.6889820">
        <ele>1155.8</ele>
        <time>2020-02-19T23:47:01Z</time>
      </trkpt>
      <trkpt lat="41.7130490" lon="-1.6891690">
        <ele>1160.1</ele>
        <time>2020-02-19T23:47:21Z</time>
      </trkpt>
      <trkpt lat="41.7123600" lon="-1.6897860">
        <ele>1174.9</ele>
        <time>2020-02-19T23:47:41Z</time>
      </trkpt>
      <trkpt lat="41.7119640" lon="-1.6901890">
        <ele>1184.9</ele>
        <time>2020-02-19T23:48:01Z</time>
      </trkpt>
      <trkpt lat="41.7114950" lon="-1.6906820">
        <ele>1197.9</ele>
        <time>2020-02-19T23:48:21Z</time>
      </trkpt>
      <trkpt lat="41.7111590" lon="-1.6909770">
        <ele>1204.6</ele>
        <time>2020-02-19T23:48:41Z</time>
      </trkpt>
      <trkpt lat="41.7107870" lon="-1.6913420">
        <ele>1211.0</ele>
        <time>2020-02-19T23:49:01Z</time>
      </trkpt>
      <trkpt lat="41.7107100" lon="-1.6914650">
        <ele>1212.8</ele>
        <time>2020-02-19T23:49:21Z</time>
      </trkpt>
      <trkpt lat="41.7106620" lon="-1.6916100">
        <ele>1214.6</ele>
        <time>2020-02-19T23:49:41Z</time>
      </trkpt>
      <trkpt lat="41.7106620" lon="-1.6917340">
        <ele>1216.0</ele>
        <time>2020-02-19T23:50:01Z</time>
      </trkpt>
      <trkpt lat="41.7106460" lon="-1.6919430">
        <ele>1218.1</ele>
        <time>2020-02-19T23:50:21Z</time>
      </trkpt>
      <trkpt lat="41.7105860" lon="-1.6922910">
        <ele>1219.5</ele>
        <time>2020-02-19T23:50:41Z</time>
      </trkpt>
      <trkpt lat="41.7105820" lon="-1.6924850">
        <ele>1220.5</ele>
        <time>2020-02-19T23:51:01Z</time>
      </trkpt>
      <trkpt lat="41.7107630" lon="-1.6929300">
        <ele>1223.6</ele>
        <time>2020-02-19T23:51:21Z</time>
      </trkpt>
      <trkpt lat="41.7110390" lon="-1.6931870">
        <ele>1228.0</ele>
        <time>2020-02-19T23:51:41Z</time>
      </trkpt>
      <trkpt lat="41.7112950" lon="-1.6937720">
        <ele>1235.0</ele>
        <time>2020-02-19T23:52:01Z</time>
      </trkpt>
      <trkpt lat="41.7115030" lon="-1.6941800">
        <ele>1238.5</ele>
        <time>2020-02-19T23:52:21Z</time>
      </trkpt>
      <trkpt lat="41.7116600" lon="-1.6943570">
        <ele>1239.6</ele>
        <time>2020-02-19T23:52:41Z</time>
      </trkpt>
      <trkpt lat="41.7116880" lon="-1.6944910">
        <ele>1240.1</ele>
        <time>2020-02-19T23:53:01Z</time>
      </trkpt>
      <trkpt lat="41.7113590" lon="-1.6946630">
        <ele>1243.1</ele>
        <time>2020-02-19T23:53:21Z</time>
      </trkpt>
      <trkpt lat="41.7110430" lon="-1.6950330">
        <ele>1249.2</ele>
        <time>2020-02-19T23:53:41Z</time>
      </trkpt>
      <trkpt lat="41.7108710" lon="-1.6953870">
        <ele>1254.1</ele>
        <time>2020-02-19T23:54:01Z</time>
      </trkpt>
      <trkpt lat="41.7107420" lon="-1.6957620">
        <ele>1258.7</ele>
        <time>2020-02-19T23:54:21Z</time>
      </trkpt>
      <trkpt lat="41.7106820" lon="-1.6962560">
        <ele>1262.8</ele>
        <time>2020-02-19T23:54:41Z</time>
      </trkpt>
      <trkpt lat="41.7107300" lon="-1.6971030">
        <ele>1268.1</ele>
        <time>2020-02-19T23:55:01Z</time>
      </trkpt>
      <trkpt lat="41.7107540" lon="-1.6975330">
        <ele>1269.7</ele>
        <time>2020-02-19T23:55:21Z</time>
      </trkpt>
      <trkpt lat="41.7107260" lon="-1.6980370">
        <ele>1271.1</ele>
        <time>2020-02-19T23:55:41Z</time>
      </trkpt>
      <trkpt lat="41.7107140" lon="-1.6983690">
        <ele>1272.0</ele>
        <time>2020-02-19T23:56:01Z</time>
      </trkpt>
      <trkpt lat="41.7105700" lon="-1.6987770">
        <ele>1273.0</ele>
        <time>2020-02-19T23:56:21Z</time>
      </trkpt>
      <trkpt lat="41.7102300" lon="-1.6992220">
        <ele>1274.3</ele>
        <time>2020-02-19T23:56:41Z</time>
      </trkpt>
      <trkpt lat="41.7100540" lon="-1.6995870">
        <ele>1274.6</ele>
        <time>2020-02-19T23:57:01Z</time>
      </trkpt>
      <trkpt lat="41.7098250" lon="-1.7001180">
        <ele>1277.6</ele>
        <time>2020-02-19T23:57:21Z</time>
      </trkpt>
      <trkpt lat="41.7097010" lon="-1.7003600">
        <ele>1279.1</ele>
        <time>2020-02-19T23:57:41Z</time>
      </trkpt>
      <trkpt lat="41.7096250" lon="-1.7006010">
        <ele>1280.2</ele>
        <time>2020-02-19T23:58:01Z</time>
      </trkpt>
      <trkpt lat="41.7096330" lon="-1.7007080">
        <ele>1280.4</ele>
        <time>2020-02-19T23:58:21Z</time>
      </trkpt>
      <trkpt lat="41.7097010" lon="-1.7009760">
        <ele>1280.3</ele>
        <time>2020-02-19T23:58:41Z</time>
      </trkpt>
      <trkpt lat="41.7098530" lon="-1.7013310">
        <ele>1280.7</ele>
        <time>2020-02-19T23:59:01Z</time>
      </trkpt>
      <trkpt lat="41.7107220" lon="-1.7017870">
        <ele>1283.7</ele>
        <time>2020-02-19T23:59:21Z</time>
      </trkpt>
      <trkpt lat="41.7112750" lon="-1.7018620">
        <ele>1286.0</ele>
        <time>2020-02-19T23:59:41Z</time>
      </trkpt>
      <trkpt lat="41.7121280" lon="-1.7020060">
        <ele>1288.1</ele>
        <time>2020-02-20T00:00:01Z</time>
      </trkpt>
      <trkpt lat="41.7128090" lon="-1.7021780">
        <ele>1291.1</ele>
        <time>2020-02-20T00:00:21Z</time>
      </trkpt>
      <trkpt lat="41.7133290" lon="-1.7026230">
        <ele>1294.7</ele>
        <time>2020-02-20T00:00:41Z</time>
      </trkpt>
      <trkpt lat="41.7139780" lon="-1.7030690">
        <ele>1300.8</ele>
        <time>2020-02-20T00:01:01Z</time>
      </trkpt>
      <trkpt lat="41.7142300" lon="-1.7030790">
        <ele>1303.0</ele>
        <time>2020-02-20T00:01:21Z</time>
      </trkpt>
      <trkpt lat="41.7144310" lon="-1.7027410">
        <ele>1305.0</ele>
        <time>2020-02-20T00:01:41Z</time>
      </trkpt>
      <trkpt lat="41.7149030" lon="-1.7028430">
        <ele>1302.4</ele>
        <time>2020-02-20T00:02:01Z</time>
      </trkpt>
      <trkpt lat="41.7161080" lon="-1.7027310">
        <ele>1296.0</ele>
        <time>2020-02-20T00:02:21Z</time>
      </trkpt>
      <trkpt lat="41.7174860" lon="-1.7028160">
        <ele>1284.9</ele>
        <time>2020-02-20T00:02:41Z</time>
      </trkpt>
      <trkpt lat="41.7184950" lon="-1.7028160">
        <ele>1280.9</ele>
        <time>2020-02-20T00:03:01Z</time>
      </trkpt>
      <trkpt lat="41.7187510" lon="-1.7029510">
        <ele>1278.9</ele>
        <time>2020-02-20T00:03:21Z</time>
      </trkpt>
      <trkpt lat="41.7191680" lon="-1.7032620">
        <ele>1271.4</ele>
        <time>2020-02-20T00:03:41Z</time>
      </trkpt>
      <trkpt lat="41.7193800" lon="-1.7034170">
        <ele>1267.1</ele>
        <time>2020-02-20T00:04:01Z</time>
      </trkpt>
      <trkpt lat="41.7196720" lon="-1.7035780">
        <ele>1261.0</ele>
        <time>2020-02-20T00:04:21Z</time>
      </trkpt>
      <trkpt lat="41.7200290" lon="-1.7037390">
        <ele>1254.7</ele>
        <time>2020-02-20T00:04:41Z</time>
      </trkpt>
      <trkpt lat="41.7203690" lon="-1.7039970">
        <ele>1253.5</ele>
        <time>2020-02-20T00:05:01Z</time>
      </trkpt>
      <trkpt lat="41.7205450" lon="-1.7040930">
        <ele>1254.0</ele>
        <time>2020-02-20T00:05:21Z</time>
      </trkpt>
      <trkpt lat="41.7207690" lon="-1.7041900">
        <ele>1254.0</ele>
        <time>2020-02-20T00:05:41Z</time>
      </trkpt>
      <trkpt lat="41.7210620" lon="-1.7041950">
        <ele>1254.2</ele>
        <time>2020-02-20T00:06:01Z</time>
      </trkpt>
      <trkpt lat="41.7212180" lon="-1.7042700">
        <ele>1254.1</ele>
        <time>2020-02-20T00:06:21Z</time>
      </trkpt>
      <trkpt lat="41.7214820" lon="-1.7043020">
        <ele>1253.8</ele>
        <time>2020-02-20T00:06:41Z</time>
      </trkpt>
      <trkpt lat="41.7216620" lon="-1.7042920">
        <ele>1252.8</ele>
        <time>2020-02-20T00:07:01Z</time>
      </trkpt>
      <trkpt lat="41.7219540" lon="-1.7041840">
        <ele>1249.1</ele>
        <time>2020-02-20T00:07:21Z</time>
      </trkpt>
      <trkpt lat="41.7220910" lon="-1.7040930">
        <ele>1246.9</ele>
        <time>2020-02-20T00:07:41Z</time>
      </trkpt>
      <trkpt lat="41.7221350" lon="-1.7040290">
        <ele>1245.4</ele>
        <time>2020-02-20T00:08:01Z</time>
      </trkpt>
      <trkpt lat="41.7223270" lon="-1.7040450">
        <ele>1239.3</ele>
        <time>2020-02-20T00:08:21Z</time>
      </trkpt>
      <trkpt lat="41.7224870" lon="-1.7041040">
        <ele>1235.0</ele>
        <time>2020-02-20T00:08:41Z</time>
      </trkpt>
      <trkpt lat="41.7228550" lon="-1.7043610">
        <ele>1225.7</ele>
        <time>2020-02-20T00:09:01Z</time>
      </trkpt>
      <trkpt lat="41.7230840" lon="-1.7044260">
        <ele>1220.8</ele>
        <time>2020-02-20T00:09:21Z</time>
      </trkpt>
      <trkpt lat="41.7233640" lon="-1.7044960">
        <ele>1215.4</ele>
        <time>2020-02-20T00:09:41Z</time>
      </trkpt>
      <trkpt lat="41.7235720" lon="-1.7045600">
        <ele>1212.8</ele>
        <time>2020-02-20T00:10:01Z</time>
      </trkpt>
      <trkpt lat="41.7238160" lon="-1.7046240">
        <ele>1209.9</ele>
        <time>2020-02-20T00:10:21Z</time>
      </trkpt>
      <trkpt lat="41.7242810" lon="-1.7046240">
        <ele>1202.5</ele>
        <time>2020-02-20T00:10:41Z</time>
      </trkpt>
      <trkpt lat="41.7245530" lon="-1.7046730">
        <ele>1198.0</ele>
        <time>2020-02-20T00:11:01Z</time>
      </trkpt>
      <trkpt lat="41.7247330" lon="-1.7047150">
        <ele>1194.5</ele>
        <time>2020-02-20T00:11:21Z</time>
      </trkpt>
      <trkpt lat="41.7248730" lon="-1.7046460">
        <ele>1191.9</ele>
        <time>2020-02-20T00:11:41Z</time>
      </trkpt>
      <trkpt lat="41.7250010" lon="-1.7045870">
        <ele>1189.0</ele>
        <time>2020-02-20T00:12:01Z</time>
      </trkpt>
      <trkpt lat="41.7253020" lon="-1.7046140">
        <ele>1182.0</ele>
        <time>2020-02-20T00:12:21Z</time>
      </trkpt>
      <trkpt lat="41.7254660" lon="-1.7046990">
        <ele>1177.9</ele>
        <time>2020-02-20T00:12:41Z</time>
      </trkpt>
      <trkpt lat="41.7255900" lon="-1.7047850">
        <ele>1174.1</ele>
        <time>2020-02-20T00:13:01Z</time>
      </trkpt>
      <trkpt lat="41.7257420" lon="-1.7048500">
        <ele>1170.5</ele>
        <time>2020-02-20T00:13:21Z</time>
      </trkpt>
      <trkpt lat="41.7261860" lon="-1.7047320">
        <ele>1154.6</ele>
        <time>2020-02-20T00:13:41Z</time>
      </trkpt>
      <trkpt lat="41.7263030" lon="-1.7048280">
        <ele>1149.4</ele>
        <time>2020-02-20T00:14:01Z</time>
      </trkpt>
      <trkpt lat="41.7262780" lon="-1.7050590">
        <ele>1149.4</ele>
        <time>2020-02-20T00:14:21Z</time>
      </trkpt>
      <trkpt lat="41.7262140" lon="-1.7054340">
        <ele>1148.0</ele>
        <time>2020-02-20T00:14:41Z</time>
      </trkpt>
      <trkpt lat="41.7262420" lon="-1.7060410">
        <ele>1137.5</ele>
        <time>2020-02-20T00:15:01Z</time>
      </trkpt>
      <trkpt lat="41.7262060" lon="-1.7064540">
        <ele>1132.1</ele>
        <time>2020-02-20T00:15:21Z</time>
      </trkpt>
      <trkpt lat="41.7262340" lon="-1.7067000">
        <ele>1127.3</ele>
        <time>2020-02-20T00:15:41Z</time>
      </trkpt>
      <trkpt lat="41.7262380" lon="-1.7073390">
        <ele>1119.6</ele>
        <time>2020-02-20T00:16:01Z</time>
      </trkpt>
      <trkpt lat="41.7262260" lon="-1.7075160">
        <ele>1118.9</ele>
        <time>2020-02-20T00:16:21Z</time>
      </trkpt>
      <trkpt lat="41.7263730" lon="-1.7074670">
        <ele>1112.7</ele>
        <time>2020-02-20T00:16:41Z</time>
      </trkpt>
      <trkpt lat="41.7263490" lon="-1.7076980">
        <ele>1112.6</ele>
        <time>2020-02-20T00:17:01Z</time>
      </trkpt>
      <trkpt lat="41.7263430" lon="-1.7077540">
        <ele>1112.4</ele>
        <time>2020-02-20T00:17:21Z</time>
      </trkpt>
      <trkpt lat="41.7265270" lon="-1.7076850">
        <ele>1105.0</ele>
        <time>2020-02-20T00:17:41Z</time>
      </trkpt>
      <trkpt lat="41.7265030" lon="-1.7078160">
        <ele>1106.0</ele>
        <time>2020-02-20T00:18:01Z</time>
      </trkpt>
      <trkpt lat="41.7264870" lon="-1.7080520">
        <ele>1105.7</ele>
        <time>2020-02-20T00:18:21Z</time>
      </trkpt>
      <trkpt lat="41.7264830" lon="-1.7081350">
        <ele>1106.8</ele>
        <time>2020-02-20T00:18:41Z</time>
      </trkpt>
      <trkpt lat="41.7265050" lon="-1.7081760">
        <ele>1105.9</ele>
        <time>2020-02-20T00:19:01Z</time>
      </trkpt>
      <trkpt lat="41.7266330" lon="-1.7080600">
        <ele>1101.8</ele>
        <time>2020-02-20T00:19:21Z</time>
      </trkpt>
      <trkpt lat="41.7267330" lon="-1.7079930">
        <ele>1098.8</ele>
        <time>2020-02-20T00:19:41Z</time>
      </trkpt>
      <trkpt lat="41.7270370" lon="-1.7078160">
        <ele>1089.6</ele>
        <time>2020-02-20T00:20:01Z</time>
      </trkpt>
      <trkpt lat="41.7271350" lon="-1.7076420">
        <ele>1086.9</ele>
        <time>2020-02-20T00:20:21Z</time>
      </trkpt>
      <trkpt lat="41.7272370" lon="-1.7076630">
        <ele>1086.5</ele>
        <time>2020-02-20T00:20:41Z</time>
      </trkpt>
      <trkpt lat="41.7273150" lon="-1.7075960">
        <ele>1086.0</ele>
        <time>2020-02-20T00:21:01Z</time>
      </trkpt>
      <trkpt lat="41.7274900" lon="-1.7074350">
        <ele>1087.3</ele>
        <time>2020-02-20T00:21:21Z</time>
      </trkpt>
      <trkpt lat="41.7276360" lon="-1.7075320">
        <ele>1089.1</ele>
        <time>2020-02-20T00:21:41Z</time>
      </trkpt>
      <trkpt lat="41.7278080" lon="-1.7074780">
        <ele>1094.4</ele>
        <time>2020-02-20T00:22:01Z</time>
      </trkpt>
      <trkpt lat="41.7279000" lon="-1.7073980">
        <ele>1098.3</ele>
        <time>2020-02-20T00:22:21Z</time>
      </trkpt>
      <trkpt lat="41.7282760" lon="-1.7073230">
        <ele>1110.8</ele>
        <time>2020-02-20T00:22:41Z</time>
      </trkpt>
      <trkpt lat="41.7289450" lon="-1.7068400">
        <ele>1129.5</ele>
        <time>2020-02-20T00:23:01Z</time>
      </trkpt>
      <trkpt lat="41.7291570" lon="-1.7065930">
        <ele>1134.7</ele>
        <time>2020-02-20T00:23:21Z</time>
      </trkpt>
      <trkpt lat="41.7295530" lon="-1.7068990">
        <ele>1140.0</ele>
        <time>2020-02-20T00:23:41Z</time>
      </trkpt>
      <trkpt lat="41.7296250" lon="-1.7071620">
        <ele>1143.5</ele>
        <time>2020-02-20T00:24:01Z</time>
      </trkpt>
      <trkpt lat="41.7294770" lon="-1.7076390">
        <ele>1152.8</ele>
        <time>2020-02-20T00:24:21Z</time>
      </trkpt>
      <trkpt lat="41.7293210" lon="-1.7084220">
        <ele>1162.6</ele>
        <time>2020-02-20T00:24:41Z</time>
      </trkpt>
      <trkpt lat="41.7293730" lon="-1.7093020">
        <ele>1174.7</ele>
        <time>2020-02-20T00:25:01Z</time>
      </trkpt>
      <trkpt lat="41.7293010" lon="-1.7105950">
        <ele>1185.8</ele>
        <time>2020-02-20T00:25:21Z</time>
      </trkpt>
      <trkpt lat="41.7292650" lon="-1.7114640">
        <ele>1195.5</ele>
        <time>2020-02-20T00:25:41Z</time>
      </trkpt>
      <trkpt lat="41.7292330" lon="-1.7117860">
        <ele>1199.9</ele>
        <time>2020-02-20T00:26:01Z</time>
      </trkpt>
      <trkpt lat="41.7293650" lon="-1.7118980">
        <ele>1202.7</ele>
        <time>2020-02-20T00:26:21Z</time>
      </trkpt>
      <trkpt lat="41.7293570" lon="-1.7123380">
        <ele>1208.6</ele>
        <time>2020-02-20T00:26:41Z</time>
      </trkpt>
      <trkpt lat="41.7295130" lon="-1.7130730">
        <ele>1218.8</ele>
        <time>2020-02-20T00:27:01Z</time>
      </trkpt>
      <trkpt lat="41.7294970" lon="-1.7134060">
        <ele>1223.3</ele>
        <time>2020-02-20T00:27:21Z</time>
      </trkpt>
      <trkpt lat="41.7293250" lon="-1.7137710">
        <ele>1229.1</ele>
        <time>2020-02-20T00:27:41Z</time>
      </trkpt>
      <trkpt lat="41.7291930" lon="-1.7141090">
        <ele>1234.2</ele>
        <time>2020-02-20T00:28:01Z</time>
      </trkpt>
      <trkpt lat="41.7291170" lon="-1.7143660">
        <ele>1237.9</ele>
        <time>2020-02-20T00:28:21Z</time>
      </trkpt>
      <trkpt lat="41.7289570" lon="-1.7140010">
        <ele>1243.6</ele>
        <time>2020-02-20T00:28:41Z</time>
      </trkpt>
      <trkpt lat="41.7288450" lon="-1.7140120">
        <ele>1245.6</ele>
        <time>2020-02-20T00:29:01Z</time>
      </trkpt>
      <trkpt lat="41.7287210" lon="-1.7143390">
        <ele>1250.5</ele>
        <time>2020-02-20T00:29:21Z</time>
      </trkpt>
      <trkpt lat="41.7288130" lon="-1.7161200">
        <ele>1274.5</ele>
        <time>2020-02-20T00:29:41Z</time>
      </trkpt>
      <trkpt lat="41.7288330" lon="-1.7168020">
        <ele>1283.6</ele>
        <time>2020-02-20T00:30:01Z</time>
      </trkpt>
      <trkpt lat="41.7287850" lon="-1.7176170">
        <ele>1294.6</ele>
        <time>2020-02-20T00:30:21Z</time>
      </trkpt>
      <trkpt lat="41.7287650" lon="-1.7181270">
        <ele>1301.4</ele>
        <time>2020-02-20T00:30:41Z</time>
      </trkpt>
      <trkpt lat="41.7287450" lon="-1.7187760">
        <ele>1310.1</ele>
        <time>2020-02-20T00:31:01Z</time>
      </trkpt>
      <trkpt lat="41.7286530" lon="-1.7194780">
        <ele>1319.7</ele>
        <time>2020-02-20T00:31:21Z</time>
      </trkpt>
      <trkpt lat="41.7289170" lon="-1.7193010">
        <ele>1325.0</ele>
        <time>2020-02-20T00:31:41Z</time>
      </trkpt>
      <trkpt lat="41.7292050" lon="-1.7193170">
        <ele>1330.2</ele>
        <time>2020-02-20T00:32:01Z</time>
      </trkpt>
      <trkpt lat="41.7289330" lon="-1.7199080">
        <ele>1339.5</ele>
        <time>2020-02-20T00:32:21Z</time>
      </trkpt>
      <trkpt lat="41.7291250" lon="-1.7198860">
        <ele>1344.9</ele>
        <time>2020-02-20T00:32:41Z</time>
      </trkpt>
      <trkpt lat="41.7290170" lon="-1.7201700">
        <ele>1350.0</ele>
        <time>2020-02-20T00:33:01Z</time>
      </trkpt>
      <trkpt lat="41.7292330" lon="-1.7202350">
        <ele>1354.8</ele>
        <time>2020-02-20T00:33:21Z</time>
      </trkpt>
      <trkpt lat="41.7292330" lon="-1.7204060">
        <ele>1357.5</ele>
        <time>2020-02-20T00:33:41Z</time>
      </trkpt>
      <trkpt lat="41.7287230" lon="-1.7214550">
        <ele>1377.6</ele>
        <time>2020-02-20T00:34:01Z</time>
      </trkpt>
      <trkpt lat="41.7285690" lon="-1.7218570">
        <ele>1384.9</ele>
        <time>2020-02-20T00:34:21Z</time>
      </trkpt>
      <trkpt lat="41.7284700" lon="-1.7220830">
        <ele>1389.1</ele>
        <time>2020-02-20T00:34:41Z</time>
      </trkpt>
      <trkpt lat="41.7286310" lon="-1.7220260">
        <ele>1392.7</ele>
        <time>2020-02-20T00:35:01Z</time>
      </trkpt>
      <trkpt lat="41.7285410" lon="-1.7222120">
        <ele>1396.2</ele>
        <time>2020-02-20T00:35:21Z</time>
      </trkpt>
      <trkpt lat="41.7288810" lon="-1.7221340">
        <ele>1403.6</ele>
        <time>2020-02-20T00:35:41Z</time>
      </trkpt>
      <trkpt lat="41.7286930" lon="-1.7224880">
        <ele>1410.6</ele>
        <time>2020-02-20T00:36:01Z</time>
      </trkpt>
      <trkpt lat="41.7286670" lon="-1.7225840">
        <ele>1412.2</ele>
        <time>2020-02-20T00:36:21Z</time>
      </trkpt>
      <trkpt lat="41.7286710" lon="-1.7226410">
        <ele>1413.2</ele>
        <time>2020-02-20T00:36:41Z</time>
      </trkpt>
      <trkpt lat="41.7288770" lon="-1.7225980">
        <ele>1417.6</ele>
        <time>2020-02-20T00:37:01Z</time>
      </trkpt>
      <trkpt lat="41.7291710" lon="-1.7225740">
        <ele>1424.0</ele>
        <time>2020-02-20T00:37:21Z</time>
      </trkpt>
      <trkpt lat="41.7291890" lon="-1.7226760">
        <ele>1426.2</ele>
        <time>2020-02-20T00:37:41Z</time>
      </trkpt>
      <trkpt lat="41.7291110" lon="-1.7229140">
        <ele>1430.4</ele>
        <time>2020-02-20T00:38:01Z</time>
      </trkpt>
      <trkpt lat="41.7292470" lon="-1.7231070">
        <ele>1434.5</ele>
        <time>2020-02-20T00:38:21Z</time>
      </trkpt>
      <trkpt lat="41.7290770" lon="-1.7238930">
        <ele>1434.1</ele>
        <time>2020-02-20T00:38:41Z</time>
      </trkpt>
      <trkpt lat="41.7289910" lon="-1.7243040">
        <ele>1433.8</ele>
        <time>2020-02-20T00:39:01Z</time>
      </trkpt>
      <trkpt lat="41.7289510" lon="-1.7245880">
        <ele>1433.4</ele>
        <time>2020-02-20T00:39:21Z</time>
      </trkpt>
      <trkpt lat="41.7287190" lon="-1.7253280">
        <ele>1437.1</ele>
        <time>2020-02-20T00:39:41Z</time>
      </trkpt>
      <trkpt lat="41.7285160" lon="-1.7257840">
        <ele>1441.6</ele>
        <time>2020-02-20T00:40:01Z</time>
      </trkpt>
      <trkpt lat="41.7284000" lon="-1.7260950">
        <ele>1444.3</ele>
        <time>2020-02-20T00:40:21Z</time>
      </trkpt>
      <trkpt lat="41.7282480" lon="-1.7264570">
        <ele>1448.8</ele>
        <time>2020-02-20T00:40:41Z</time>
      </trkpt>
      <trkpt lat="41.7282240" lon="-1.7265970">
        <ele>1450.3</ele>
        <time>2020-02-20T00:41:01Z</time>
      </trkpt>
      <trkpt lat="41.7280560" lon="-1.7269830">
        <ele>1453.6</ele>
        <time>2020-02-20T00:41:21Z</time>
      </trkpt>
      <trkpt lat="41.7279940" lon="-1.7271760">
        <ele>1455.6</ele>
        <time>2020-02-20T00:41:41Z</time>
      </trkpt>
      <trkpt lat="41.7278840" lon="-1.7273100">
        <ele>1458.0</ele>
        <time>2020-02-20T00:42:01Z</time>
      </trkpt>
      <trkpt lat="41.7276580" lon="-1.7276430">
        <ele>1461.6</ele>
        <time>2020-02-20T00:42:21Z</time>
      </trkpt>
      <trkpt lat="41.7275240" lon="-1.7277960">
        <ele>1463.0</ele>
        <time>2020-02-20T00:42:41Z</time>
      </trkpt>
      <trkpt lat="41.7274220" lon="-1.7279760">
        <ele>1463.3</ele>
        <time>2020-02-20T00:43:01Z</time>
      </trkpt>
      <trkpt lat="41.7272590" lon="-1.7283810">
        <ele>1461.6</ele>
        <time>2020-02-20T00:43:21Z</time>
      </trkpt>
      <trkpt lat="41.7272230" lon="-1.7287350">
        <ele>1459.3</ele>
        <time>2020-02-20T00:43:41Z</time>
      </trkpt>
      <trkpt lat="41.7272550" lon="-1.7290430">
        <ele>1458.8</ele>
        <time>2020-02-20T00:44:01Z</time>
      </trkpt>
      <trkpt lat="41.7273230" lon="-1.7298370">
        <ele>1465.5</ele>
        <time>2020-02-20T00:44:21Z</time>
      </trkpt>
      <trkpt lat="41.7273150" lon="-1.7299870">
        <ele>1466.6</ele>
        <time>2020-02-20T00:44:41Z</time>
      </trkpt>
      <trkpt lat="41.7271830" lon="-1.7301720">
        <ele>1466.0</ele>
        <time>2020-02-20T00:45:01Z</time>
      </trkpt>
      <trkpt lat="41.7269970" lon="-1.7304300">
        <ele>1463.0</ele>
        <time>2020-02-20T00:45:21Z</time>
      </trkpt>
      <trkpt lat="41.7267990" lon="-1.7309180">
        <ele>1459.1</ele>
        <time>2020-02-20T00:45:41Z</time>
      </trkpt>
      <trkpt lat="41.7265550" lon="-1.7317490">
        <ele>1459.8</ele>
        <time>2020-02-20T00:46:01Z</time>
      </trkpt>
      <trkpt lat="41.7264130" lon="-1.7321410">
        <ele>1459.5</ele>
        <time>2020-02-20T00:46:21Z</time>
      </trkpt>
      <trkpt lat="41.7262930" lon="-1.7324040">
        <ele>1457.1</ele>
        <time>2020-02-20T00:46:41Z</time>
      </trkpt>
      <trkpt lat="41.7260880" lon="-1.7327260">
        <ele>1453.3</ele>
        <time>2020-02-20T00:47:01Z</time>
      </trkpt>
      <trkpt lat="41.7258440" lon="-1.7330930">
        <ele>1450.5</ele>
        <time>2020-02-20T00:47:21Z</time>
      </trkpt>
      <trkpt lat="41.7256160" lon="-1.7333750">
        <ele>1448.1</ele>
        <time>2020-02-20T00:47:41Z</time>
      </trkpt>
      <trkpt lat="41.7254680" lon="-1.7336110">
        <ele>1446.9</ele>
        <time>2020-02-20T00:48:01Z</time>
      </trkpt>
      <trkpt lat="41.7253260" lon="-1.7337610">
        <ele>1446.2</ele>
        <time>2020-02-20T00:48:21Z</time>
      </trkpt>
      <trkpt lat="41.7250870" lon="-1.7340530">
        <ele>1445.9</ele>
        <time>2020-02-20T00:48:41Z</time>
      </trkpt>
      <trkpt lat="41.7249310" lon="-1.7341740">
        <ele>1446.2</ele>
        <time>2020-02-20T00:49:01Z</time>
      </trkpt>
      <trkpt lat="41.7246310" lon="-1.7345150">
        <ele>1447.6</ele>
        <time>2020-02-20T00:49:21Z</time>
      </trkpt>
      <trkpt lat="41.7244990" lon="-1.7345770">
        <ele>1448.5</ele>
        <time>2020-02-20T00:49:41Z</time>
      </trkpt>
      <trkpt lat="41.7239040" lon="-1.7347130">
        <ele>1452.0</ele>
        <time>2020-02-20T00:50:01Z</time>
      </trkpt>
      <trkpt lat="41.7236540" lon="-1.7351450">
        <ele>1452.4</ele>
        <time>2020-02-20T00:50:21Z</time>
      </trkpt>
      <trkpt lat="41.7234640" lon="-1.7357190">
        <ele>1454.3</ele>
        <time>2020-02-20T00:50:41Z</time>
      </trkpt>
      <trkpt lat="41.7234260" lon="-1.7360600">
        <ele>1455.6</ele>
        <time>2020-02-20T00:51:01Z</time>
      </trkpt>
      <trkpt lat="41.7237340" lon="-1.7363230">
        <ele>1456.0</ele>
        <time>2020-02-20T00:51:21Z</time>
      </trkpt>
      <trkpt lat="41.7239400" lon="-1.7365990">
        <ele>1456.0</ele>
        <time>2020-02-20T00:51:41Z</time>
      </trkpt>
      <trkpt lat="41.7238940" lon="-1.7370900">
        <ele>1456.6</ele>
        <time>2020-02-20T00:52:01Z</time>
      </trkpt>
      <trkpt lat="41.7237680" lon="-1.7376930">
        <ele>1459.3</ele>
        <time>2020-02-20T00:52:21Z</time>
      </trkpt>
      <trkpt lat="41.7236380" lon="-1.7383880">
        <ele>1464.3</ele>
        <time>2020-02-20T00:52:41Z</time>
      </trkpt>
      <trkpt lat="41.7235880" lon="-1.7388170">
        <ele>1466.9</ele>
        <time>2020-02-20T00:53:01Z</time>
      </trkpt>
      <trkpt lat="41.7234920" lon="-1.7393540">
        <ele>1468.8</ele>
        <time>2020-02-20T00:53:21Z</time>
      </trkpt>
      <trkpt lat="41.7233440" lon="-1.7399920">
        <ele>1470.3</ele>
        <time>2020-02-20T00:53:41Z</time>
      </trkpt>
      <trkpt lat="41.7233220" lon="-1.7401690">
        <ele>1470.6</ele>
        <time>2020-02-20T00:54:01Z</time>
      </trkpt>
      <trkpt lat="41.7234480" lon="-1.7409410">
        <ele>1471.2</ele>
        <time>2020-02-20T00:54:21Z</time>
      </trkpt>
      <trkpt lat="41.7236840" lon="-1.7419770">
        <ele>1467.4</ele>
        <time>2020-02-20T00:54:41Z</time>
      </trkpt>
      <trkpt lat="41.7239860" lon="-1.7428650">
        <ele>1465.0</ele>
        <time>2020-02-20T00:55:01Z</time>
      </trkpt>
      <trkpt lat="41.7243690" lon="-1.7437820">
        <ele>1462.4</ele>
        <time>2020-02-20T00:55:21Z</time>
      </trkpt>
      <trkpt lat="41.7245930" lon="-1.7441520">
        <ele>1461.4</ele>
        <time>2020-02-20T00:55:41Z</time>
      </trkpt>
      <trkpt lat="41.7252540" lon="-1.7447340">
        <ele>1460.3</ele>
        <time>2020-02-20T00:56:01Z</time>
      </trkpt>
      <trkpt lat="41.7254360" lon="-1.7449490">
        <ele>1461.6</ele>
        <time>2020-02-20T00:56:21Z</time>
      </trkpt>
      <trkpt lat="41.725414" lon="-1.744911">
        <ele>1465.067</ele>
        <time>2022-01-25T15:45:49Z</time>
      </trkpt>
      <trkpt lat="41.725830" lon="-1.744820">
        <ele>1460.081</ele>
        <time>2022-01-25T15:46:09Z</time>
      </trkpt>
      <trkpt lat="41.726126" lon="-1.744798">
        <ele>1457.419</ele>
        <time>2022-01-25T15:46:29Z</time>
      </trkpt>
      <trkpt lat="41.726206" lon="-1.744970">
        <ele>1458.908</ele>
        <time>2022-01-25T15:46:49Z</time>
      </trkpt>
      <trkpt lat="41.726158" lon="-1.745356">
        <ele>1461.955</ele>
        <time>2022-01-25T15:47:09Z</time>
      </trkpt>
      <trkpt lat="41.726126" lon="-1.745667">
        <ele>1464.959</ele>
        <time>2022-01-25T15:47:29Z</time>
      </trkpt>
      <trkpt lat="41.726166" lon="-1.746011">
        <ele>1470.952</ele>
        <time>2022-01-25T15:47:49Z</time>
      </trkpt>
      <trkpt lat="41.726190" lon="-1.746247">
        <ele>1474.729</ele>
        <time>2022-01-25T15:48:09Z</time>
      </trkpt>
      <trkpt lat="41.726295" lon="-1.746483">
        <ele>1481.324</ele>
        <time>2022-01-25T15:48:29Z</time>
      </trkpt>
      <trkpt lat="41.726391" lon="-1.746783">
        <ele>1488.331</ele>
        <time>2022-01-25T15:48:49Z</time>
      </trkpt>
      <trkpt lat="41.726423" lon="-1.746987">
        <ele>1491.156</ele>
        <time>2022-01-25T15:49:09Z</time>
      </trkpt>
      <trkpt lat="41.726511" lon="-1.747277">
        <ele>1494.528</ele>
        <time>2022-01-25T15:49:29Z</time>
      </trkpt>
      <trkpt lat="41.726615" lon="-1.747577">
        <ele>1499.651</ele>
        <time>2022-01-25T15:49:49Z</time>
      </trkpt>
      <trkpt lat="41.726711" lon="-1.747910">
        <ele>1502.601</ele>
        <time>2022-01-25T15:50:09Z</time>
      </trkpt>
      <trkpt lat="41.726919" lon="-1.748124">
        <ele>1508.111</ele>
        <time>2022-01-25T15:50:29Z</time>
      </trkpt>
      <trkpt lat="41.727143" lon="-1.748382">
        <ele>1513.408</ele>
        <time>2022-01-25T15:50:49Z</time>
      </trkpt>
      <trkpt lat="41.727335" lon="-1.748629">
        <ele>1515.924</ele>
        <time>2022-01-25T15:51:09Z</time>
      </trkpt>
      <trkpt lat="41.727560" lon="-1.748800">
        <ele>1518.638</ele>
        <time>2022-01-25T15:51:29Z</time>
      </trkpt>
      <trkpt lat="41.727704" lon="-1.749122">
        <ele>1517.911</ele>
        <time>2022-01-25T15:51:49Z</time>
      </trkpt>
      <trkpt lat="41.727720" lon="-1.749240">
        <ele>1517.578</ele>
        <time>2022-01-25T15:52:09Z</time>
      </trkpt>
      <trkpt lat="41.727664" lon="-1.749347">
        <ele>1516.973</ele>
        <time>2022-01-25T15:52:29Z</time>
      </trkpt>
      <trkpt lat="41.727656" lon="-1.749755">
        <ele>1516.140</ele>
        <time>2022-01-25T15:52:49Z</time>
      </trkpt>
      <trkpt lat="41.727680" lon="-1.749959">
        <ele>1516.315</ele>
        <time>2022-01-25T15:53:09Z</time>
      </trkpt>
      <trkpt lat="41.727888" lon="-1.750356">
        <ele>1515.557</ele>
        <time>2022-01-25T15:53:29Z</time>
      </trkpt>
      <trkpt lat="41.728240" lon="-1.751021">
        <ele>1512.826</ele>
        <time>2022-01-25T15:53:49Z</time>
      </trkpt>
      <trkpt lat="41.728440" lon="-1.751354">
        <ele>1514.247</ele>
        <time>2022-01-25T15:54:09Z</time>
      </trkpt>
      <trkpt lat="41.728593" lon="-1.751482">
        <ele>1515.411</ele>
        <time>2022-01-25T15:54:29Z</time>
      </trkpt>
      <trkpt lat="41.729097" lon="-1.751343">
        <ele>1516.408</ele>
        <time>2022-01-25T15:54:49Z</time>
      </trkpt>
      <trkpt lat="41.729609" lon="-1.751364">
        <ele>1516.541</ele>
        <time>2022-01-25T15:55:09Z</time>
      </trkpt>
      <trkpt lat="41.730066" lon="-1.751482">
        <ele>1519.585</ele>
        <time>2022-01-25T15:55:29Z</time>
      </trkpt>
      <trkpt lat="41.730458" lon="-1.751622">
        <ele>1520.398</ele>
        <time>2022-01-25T15:55:49Z</time>
      </trkpt>
      <trkpt lat="41.730794" lon="-1.751955">
        <ele>1519.725</ele>
        <time>2022-01-25T15:56:09Z</time>
      </trkpt>
      <trkpt lat="41.731091" lon="-1.752416">
        <ele>1519.620</ele>
        <time>2022-01-25T15:56:29Z</time>
      </trkpt>
      <trkpt lat="41.731171" lon="-1.752727">
        <ele>1520.357</ele>
        <time>2022-01-25T15:56:49Z</time>
      </trkpt>
      <trkpt lat="41.731611" lon="-1.753296">
        <ele>1520.432</ele>
        <time>2022-01-25T15:57:09Z</time>
      </trkpt>
      <trkpt lat="41.731819" lon="-1.753821">
        <ele>1522.984</ele>
        <time>2022-01-25T15:57:29Z</time>
      </trkpt>
      <trkpt lat="41.731931" lon="-1.754261">
        <ele>1522.115</ele>
        <time>2022-01-25T15:57:49Z</time>
      </trkpt>
      <trkpt lat="41.732140" lon="-1.754787">
        <ele>1513.665</ele>
        <time>2022-01-25T15:58:09Z</time>
      </trkpt>
      <trkpt lat="41.732164" lon="-1.755173">
        <ele>1516.411</ele>
        <time>2022-01-25T15:58:29Z</time>
      </trkpt>
      <trkpt lat="41.732084" lon="-1.755474">
        <ele>1523.008</ele>
        <time>2022-01-25T15:58:49Z</time>
      </trkpt>
      <trkpt lat="41.731811" lon="-1.755903">
        <ele>1530.630</ele>
        <time>2022-01-25T15:59:09Z</time>
      </trkpt>
      <trkpt lat="41.731299" lon="-1.756310">
        <ele>1528.264</ele>
        <time>2022-01-25T15:59:29Z</time>
      </trkpt>
      <trkpt lat="41.731003" lon="-1.756890">
        <ele>1522.347</ele>
        <time>2022-01-25T15:59:49Z</time>
      </trkpt>
      <trkpt lat="41.730826" lon="-1.757480">
        <ele>1519.434</ele>
        <time>2022-01-25T16:00:09Z</time>
      </trkpt>
      <trkpt lat="41.730778" lon="-1.758167">
        <ele>1520.459</ele>
        <time>2022-01-25T16:00:29Z</time>
      </trkpt>
      <trkpt lat="41.730666" lon="-1.758971">
        <ele>1516.996</ele>
        <time>2022-01-25T16:00:49Z</time>
      </trkpt>
      <trkpt lat="41.730490" lon="-1.759819">
        <ele>1516.211</ele>
        <time>2022-01-25T16:01:09Z</time>
      </trkpt>
      <trkpt lat="41.730282" lon="-1.760591">
        <ele>1512.723</ele>
        <time>2022-01-25T16:01:29Z</time>
      </trkpt>
      <trkpt lat="41.729882" lon="-1.761492">
        <ele>1509.939</ele>
        <time>2022-01-25T16:01:49Z</time>
      </trkpt>
      <trkpt lat="41.729601" lon="-1.761922">
        <ele>1508.201</ele>
        <time>2022-01-25T16:02:09Z</time>
      </trkpt>
      <trkpt lat="41.729545" lon="-1.762222">
        <ele>1501.221</ele>
        <time>2022-01-25T16:02:29Z</time>
      </trkpt>
      <trkpt lat="41.729393" lon="-1.762447">
        <ele>1498.408</ele>
        <time>2022-01-25T16:02:49Z</time>
      </trkpt>
      <trkpt lat="41.729185" lon="-1.762673">
        <ele>1498.422</ele>
        <time>2022-01-25T16:03:09Z</time>
      </trkpt>
      <trkpt lat="41.729121" lon="-1.762941">
        <ele>1493.416</ele>
        <time>2022-01-25T16:03:29Z</time>
      </trkpt>
      <trkpt lat="41.728881" lon="-1.763113">
        <ele>1490.639</ele>
        <time>2022-01-25T16:03:49Z</time>
      </trkpt>
      <trkpt lat="41.727832" lon="-1.763896">
        <ele>1479.856</ele>
        <time>2022-01-25T16:04:09Z</time>
      </trkpt>
      <trkpt lat="41.727504" lon="-1.764218">
        <ele>1477.641</ele>
        <time>2022-01-25T16:04:29Z</time>
      </trkpt>
      <trkpt lat="41.727375" lon="-1.764486">
        <ele>1474.648</ele>
        <time>2022-01-25T16:04:49Z</time>
      </trkpt>
      <trkpt lat="41.727231" lon="-1.764851">
        <ele>1472.933</ele>
        <time>2022-01-25T16:05:09Z</time>
      </trkpt>
      <trkpt lat="41.726999" lon="-1.765366">
        <ele>1467.945</ele>
        <time>2022-01-25T16:05:29Z</time>
      </trkpt>
      <trkpt lat="41.726823" lon="-1.765816">
        <ele>1464.891</ele>
        <time>2022-01-25T16:05:49Z</time>
      </trkpt>
      <trkpt lat="41.726679" lon="-1.766052">
        <ele>1464.781</ele>
        <time>2022-01-25T16:06:09Z</time>
      </trkpt>
      <trkpt lat="41.726591" lon="-1.766331">
        <ele>1463.019</ele>
        <time>2022-01-25T16:06:29Z</time>
      </trkpt>
      <trkpt lat="41.726543" lon="-1.766460">
        <ele>1462.708</ele>
        <time>2022-01-25T16:06:49Z</time>
      </trkpt>
      <trkpt lat="41.726503" lon="-1.766642">
        <ele>1462.118</ele>
        <time>2022-01-25T16:07:09Z</time>
      </trkpt>
      <trkpt lat="41.726391" lon="-1.766900">
        <ele>1460.622</ele>
        <time>2022-01-25T16:07:29Z</time>
      </trkpt>
      <trkpt lat="41.726174" lon="-1.767050">
        <ele>1456.325</ele>
        <time>2022-01-25T16:07:49Z</time>
      </trkpt>
      <trkpt lat="41.725774" lon="-1.767243">
        <ele>1454.252</ele>
        <time>2022-01-25T16:08:09Z</time>
      </trkpt>
      <trkpt lat="41.725558" lon="-1.767511">
        <ele>1450.827</ele>
        <time>2022-01-25T16:08:29Z</time>
      </trkpt>
      <trkpt lat="41.725286" lon="-1.768005">
        <ele>1449.494</ele>
        <time>2022-01-25T16:08:49Z</time>
      </trkpt>
      <trkpt lat="41.725101" lon="-1.768477">
        <ele>1446.419</ele>
        <time>2022-01-25T16:09:09Z</time>
      </trkpt>
      <trkpt lat="41.724989" lon="-1.768842">
        <ele>1444.521</ele>
        <time>2022-01-25T16:09:29Z</time>
      </trkpt>
      <trkpt lat="41.725029" lon="-1.769421">
        <ele>1439.054</ele>
        <time>2022-01-25T16:09:49Z</time>
      </trkpt>
      <trkpt lat="41.7249530" lon="-1.7695280">
        <ele>1424.2</ele>
        <time>2020-02-20T01:17:21Z</time>
      </trkpt>
      <trkpt lat="41.7250810" lon="-1.7694350">
        <ele>1423.4</ele>
        <time>2020-02-20T01:17:41Z</time>
      </trkpt>
      <trkpt lat="41.7254040" lon="-1.7691900">
        <ele>1421.0</ele>
        <time>2020-02-20T01:18:01Z</time>
      </trkpt>
      <trkpt lat="41.7256160" lon="-1.7690380">
        <ele>1420.0</ele>
        <time>2020-02-20T01:18:21Z</time>
      </trkpt>
      <trkpt lat="41.7258460" lon="-1.7689620">
        <ele>1419.4</ele>
        <time>2020-02-20T01:18:41Z</time>
      </trkpt>
      <trkpt lat="41.7261360" lon="-1.7689760">
        <ele>1418.4</ele>
        <time>2020-02-20T01:19:01Z</time>
      </trkpt>
      <trkpt lat="41.7265910" lon="-1.7690940">
        <ele>1415.7</ele>
        <time>2020-02-20T01:19:21Z</time>
      </trkpt>
      <trkpt lat="41.7267150" lon="-1.7693250">
        <ele>1415.2</ele>
        <time>2020-02-20T01:19:41Z</time>
      </trkpt>
      <trkpt lat="41.7271550" lon="-1.7695930">
        <ele>1414.1</ele>
        <time>2020-02-20T01:20:01Z</time>
      </trkpt>
      <trkpt lat="41.7280120" lon="-1.7692230">
        <ele>1412.0</ele>
        <time>2020-02-20T01:20:21Z</time>
      </trkpt>
      <trkpt lat="41.7282160" lon="-1.7690990">
        <ele>1411.8</ele>
        <time>2020-02-20T01:20:41Z</time>
      </trkpt>
      <trkpt lat="41.7285410" lon="-1.7684290">
        <ele>1410.8</ele>
        <time>2020-02-20T01:21:01Z</time>
      </trkpt>
      <trkpt lat="41.7289130" lon="-1.7681820">
        <ele>1410.1</ele>
        <time>2020-02-20T01:21:21Z</time>
      </trkpt>
      <trkpt lat="41.7290990" lon="-1.7679140">
        <ele>1409.1</ele>
        <time>2020-02-20T01:21:41Z</time>
      </trkpt>
      <trkpt lat="41.7293890" lon="-1.7677450">
        <ele>1408.2</ele>
        <time>2020-02-20T01:22:01Z</time>
      </trkpt>
      <trkpt lat="41.7296350" lon="-1.7676030">
        <ele>1407.4</ele>
        <time>2020-02-20T01:22:21Z</time>
      </trkpt>
      <trkpt lat="41.7298380" lon="-1.7673910">
        <ele>1406.4</ele>
        <time>2020-02-20T01:22:41Z</time>
      </trkpt>
      <trkpt lat="41.7299200" lon="-1.7673130">
        <ele>1406.0</ele>
        <time>2020-02-20T01:23:01Z</time>
      </trkpt>
      <trkpt lat="41.7301680" lon="-1.7672700">
        <ele>1404.6</ele>
        <time>2020-02-20T01:23:21Z</time>
      </trkpt>
      <trkpt lat="41.7303640" lon="-1.7672590">
        <ele>1403.5</ele>
        <time>2020-02-20T01:23:41Z</time>
      </trkpt>
      <trkpt lat="41.7308710" lon="-1.7670100">
        <ele>1401.1</ele>
        <time>2020-02-20T01:24:01Z</time>
      </trkpt>
      <trkpt lat="41.7310310" lon="-1.7670180">
        <ele>1400.4</ele>
        <time>2020-02-20T01:24:21Z</time>
      </trkpt>
      <trkpt lat="41.7314610" lon="-1.7669910">
        <ele>1396.7</ele>
        <time>2020-02-20T01:24:41Z</time>
      </trkpt>
      <trkpt lat="41.7318610" lon="-1.7670500">
        <ele>1390.5</ele>
        <time>2020-02-20T01:25:01Z</time>
      </trkpt>
      <trkpt lat="41.7322680" lon="-1.7670340">
        <ele>1384.3</ele>
        <time>2020-02-20T01:25:21Z</time>
      </trkpt>
      <trkpt lat="41.7329580" lon="-1.7668460">
        <ele>1373.5</ele>
        <time>2020-02-20T01:25:41Z</time>
      </trkpt>
      <trkpt lat="41.7339970" lon="-1.7664060">
        <ele>1356.9</ele>
        <time>2020-02-20T01:26:01Z</time>
      </trkpt>
      <trkpt lat="41.7342370" lon="-1.7662350">
        <ele>1352.7</ele>
        <time>2020-02-20T01:26:21Z</time>
      </trkpt>
      <trkpt lat="41.7345350" lon="-1.7659610">
        <ele>1347.2</ele>
        <time>2020-02-20T01:26:41Z</time>
      </trkpt>
      <trkpt lat="41.7346080" lon="-1.7658160">
        <ele>1345.2</ele>
        <time>2020-02-20T01:27:01Z</time>
      </trkpt>
      <trkpt lat="41.7349840" lon="-1.7654810">
        <ele>1338.3</ele>
        <time>2020-02-20T01:27:21Z</time>
      </trkpt>
      <trkpt lat="41.7351140" lon="-1.7653440">
        <ele>1335.8</ele>
        <time>2020-02-20T01:27:41Z</time>
      </trkpt>
      <trkpt lat="41.7352800" lon="-1.7651720">
        <ele>1332.5</ele>
        <time>2020-02-20T01:28:01Z</time>
      </trkpt>
      <trkpt lat="41.7353600" lon="-1.7650440">
        <ele>1330.6</ele>
        <time>2020-02-20T01:28:21Z</time>
      </trkpt>
      <trkpt lat="41.7357780" lon="-1.7647460">
        <ele>1323.4</ele>
        <time>2020-02-20T01:28:41Z</time>
      </trkpt>
      <trkpt lat="41.7358790" lon="-1.7646900">
        <ele>1321.7</ele>
        <time>2020-02-20T01:29:01Z</time>
      </trkpt>
      <trkpt lat="41.7361050" lon="-1.7643950">
        <ele>1316.9</ele>
        <time>2020-02-20T01:29:21Z</time>
      </trkpt>
      <trkpt lat="41.7361870" lon="-1.7642120">
        <ele>1314.5</ele>
        <time>2020-02-20T01:29:41Z</time>
      </trkpt>
      <trkpt lat="41.7362550" lon="-1.7641510">
        <ele>1313.2</ele>
        <time>2020-02-20T01:30:01Z</time>
      </trkpt>
      <trkpt lat="41.7364270" lon="-1.7640220">
        <ele>1310.2</ele>
        <time>2020-02-20T01:30:21Z</time>
      </trkpt>
      <trkpt lat="41.7365990" lon="-1.7637940">
        <ele>1306.5</ele>
        <time>2020-02-20T01:30:41Z</time>
      </trkpt>
      <trkpt lat="41.7366410" lon="-1.7637210">
        <ele>1305.5</ele>
        <time>2020-02-20T01:31:01Z</time>
      </trkpt>
      <trkpt lat="41.7366950" lon="-1.7635260">
        <ele>1303.1</ele>
        <time>2020-02-20T01:31:21Z</time>
      </trkpt>
      <trkpt lat="41.7367850" lon="-1.7633270">
        <ele>1300.4</ele>
        <time>2020-02-20T01:31:41Z</time>
      </trkpt>
      <trkpt lat="41.7368770" lon="-1.7631850">
        <ele>1298.3</ele>
        <time>2020-02-20T01:32:01Z</time>
      </trkpt>
      <trkpt lat="41.7369690" lon="-1.7630560">
        <ele>1296.3</ele>
        <time>2020-02-20T01:32:21Z</time>
      </trkpt>
      <trkpt lat="41.7371810" lon="-1.7630590">
        <ele>1293.0</ele>
        <time>2020-02-20T01:32:41Z</time>
      </trkpt>
      <trkpt lat="41.7374220" lon="-1.7630130">
        <ele>1289.3</ele>
        <time>2020-02-20T01:33:01Z</time>
      </trkpt>
      <trkpt lat="41.7375940" lon="-1.7629600">
        <ele>1286.6</ele>
        <time>2020-02-20T01:33:21Z</time>
      </trkpt>
      <trkpt lat="41.7377600" lon="-1.7629490">
        <ele>1284.1</ele>
        <time>2020-02-20T01:33:41Z</time>
      </trkpt>
      <trkpt lat="41.7379140" lon="-1.7629540">
        <ele>1281.7</ele>
        <time>2020-02-20T01:34:01Z</time>
      </trkpt>
      <trkpt lat="41.7382800" lon="-1.7627880">
        <ele>1275.8</ele>
        <time>2020-02-20T01:34:21Z</time>
      </trkpt>
      <trkpt lat="41.7383820" lon="-1.7627210">
        <ele>1274.1</ele>
        <time>2020-02-20T01:34:41Z</time>
      </trkpt>
      <trkpt lat="41.7385400" lon="-1.7626080">
        <ele>1271.3</ele>
        <time>2020-02-20T01:35:01Z</time>
      </trkpt>
      <trkpt lat="41.7387490" lon="-1.7625980">
        <ele>1268.1</ele>
        <time>2020-02-20T01:35:21Z</time>
      </trkpt>
      <trkpt lat="41.7391890" lon="-1.7627160">
        <ele>1260.5</ele>
        <time>2020-02-20T01:35:41Z</time>
      </trkpt>
      <trkpt lat="41.7392730" lon="-1.7628870">
        <ele>1257.9</ele>
        <time>2020-02-20T01:36:01Z</time>
      </trkpt>
      <trkpt lat="41.7395610" lon="-1.7631450">
        <ele>1252.0</ele>
        <time>2020-02-20T01:36:21Z</time>
      </trkpt>
      <trkpt lat="41.7396890" lon="-1.7634130">
        <ele>1248.0</ele>
        <time>2020-02-20T01:36:41Z</time>
      </trkpt>
      <trkpt lat="41.7399290" lon="-1.7636280">
        <ele>1243.1</ele>
        <time>2020-02-20T01:37:01Z</time>
      </trkpt>
      <trkpt lat="41.7401900" lon="-1.7636280">
        <ele>1238.7</ele>
        <time>2020-02-20T01:37:21Z</time>
      </trkpt>
      <trkpt lat="41.7404220" lon="-1.7635850">
        <ele>1234.7</ele>
        <time>2020-02-20T01:37:41Z</time>
      </trkpt>
      <trkpt lat="41.7406620" lon="-1.7635580">
        <ele>1230.7</ele>
        <time>2020-02-20T01:38:01Z</time>
      </trkpt>
      <trkpt lat="41.7408980" lon="-1.7635040">
        <ele>1226.6</ele>
        <time>2020-02-20T01:38:21Z</time>
      </trkpt>
      <trkpt lat="41.7409340" lon="-1.7633750">
        <ele>1224.9</ele>
        <time>2020-02-20T01:38:41Z</time>
      </trkpt>
      <trkpt lat="41.7410500" lon="-1.7629680">
        <ele>1219.4</ele>
        <time>2020-02-20T01:39:01Z</time>
      </trkpt>
      <trkpt lat="41.7412180" lon="-1.7626350">
        <ele>1214.3</ele>
        <time>2020-02-20T01:39:21Z</time>
      </trkpt>
      <trkpt lat="41.7417670" lon="-1.7619860">
        <ele>1201.9</ele>
        <time>2020-02-20T01:39:41Z</time>
      </trkpt>
      <trkpt lat="41.7420150" lon="-1.7616000">
        <ele>1195.5</ele>
        <time>2020-02-20T01:40:01Z</time>
      </trkpt>
      <trkpt lat="41.7423190" lon="-1.7611760">
        <ele>1188.0</ele>
        <time>2020-02-20T01:40:21Z</time>
      </trkpt>
      <trkpt lat="41.7426070" lon="-1.7608430">
        <ele>1181.6</ele>
        <time>2020-02-20T01:40:41Z</time>
      </trkpt>
      <trkpt lat="41.7429920" lon="-1.7603980">
        <ele>1173.0</ele>
        <time>2020-02-20T01:41:01Z</time>
      </trkpt>
      <trkpt lat="41.7431520" lon="-1.7602690">
        <ele>1169.8</ele>
        <time>2020-02-20T01:41:21Z</time>
      </trkpt>
      <trkpt lat="41.7433360" lon="-1.7600390">
        <ele>1165.6</ele>
        <time>2020-02-20T01:41:41Z</time>
      </trkpt>
      <trkpt lat="41.7436720" lon="-1.7598400">
        <ele>1159.3</ele>
        <time>2020-02-20T01:42:01Z</time>
      </trkpt>
      <trkpt lat="41.7438680" lon="-1.7597710">
        <ele>1155.9</ele>
        <time>2020-02-20T01:42:21Z</time>
      </trkpt>
      <trkpt lat="41.7440240" lon="-1.7595830">
        <ele>1152.4</ele>
        <time>2020-02-20T01:42:41Z</time>
      </trkpt>
      <trkpt lat="41.7441640" lon="-1.7594490">
        <ele>1149.4</ele>
        <time>2020-02-20T01:43:01Z</time>
      </trkpt>
      <trkpt lat="41.7443600" lon="-1.7591700">
        <ele>1144.6</ele>
        <time>2020-02-20T01:43:21Z</time>
      </trkpt>
      <trkpt lat="41.7443800" lon="-1.7589010">
        <ele>1141.2</ele>
        <time>2020-02-20T01:43:41Z</time>
      </trkpt>
      <trkpt lat="41.7442720" lon="-1.7587730">
        <ele>1138.7</ele>
        <time>2020-02-20T01:44:01Z</time>
      </trkpt>
      <trkpt lat="41.7440400" lon="-1.7585850">
        <ele>1134.2</ele>
        <time>2020-02-20T01:44:21Z</time>
      </trkpt>
      <trkpt lat="41.7439300" lon="-1.7584350">
        <ele>1131.5</ele>
        <time>2020-02-20T01:44:41Z</time>
      </trkpt>
      <trkpt lat="41.7439280" lon="-1.7583270">
        <ele>1130.1</ele>
        <time>2020-02-20T01:45:01Z</time>
      </trkpt>
      <trkpt lat="41.7439700" lon="-1.7581770">
        <ele>1128.1</ele>
        <time>2020-02-20T01:45:21Z</time>
      </trkpt>
      <trkpt lat="41.7440600" lon="-1.7581240">
        <ele>1126.4</ele>
        <time>2020-02-20T01:45:41Z</time>
      </trkpt>
      <trkpt lat="41.7440360" lon="-1.7580700">
        <ele>1125.7</ele>
        <time>2020-02-20T01:46:01Z</time>
      </trkpt>
      <trkpt lat="41.7440720" lon="-1.7579840">
        <ele>1124.4</ele>
        <time>2020-02-20T01:46:21Z</time>
      </trkpt>
      <trkpt lat="41.7441840" lon="-1.7577320">
        <ele>1120.7</ele>
        <time>2020-02-20T01:46:41Z</time>
      </trkpt>
      <trkpt lat="41.7442520" lon="-1.7576090">
        <ele>1118.8</ele>
        <time>2020-02-20T01:47:01Z</time>
      </trkpt>
      <trkpt lat="41.7443800" lon="-1.7574580">
        <ele>1115.9</ele>
        <time>2020-02-20T01:47:21Z</time>
      </trkpt>
      <trkpt lat="41.7445570" lon="-1.7573830">
        <ele>1112.5</ele>
        <time>2020-02-20T01:47:41Z</time>
      </trkpt>
      <trkpt lat="41.7447090" lon="-1.7573620">
        <ele>1110.6</ele>
        <time>2020-02-20T01:48:01Z</time>
      </trkpt>
      <trkpt lat="41.7449250" lon="-1.7573830">
        <ele>1107.9</ele>
        <time>2020-02-20T01:48:21Z</time>
      </trkpt>
      <trkpt lat="41.7451170" lon="-1.7573510">
        <ele>1105.4</ele>
        <time>2020-02-20T01:48:41Z</time>
      </trkpt>
      <trkpt lat="41.7452690" lon="-1.7573510">
        <ele>1103.5</ele>
        <time>2020-02-20T01:49:01Z</time>
      </trkpt>
      <trkpt lat="41.7453770" lon="-1.7575500">
        <ele>1101.2</ele>
        <time>2020-02-20T01:49:21Z</time>
      </trkpt>
      <trkpt lat="41.7454690" lon="-1.7574910">
        <ele>1100.0</ele>
        <time>2020-02-20T01:49:41Z</time>
      </trkpt>
      <trkpt lat="41.7457210" lon="-1.7574960">
        <ele>1096.8</ele>
        <time>2020-02-20T01:50:01Z</time>
      </trkpt>
      <trkpt lat="41.7459890" lon="-1.7574530">
        <ele>1093.4</ele>
        <time>2020-02-20T01:50:21Z</time>
      </trkpt>
      <trkpt lat="41.7461170" lon="-1.7573510">
        <ele>1091.6</ele>
        <time>2020-02-20T01:50:41Z</time>
      </trkpt>
      <trkpt lat="41.7460290" lon="-1.7570880">
        <ele>1088.9</ele>
        <time>2020-02-20T01:51:01Z</time>
      </trkpt>
      <trkpt lat="41.7459610" lon="-1.7568630">
        <ele>1086.6</ele>
        <time>2020-02-20T01:51:21Z</time>
      </trkpt>
      <trkpt lat="41.7459730" lon="-1.7567290">
        <ele>1085.3</ele>
        <time>2020-02-20T01:51:41Z</time>
      </trkpt>
      <trkpt lat="41.7459690" lon="-1.7565300">
        <ele>1083.5</ele>
        <time>2020-02-20T01:52:01Z</time>
      </trkpt>
      <trkpt lat="41.7459810" lon="-1.7563320">
        <ele>1081.6</ele>
        <time>2020-02-20T01:52:21Z</time>
      </trkpt>
      <trkpt lat="41.7460290" lon="-1.7560530">
        <ele>1078.9</ele>
        <time>2020-02-20T01:52:41Z</time>
      </trkpt>
      <trkpt lat="41.7461580" lon="-1.7561440">
        <ele>1077.1</ele>
        <time>2020-02-20T01:53:01Z</time>
      </trkpt>
      <trkpt lat="41.7462300" lon="-1.7560640">
        <ele>1075.9</ele>
        <time>2020-02-20T01:53:21Z</time>
      </trkpt>
      <trkpt lat="41.7462860" lon="-1.7556830">
        <ele>1072.3</ele>
        <time>2020-02-20T01:53:41Z</time>
      </trkpt>
      <trkpt lat="41.7463740" lon="-1.7553880">
        <ele>1069.3</ele>
        <time>2020-02-20T01:54:01Z</time>
      </trkpt>
      <trkpt lat="41.7466820" lon="-1.7550870">
        <ele>1064.6</ele>
        <time>2020-02-20T01:54:21Z</time>
      </trkpt>
      <trkpt lat="41.7469460" lon="-1.7550040">
        <ele>1061.2</ele>
        <time>2020-02-20T01:54:41Z</time>
      </trkpt>
      <trkpt lat="41.7471360" lon="-1.7549530">
        <ele>1058.7</ele>
        <time>2020-02-20T01:55:01Z</time>
      </trkpt>
      <trkpt lat="41.7472960" lon="-1.7549050">
        <ele>1056.7</ele>
        <time>2020-02-20T01:55:21Z</time>
      </trkpt>
      <trkpt lat="41.7472980" lon="-1.7547440">
        <ele>1055.2</ele>
        <time>2020-02-20T01:55:41Z</time>
      </trkpt>
      <trkpt lat="41.7471920" lon="-1.7544970">
        <ele>1052.5</ele>
        <time>2020-02-20T01:56:01Z</time>
      </trkpt>
      <trkpt lat="41.7472120" lon="-1.7543180">
        <ele>1050.8</ele>
        <time>2020-02-20T01:56:21Z</time>
      </trkpt>
      <trkpt lat="41.7472980" lon="-1.7543550">
        <ele>1049.7</ele>
        <time>2020-02-20T01:56:41Z</time>
      </trkpt>
      <trkpt lat="41.7473440" lon="-1.7545320">
        <ele>1047.9</ele>
        <time>2020-02-20T01:57:01Z</time>
      </trkpt>
      <trkpt lat="41.7474160" lon="-1.7546420">
        <ele>1046.6</ele>
        <time>2020-02-20T01:57:21Z</time>
      </trkpt>
      <trkpt lat="41.7475820" lon="-1.7547470">
        <ele>1044.3</ele>
        <time>2020-02-20T01:57:41Z</time>
      </trkpt>
      <trkpt lat="41.7477120" lon="-1.7547630">
        <ele>1042.6</ele>
        <time>2020-02-20T01:58:01Z</time>
      </trkpt>
      <trkpt lat="41.7477860" lon="-1.7546340">
        <ele>1041.1</ele>
        <time>2020-02-20T01:58:21Z</time>
      </trkpt>
      <trkpt lat="41.7480770" lon="-1.7542910">
        <ele>1036.2</ele>
        <time>2020-02-20T01:58:41Z</time>
      </trkpt>
      <trkpt lat="41.7482950" lon="-1.7542130">
        <ele>1033.4</ele>
        <time>2020-02-20T01:59:01Z</time>
      </trkpt>
      <trkpt lat="41.7485070" lon="-1.7542510">
        <ele>1030.7</ele>
        <time>2020-02-20T01:59:21Z</time>
      </trkpt>
      <trkpt lat="41.7487110" lon="-1.7543230">
        <ele>1028.1</ele>
        <time>2020-02-20T01:59:41Z</time>
      </trkpt>
      <trkpt lat="41.7491330" lon="-1.7543740">
        <ele>1022.8</ele>
        <time>2020-02-20T02:00:01Z</time>
      </trkpt>
      <trkpt lat="41.7496190" lon="-1.7546740">
        <ele>1016.1</ele>
        <time>2020-02-20T02:00:21Z</time>
      </trkpt>
      <trkpt lat="41.7498300" lon="-1.7546690">
        <ele>1013.4</ele>
        <time>2020-02-20T02:00:41Z</time>
      </trkpt>
      <trkpt lat="41.7497460" lon="-1.7543010">
        <ele>1009.8</ele>
        <time>2020-02-20T02:01:01Z</time>
      </trkpt>
      <trkpt lat="41.7497880" lon="-1.7542160">
        <ele>1008.9</ele>
        <time>2020-02-20T02:01:21Z</time>
      </trkpt>
      <trkpt lat="41.7500080" lon="-1.7545620">
        <ele>1004.6</ele>
        <time>2020-02-20T02:01:41Z</time>
      </trkpt>
      <trkpt lat="41.7499800" lon="-1.7543600">
        <ele>1002.7</ele>
        <time>2020-02-20T02:02:01Z</time>
      </trkpt>
      <trkpt lat="41.7501460" lon="-1.7542420">
        <ele>1000.3</ele>
        <time>2020-02-20T02:02:21Z</time>
      </trkpt>
      <trkpt lat="41.7505020" lon="-1.7542020">
        <ele>995.9</ele>
        <time>2020-02-20T02:02:41Z</time>
      </trkpt>
      <trkpt lat="41.7504620" lon="-1.7541030">
        <ele>997.3</ele>
        <time>2020-02-20T02:03:01Z</time>
      </trkpt>
      <trkpt lat="41.7504800" lon="-1.7540120">
        <ele>998.1</ele>
        <time>2020-02-20T02:03:21Z</time>
      </trkpt>
      <trkpt lat="41.7507360" lon="-1.7537330">
        <ele>999.2</ele>
        <time>2020-02-20T02:03:41Z</time>
      </trkpt>
      <trkpt lat="41.7509800" lon="-1.7535990">
        <ele>1001.4</ele>
        <time>2020-02-20T02:04:01Z</time>
      </trkpt>
      <trkpt lat="41.7511600" lon="-1.7535400">
        <ele>1003.3</ele>
        <time>2020-02-20T02:04:21Z</time>
      </trkpt>
      <trkpt lat="41.7513780" lon="-1.7534540">
        <ele>1004.1</ele>
        <time>2020-02-20T02:04:41Z</time>
      </trkpt>
      <trkpt lat="41.7515430" lon="-1.7534730">
        <ele>1003.2</ele>
        <time>2020-02-20T02:05:01Z</time>
      </trkpt>
      <trkpt lat="41.7516030" lon="-1.7535640">
        <ele>1001.6</ele>
        <time>2020-02-20T02:05:21Z</time>
      </trkpt>
      <trkpt lat="41.7518630" lon="-1.7535560">
        <ele>992.8</ele>
        <time>2020-02-20T02:05:41Z</time>
      </trkpt>
      <trkpt lat="41.7519490" lon="-1.7534620">
        <ele>989.6</ele>
        <time>2020-02-20T02:06:01Z</time>
      </trkpt>
      <trkpt lat="41.7520850" lon="-1.7533250">
        <ele>985.7</ele>
        <time>2020-02-20T02:06:21Z</time>
      </trkpt>
      <trkpt lat="41.7522110" lon="-1.7530680">
        <ele>980.5</ele>
        <time>2020-02-20T02:06:41Z</time>
      </trkpt>
      <trkpt lat="41.7523470" lon="-1.7528800">
        <ele>974.0</ele>
        <time>2020-02-20T02:07:01Z</time>
      </trkpt>
      <trkpt lat="41.7524910" lon="-1.7527700">
        <ele>967.6</ele>
        <time>2020-02-20T02:07:21Z</time>
      </trkpt>
      <trkpt lat="41.7526770" lon="-1.7527270">
        <ele>961.6</ele>
        <time>2020-02-20T02:07:41Z</time>
      </trkpt>
      <trkpt lat="41.7527770" lon="-1.7526440">
        <ele>959.9</ele>
        <time>2020-02-20T02:08:01Z</time>
      </trkpt>
      <trkpt lat="41.7528590" lon="-1.7525420">
        <ele>959.1</ele>
        <time>2020-02-20T02:08:21Z</time>
      </trkpt>
      <trkpt lat="41.7528750" lon="-1.7523730">
        <ele>958.3</ele>
        <time>2020-02-20T02:08:41Z</time>
      </trkpt>
      <trkpt lat="41.7528590" lon="-1.7522420">
        <ele>957.7</ele>
        <time>2020-02-20T02:09:01Z</time>
      </trkpt>
      <trkpt lat="41.7530430" lon="-1.7519200">
        <ele>953.9</ele>
        <time>2020-02-20T02:09:21Z</time>
      </trkpt>
      <trkpt lat="41.7531470" lon="-1.7518850">
        <ele>952.7</ele>
        <time>2020-02-20T02:09:41Z</time>
      </trkpt>
      <trkpt lat="41.7535420" lon="-1.7516490">
        <ele>953.7</ele>
        <time>2020-02-20T02:10:01Z</time>
      </trkpt>
      <trkpt lat="41.7538060" lon="-1.7516350">
        <ele>954.4</ele>
        <time>2020-02-20T02:10:21Z</time>
      </trkpt>
      <trkpt lat="41.7539820" lon="-1.7516140">
        <ele>954.3</ele>
        <time>2020-02-20T02:10:41Z</time>
      </trkpt>
      <trkpt lat="41.7542800" lon="-1.7514690">
        <ele>951.9</ele>
        <time>2020-02-20T02:11:01Z</time>
      </trkpt>
      <trkpt lat="41.7547320" lon="-1.7513030">
        <ele>943.9</ele>
        <time>2020-02-20T02:11:21Z</time>
      </trkpt>
      <trkpt lat="41.7551160" lon="-1.7512540">
        <ele>934.8</ele>
        <time>2020-02-20T02:11:41Z</time>
      </trkpt>
      <trkpt lat="41.7553260" lon="-1.7510990">
        <ele>933.0</ele>
        <time>2020-02-20T02:12:01Z</time>
      </trkpt>
      <trkpt lat="41.7557570" lon="-1.7508410">
        <ele>928.4</ele>
        <time>2020-02-20T02:12:21Z</time>
      </trkpt>
      <trkpt lat="41.7559230" lon="-1.7507340">
        <ele>926.1</ele>
        <time>2020-02-20T02:12:41Z</time>
      </trkpt>
      <trkpt lat="41.7561630" lon="-1.7505920">
        <ele>923.2</ele>
        <time>2020-02-20T02:13:01Z</time>
      </trkpt>
      <trkpt lat="41.7562730" lon="-1.7505170">
        <ele>922.2</ele>
        <time>2020-02-20T02:13:21Z</time>
      </trkpt>
      <trkpt lat="41.7564710" lon="-1.7503400">
        <ele>920.2</ele>
        <time>2020-02-20T02:13:41Z</time>
      </trkpt>
      <trkpt lat="41.7566410" lon="-1.7501410">
        <ele>919.1</ele>
        <time>2020-02-20T02:14:01Z</time>
      </trkpt>
      <trkpt lat="41.7568970" lon="-1.7498540">
        <ele>916.4</ele>
        <time>2020-02-20T02:14:21Z</time>
      </trkpt>
      <trkpt lat="41.7569270" lon="-1.7496670">
        <ele>914.7</ele>
        <time>2020-02-20T02:14:41Z</time>
      </trkpt>
      <trkpt lat="41.7570990" lon="-1.7494280">
        <ele>911.6</ele>
        <time>2020-02-20T02:15:01Z</time>
      </trkpt>
      <trkpt lat="41.7571090" lon="-1.7491490">
        <ele>909.6</ele>
        <time>2020-02-20T02:15:21Z</time>
      </trkpt>
      <trkpt lat="41.7570930" lon="-1.7489000">
        <ele>908.7</ele>
        <time>2020-02-20T02:15:41Z</time>
      </trkpt>
      <trkpt lat="41.7570470" lon="-1.7486850">
        <ele>909.1</ele>
        <time>2020-02-20T02:16:01Z</time>
      </trkpt>
      <trkpt lat="41.7570230" lon="-1.7484620">
        <ele>909.1</ele>
        <time>2020-02-20T02:16:21Z</time>
      </trkpt>
      <trkpt lat="41.7570190" lon="-1.7480570">
        <ele>909.0</ele>
        <time>2020-02-20T02:16:41Z</time>
      </trkpt>
      <trkpt lat="41.7569790" lon="-1.7475240">
        <ele>908.2</ele>
        <time>2020-02-20T02:17:01Z</time>
      </trkpt>
      <trkpt lat="41.7570150" lon="-1.7472960">
        <ele>907.8</ele>
        <time>2020-02-20T02:17:21Z</time>
      </trkpt>
      <trkpt lat="41.7571390" lon="-1.7471880">
        <ele>907.5</ele>
        <time>2020-02-20T02:17:41Z</time>
      </trkpt>
      <trkpt lat="41.7572150" lon="-1.7469820">
        <ele>906.6</ele>
        <time>2020-02-20T02:18:01Z</time>
      </trkpt>
      <trkpt lat="41.7572190" lon="-1.7466060">
        <ele>905.5</ele>
        <time>2020-02-20T02:18:21Z</time>
      </trkpt>
      <trkpt lat="41.7572190" lon="-1.7464130">
        <ele>905.4</ele>
        <time>2020-02-20T02:18:41Z</time>
      </trkpt>
      <trkpt lat="41.7573870" lon="-1.7462040">
        <ele>904.5</ele>
        <time>2020-02-20T02:19:01Z</time>
      </trkpt>
      <trkpt lat="41.7578430" lon="-1.7454960">
        <ele>899.1</ele>
        <time>2020-02-20T02:19:21Z</time>
      </trkpt>
      <trkpt lat="41.7582200" lon="-1.7449490">
        <ele>896.6</ele>
        <time>2020-02-20T02:19:41Z</time>
      </trkpt>
      <trkpt lat="41.7585520" lon="-1.7445840">
        <ele>894.4</ele>
        <time>2020-02-20T02:20:01Z</time>
      </trkpt>
      <trkpt lat="41.7585600" lon="-1.7444600">
        <ele>893.6</ele>
        <time>2020-02-20T02:20:21Z</time>
      </trkpt>
      <trkpt lat="41.7586920" lon="-1.7439080">
        <ele>889.7</ele>
        <time>2020-02-20T02:20:41Z</time>
      </trkpt>
      <trkpt lat="41.7588680" lon="-1.7434300">
        <ele>885.8</ele>
        <time>2020-02-20T02:21:01Z</time>
      </trkpt>
      <trkpt lat="41.7590120" lon="-1.7430930">
        <ele>883.5</ele>
        <time>2020-02-20T02:21:21Z</time>
      </trkpt>
      <trkpt lat="41.7591880" lon="-1.7427060">
        <ele>880.6</ele>
        <time>2020-02-20T02:21:41Z</time>
      </trkpt>
      <trkpt lat="41.7594480" lon="-1.7422880">
        <ele>877.0</ele>
        <time>2020-02-20T02:22:01Z</time>
      </trkpt>
      <trkpt lat="41.7596520" lon="-1.7419180">
        <ele>874.5</ele>
        <time>2020-02-20T02:22:21Z</time>
      </trkpt>
      <trkpt lat="41.7597480" lon="-1.7417350">
        <ele>873.1</ele>
        <time>2020-02-20T02:22:41Z</time>
      </trkpt>
      <trkpt lat="41.7599920" lon="-1.7413810">
        <ele>869.7</ele>
        <time>2020-02-20T02:23:01Z</time>
      </trkpt>
      <trkpt lat="41.7603120" lon="-1.7410430">
        <ele>865.4</ele>
        <time>2020-02-20T02:23:21Z</time>
      </trkpt>
      <trkpt lat="41.7606010" lon="-1.7406620">
        <ele>861.9</ele>
        <time>2020-02-20T02:23:41Z</time>
      </trkpt>
      <trkpt lat="41.7612170" lon="-1.7407270">
        <ele>860.2</ele>
        <time>2020-02-20T02:24:01Z</time>
      </trkpt>
      <trkpt lat="41.7615930" lon="-1.7407210">
        <ele>859.4</ele>
        <time>2020-02-20T02:24:21Z</time>
      </trkpt>
      <trkpt lat="41.7621130" lon="-1.7406250">
        <ele>858.5</ele>
        <time>2020-02-20T02:24:41Z</time>
      </trkpt>
      <trkpt lat="41.7626890" lon="-1.7403940">
        <ele>856.8</ele>
        <time>2020-02-20T02:25:01Z</time>
      </trkpt>
      <trkpt lat="41.7630050" lon="-1.7402230">
        <ele>855.9</ele>
        <time>2020-02-20T02:25:21Z</time>
      </trkpt>
      <trkpt lat="41.7634780" lon="-1.7404430">
        <ele>858.4</ele>
        <time>2020-02-20T02:25:41Z</time>
      </trkpt>
      <trkpt lat="41.7644420" lon="-1.7411240">
        <ele>868.3</ele>
        <time>2020-02-20T02:26:01Z</time>
      </trkpt>
      <trkpt lat="41.7651860" lon="-1.7417460">
        <ele>876.0</ele>
        <time>2020-02-20T02:26:21Z</time>
      </trkpt>
      <trkpt lat="41.7654940" lon="-1.7421700">
        <ele>880.3</ele>
        <time>2020-02-20T02:26:41Z</time>
      </trkpt>
      <trkpt lat="41.7656900" lon="-1.7425080">
        <ele>882.6</ele>
        <time>2020-02-20T02:27:01Z</time>
      </trkpt>
      <trkpt lat="41.7657940" lon="-1.7427220">
        <ele>887.7</ele>
        <time>2020-02-20T02:27:21Z</time>
      </trkpt>
      <trkpt lat="41.7658620" lon="-1.7429320">
        <ele>892.7</ele>
        <time>2020-02-20T02:27:41Z</time>
      </trkpt>
      <trkpt lat="41.7662740" lon="-1.7434250">
        <ele>901.2</ele>
        <time>2020-02-20T02:28:01Z</time>
      </trkpt>
      <trkpt lat="41.7664860" lon="-1.7435970">
        <ele>906.9</ele>
        <time>2020-02-20T02:28:21Z</time>
      </trkpt>
      <trkpt lat="41.7668830" lon="-1.7436670">
        <ele>912.5</ele>
        <time>2020-02-20T02:28:41Z</time>
      </trkpt>
      <trkpt lat="41.7669750" lon="-1.7438170">
        <ele>914.0</ele>
        <time>2020-02-20T02:29:01Z</time>
      </trkpt>
      <trkpt lat="41.7666070" lon="-1.7443800">
        <ele>921.3</ele>
        <time>2020-02-20T02:29:21Z</time>
      </trkpt>
      <trkpt lat="41.7664580" lon="-1.7445730">
        <ele>929.7</ele>
        <time>2020-02-20T02:29:41Z</time>
      </trkpt>
      <trkpt lat="41.7662820" lon="-1.7446430">
        <ele>937.6</ele>
        <time>2020-02-20T02:30:01Z</time>
      </trkpt>
      <trkpt lat="41.7660660" lon="-1.7447180">
        <ele>944.7</ele>
        <time>2020-02-20T02:30:21Z</time>
      </trkpt>
      <trkpt lat="41.7657900" lon="-1.7449270">
        <ele>963.4</ele>
        <time>2020-02-20T02:30:41Z</time>
      </trkpt>
      <trkpt lat="41.7654860" lon="-1.7450720">
        <ele>977.8</ele>
        <time>2020-02-20T02:31:01Z</time>
      </trkpt>
      <trkpt lat="41.7653580" lon="-1.7451630">
        <ele>983.6</ele>
        <time>2020-02-20T02:31:21Z</time>
      </trkpt>
      <trkpt lat="41.7648140" lon="-1.7449270">
        <ele>987.0</ele>
        <time>2020-02-20T02:31:41Z</time>
      </trkpt>
      <trkpt lat="41.7643220" lon="-1.7445030">
        <ele>992.2</ele>
        <time>2020-02-20T02:32:01Z</time>
      </trkpt>
      <trkpt lat="41.7636940" lon="-1.7437040">
        <ele>1001.0</ele>
        <time>2020-02-20T02:32:21Z</time>
      </trkpt>
      <trkpt lat="41.7634900" lon="-1.7435270">
        <ele>1003.7</ele>
        <time>2020-02-20T02:32:41Z</time>
      </trkpt>
      <trkpt lat="41.7631050" lon="-1.7434360">
        <ele>1009.6</ele>
        <time>2020-02-20T02:33:01Z</time>
      </trkpt>
      <trkpt lat="41.7632650" lon="-1.7435270">
        <ele>1012.6</ele>
        <time>2020-02-20T02:33:21Z</time>
      </trkpt>
      <trkpt lat="41.7635060" lon="-1.7436290">
        <ele>1017.5</ele>
        <time>2020-02-20T02:33:41Z</time>
      </trkpt>
      <trkpt lat="41.7628970" lon="-1.7438650">
        <ele>1030.9</ele>
        <time>2020-02-20T02:34:01Z</time>
      </trkpt>
      <trkpt lat="41.7628970" lon="-1.7439400">
        <ele>1032.2</ele>
        <time>2020-02-20T02:34:21Z</time>
      </trkpt>
      <trkpt lat="41.7633500" lon="-1.7444770">
        <ele>1044.7</ele>
        <time>2020-02-20T02:34:41Z</time>
      </trkpt>
      <trkpt lat="41.7628170" lon="-1.7447820">
        <ele>1058.9</ele>
        <time>2020-02-20T02:35:01Z</time>
      </trkpt>
      <trkpt lat="41.7630170" lon="-1.7452010">
        <ele>1068.5</ele>
        <time>2020-02-20T02:35:21Z</time>
      </trkpt>
      <trkpt lat="41.7631370" lon="-1.7454210">
        <ele>1073.9</ele>
        <time>2020-02-20T02:35:41Z</time>
      </trkpt>
      <trkpt lat="41.7630730" lon="-1.7456140">
        <ele>1078.1</ele>
        <time>2020-02-20T02:36:01Z</time>
      </trkpt>
      <trkpt lat="41.7626170" lon="-1.7461400">
        <ele>1093.2</ele>
        <time>2020-02-20T02:36:21Z</time>
      </trkpt>
      <trkpt lat="41.7625770" lon="-1.7463170">
        <ele>1096.5</ele>
        <time>2020-02-20T02:36:41Z</time>
      </trkpt>
      <trkpt lat="41.7626890" lon="-1.7466970">
        <ele>1103.8</ele>
        <time>2020-02-20T02:37:01Z</time>
      </trkpt>
      <trkpt lat="41.7627690" lon="-1.7470510">
        <ele>1110.9</ele>
        <time>2020-02-20T02:37:21Z</time>
      </trkpt>
      <trkpt lat="41.7626130" lon="-1.7473250">
        <ele>1116.5</ele>
        <time>2020-02-20T02:37:41Z</time>
      </trkpt>
      <trkpt lat="41.7624790" lon="-1.7475420">
        <ele>1120.6</ele>
        <time>2020-02-20T02:38:01Z</time>
      </trkpt>
      <trkpt lat="41.7627550" lon="-1.7479150">
        <ele>1127.2</ele>
        <time>2020-02-20T02:38:21Z</time>
      </trkpt>
      <trkpt lat="41.7627690" lon="-1.7480680">
        <ele>1130.3</ele>
        <time>2020-02-20T02:38:41Z</time>
      </trkpt>
      <trkpt lat="41.7627010" lon="-1.7482750">
        <ele>1136.0</ele>
        <time>2020-02-20T02:39:01Z</time>
      </trkpt>
      <trkpt lat="41.7626010" lon="-1.7486070">
        <ele>1145.2</ele>
        <time>2020-02-20T02:39:21Z</time>
      </trkpt>
      <trkpt lat="41.7625610" lon="-1.7490630">
        <ele>1155.9</ele>
        <time>2020-02-20T02:39:41Z</time>
      </trkpt>
      <trkpt lat="41.7626870" lon="-1.7493800">
        <ele>1164.7</ele>
        <time>2020-02-20T02:40:01Z</time>
      </trkpt>
      <trkpt lat="41.7627590" lon="-1.7495620">
        <ele>1170.5</ele>
        <time>2020-02-20T02:40:21Z</time>
      </trkpt>
      <trkpt lat="41.7627350" lon="-1.7496590">
        <ele>1173.5</ele>
        <time>2020-02-20T02:40:41Z</time>
      </trkpt>
      <trkpt lat="41.7626350" lon="-1.7498060">
        <ele>1179.3</ele>
        <time>2020-02-20T02:41:01Z</time>
      </trkpt>
      <trkpt lat="41.7625050" lon="-1.7498520">
        <ele>1183.7</ele>
        <time>2020-02-20T02:41:21Z</time>
      </trkpt>
      <trkpt lat="41.7624110" lon="-1.7499720">
        <ele>1187.8</ele>
        <time>2020-02-20T02:41:41Z</time>
      </trkpt>
      <trkpt lat="41.7623610" lon="-1.7500960">
        <ele>1191.4</ele>
        <time>2020-02-20T02:42:01Z</time>
      </trkpt>
      <trkpt lat="41.7623710" lon="-1.7502700">
        <ele>1196.5</ele>
        <time>2020-02-20T02:42:21Z</time>
      </trkpt>
      <trkpt lat="41.7624310" lon="-1.7503770">
        <ele>1198.6</ele>
        <time>2020-02-20T02:42:41Z</time>
      </trkpt>
      <trkpt lat="41.7626030" lon="-1.7506320">
        <ele>1204.2</ele>
        <time>2020-02-20T02:43:01Z</time>
      </trkpt>
      <trkpt lat="41.7625350" lon="-1.7507230">
        <ele>1206.2</ele>
        <time>2020-02-20T02:43:21Z</time>
      </trkpt>
      <trkpt lat="41.7622710" lon="-1.7510290">
        <ele>1213.8</ele>
        <time>2020-02-20T02:43:41Z</time>
      </trkpt>
      <trkpt lat="41.7621870" lon="-1.7512060">
        <ele>1217.1</ele>
        <time>2020-02-20T02:44:01Z</time>
      </trkpt>
      <trkpt lat="41.7622330" lon="-1.7513910">
        <ele>1220.3</ele>
        <time>2020-02-20T02:44:21Z</time>
      </trkpt>
      <trkpt lat="41.7624070" lon="-1.7517400">
        <ele>1227.0</ele>
        <time>2020-02-20T02:44:41Z</time>
      </trkpt>
      <trkpt lat="41.7623810" lon="-1.7519550">
        <ele>1230.5</ele>
        <time>2020-02-20T02:45:01Z</time>
      </trkpt>
      <trkpt lat="41.7623090" lon="-1.7520990">
        <ele>1233.3</ele>
        <time>2020-02-20T02:45:21Z</time>
      </trkpt>
      <trkpt lat="41.7622430" lon="-1.7523410">
        <ele>1237.5</ele>
        <time>2020-02-20T02:45:41Z</time>
      </trkpt>
      <trkpt lat="41.7622550" lon="-1.7525370">
        <ele>1240.6</ele>
        <time>2020-02-20T02:46:01Z</time>
      </trkpt>
      <trkpt lat="41.7621950" lon="-1.7527860">
        <ele>1244.9</ele>
        <time>2020-02-20T02:46:21Z</time>
      </trkpt>
      <trkpt lat="41.7621950" lon="-1.7532150">
        <ele>1251.8</ele>
        <time>2020-02-20T02:46:41Z</time>
      </trkpt>
      <trkpt lat="41.7621630" lon="-1.7534460">
        <ele>1255.5</ele>
        <time>2020-02-20T02:47:01Z</time>
      </trkpt>
      <trkpt lat="41.7620430" lon="-1.7541730">
        <ele>1267.5</ele>
        <time>2020-02-20T02:47:21Z</time>
      </trkpt>
      <trkpt lat="41.7618050" lon="-1.7551330">
        <ele>1283.8</ele>
        <time>2020-02-20T02:47:41Z</time>
      </trkpt>
      <trkpt lat="41.7617390" lon="-1.7554200">
        <ele>1288.7</ele>
        <time>2020-02-20T02:48:01Z</time>
      </trkpt>
      <trkpt lat="41.7616650" lon="-1.7558460">
        <ele>1295.7</ele>
        <time>2020-02-20T02:48:21Z</time>
      </trkpt>
      <trkpt lat="41.7616190" lon="-1.7561250">
        <ele>1300.3</ele>
        <time>2020-02-20T02:48:41Z</time>
      </trkpt>
      <trkpt lat="41.7615550" lon="-1.7562760">
        <ele>1303.1</ele>
        <time>2020-02-20T02:49:01Z</time>
      </trkpt>
      <trkpt lat="41.7614290" lon="-1.7565360">
        <ele>1308.1</ele>
        <time>2020-02-20T02:49:21Z</time>
      </trkpt>
      <trkpt lat="41.7612530" lon="-1.7567850">
        <ele>1313.6</ele>
        <time>2020-02-20T02:49:41Z</time>
      </trkpt>
      <trkpt lat="41.7611770" lon="-1.7570450">
        <ele>1318.1</ele>
        <time>2020-02-20T02:50:01Z</time>
      </trkpt>
      <trkpt lat="41.7611030" lon="-1.7572390">
        <ele>1321.6</ele>
        <time>2020-02-20T02:50:21Z</time>
      </trkpt>
      <trkpt lat="41.7608790" lon="-1.7576890">
        <ele>1330.3</ele>
        <time>2020-02-20T02:50:41Z</time>
      </trkpt>
      <trkpt lat="41.7607510" lon="-1.7580140">
        <ele>1336.2</ele>
        <time>2020-02-20T02:51:01Z</time>
      </trkpt>
      <trkpt lat="41.7606810" lon="-1.7582180">
        <ele>1339.9</ele>
        <time>2020-02-20T02:51:21Z</time>
      </trkpt>
      <trkpt lat="41.7606270" lon="-1.7584700">
        <ele>1344.1</ele>
        <time>2020-02-20T02:51:41Z</time>
      </trkpt>
      <trkpt lat="41.7605290" lon="-1.7587940">
        <ele>1349.7</ele>
        <time>2020-02-20T02:52:01Z</time>
      </trkpt>
      <trkpt lat="41.7604600" lon="-1.7590010">
        <ele>1354.6</ele>
        <time>2020-02-20T02:52:21Z</time>
      </trkpt>
      <trkpt lat="41.7606690" lon="-1.7591540">
        <ele>1353.5</ele>
        <time>2020-02-20T02:52:41Z</time>
      </trkpt>
      <trkpt lat="41.7608490" lon="-1.7593840">
        <ele>1352.3</ele>
        <time>2020-02-20T02:53:01Z</time>
      </trkpt>
      <trkpt lat="41.7610890" lon="-1.7597870">
        <ele>1350.5</ele>
        <time>2020-02-20T02:53:21Z</time>
      </trkpt>
      <trkpt lat="41.7613570" lon="-1.7603820">
        <ele>1348.1</ele>
        <time>2020-02-20T02:53:41Z</time>
      </trkpt>
      <trkpt lat="41.7616850" lon="-1.7610900">
        <ele>1345.2</ele>
        <time>2020-02-20T02:54:01Z</time>
      </trkpt>
      <trkpt lat="41.7619970" lon="-1.7615460">
        <ele>1343.1</ele>
        <time>2020-02-20T02:54:21Z</time>
      </trkpt>
      <trkpt lat="41.7627490" lon="-1.7621790">
        <ele>1338.9</ele>
        <time>2020-02-20T02:54:41Z</time>
      </trkpt>
      <trkpt lat="41.7633980" lon="-1.7621040">
        <ele>1335.9</ele>
        <time>2020-02-20T02:55:01Z</time>
      </trkpt>
      <trkpt lat="41.7638780" lon="-1.7619220">
        <ele>1333.6</ele>
        <time>2020-02-20T02:55:21Z</time>
      </trkpt>
      <trkpt lat="41.7649260" lon="-1.7618570">
        <ele>1328.7</ele>
        <time>2020-02-20T02:55:41Z</time>
      </trkpt>
      <trkpt lat="41.7658060" lon="-1.7620930">
        <ele>1324.6</ele>
        <time>2020-02-20T02:56:01Z</time>
      </trkpt>
      <trkpt lat="41.7661340" lon="-1.7623830">
        <ele>1322.7</ele>
        <time>2020-02-20T02:56:21Z</time>
      </trkpt>
      <trkpt lat="41.7663100" lon="-1.7628660">
        <ele>1320.9</ele>
        <time>2020-02-20T02:56:41Z</time>
      </trkpt>
      <trkpt lat="41.7663180" lon="-1.7640780">
        <ele>1316.2</ele>
        <time>2020-02-20T02:57:01Z</time>
      </trkpt>
      <trkpt lat="41.7663180" lon="-1.7649260">
        <ele>1311.3</ele>
        <time>2020-02-20T02:57:21Z</time>
      </trkpt>
      <trkpt lat="41.7665830" lon="-1.7657730">
        <ele>1305.1</ele>
        <time>2020-02-20T02:57:41Z</time>
      </trkpt>
      <trkpt lat="41.7667910" lon="-1.7662990">
        <ele>1301.2</ele>
        <time>2020-02-20T02:58:01Z</time>
      </trkpt>
      <trkpt lat="41.7672710" lon="-1.7661600">
        <ele>1298.9</ele>
        <time>2020-02-20T02:58:21Z</time>
      </trkpt>
      <trkpt lat="41.7677190" lon="-1.7660420">
        <ele>1297.9</ele>
        <time>2020-02-20T02:58:41Z</time>
      </trkpt>
      <trkpt lat="41.7683270" lon="-1.7660840">
        <ele>1294.0</ele>
        <time>2020-02-20T02:59:01Z</time>
      </trkpt>
      <trkpt lat="41.7689350" lon="-1.7658590">
        <ele>1290.0</ele>
        <time>2020-02-20T02:59:21Z</time>
      </trkpt>
      <trkpt lat="41.7699110" lon="-1.7663740">
        <ele>1283.2</ele>
        <time>2020-02-20T02:59:41Z</time>
      </trkpt>
      <trkpt lat="41.7708320" lon="-1.7669860">
        <ele>1272.1</ele>
        <time>2020-02-20T03:00:01Z</time>
      </trkpt>
      <trkpt lat="41.7719680" lon="-1.7670930">
        <ele>1261.0</ele>
        <time>2020-02-20T03:00:21Z</time>
      </trkpt>
      <trkpt lat="41.7728320" lon="-1.7671680">
        <ele>1254.3</ele>
        <time>2020-02-20T03:00:41Z</time>
      </trkpt>
      <trkpt lat="41.7731760" lon="-1.7671680">
        <ele>1251.0</ele>
        <time>2020-02-20T03:01:01Z</time>
      </trkpt>
      <trkpt lat="41.7734900" lon="-1.7672430">
        <ele>1246.8</ele>
        <time>2020-02-20T03:01:21Z</time>
      </trkpt>
      <trkpt lat="41.7736880" lon="-1.7673160">
        <ele>1244.1</ele>
        <time>2020-02-20T03:01:41Z</time>
      </trkpt>
      <trkpt lat="41.7737500" lon="-1.7671980">
        <ele>1241.6</ele>
        <time>2020-02-20T03:02:01Z</time>
      </trkpt>
      <trkpt lat="41.7740100" lon="-1.7669830">
        <ele>1236.0</ele>
        <time>2020-02-20T03:02:21Z</time>
      </trkpt>
      <trkpt lat="41.7741000" lon="-1.7669450">
        <ele>1234.0</ele>
        <time>2020-02-20T03:02:41Z</time>
      </trkpt>
      <trkpt lat="41.7744580" lon="-1.7669430">
        <ele>1230.6</ele>
        <time>2020-02-20T03:03:01Z</time>
      </trkpt>
      <trkpt lat="41.7746440" lon="-1.7669880">
        <ele>1228.2</ele>
        <time>2020-02-20T03:03:21Z</time>
      </trkpt>
      <trkpt lat="41.7747820" lon="-1.7671300">
        <ele>1225.5</ele>
        <time>2020-02-20T03:03:41Z</time>
      </trkpt>
      <trkpt lat="41.7748700" lon="-1.7671360">
        <ele>1222.0</ele>
        <time>2020-02-20T03:04:01Z</time>
      </trkpt>
      <trkpt lat="41.7755920" lon="-1.7666530">
        <ele>1201.2</ele>
        <time>2020-02-20T03:04:21Z</time>
      </trkpt>
      <trkpt lat="41.7758420" lon="-1.7668570">
        <ele>1191.8</ele>
        <time>2020-02-20T03:04:41Z</time>
      </trkpt>
      <trkpt lat="41.7760800" lon="-1.7664490">
        <ele>1182.6</ele>
        <time>2020-02-20T03:05:01Z</time>
      </trkpt>
      <trkpt lat="41.7762890" lon="-1.7666530">
        <ele>1174.5</ele>
        <time>2020-02-20T03:05:21Z</time>
      </trkpt>
      <trkpt lat="41.7765690" lon="-1.7662560">
        <ele>1164.7</ele>
        <time>2020-02-20T03:05:41Z</time>
      </trkpt>
      <trkpt lat="41.7770250" lon="-1.7663420">
        <ele>1158.9</ele>
        <time>2020-02-20T03:06:01Z</time>
      </trkpt>
      <trkpt lat="41.7774010" lon="-1.7659990">
        <ele>1146.1</ele>
        <time>2020-02-20T03:06:21Z</time>
      </trkpt>
      <trkpt lat="41.7777530" lon="-1.7652690">
        <ele>1124.0</ele>
        <time>2020-02-20T03:06:41Z</time>
      </trkpt>
      <trkpt lat="41.7782010" lon="-1.7643250">
        <ele>1099.9</ele>
        <time>2020-02-20T03:07:01Z</time>
      </trkpt>
      <trkpt lat="41.7785610" lon="-1.7637670">
        <ele>1088.4</ele>
        <time>2020-02-20T03:07:21Z</time>
      </trkpt>
      <trkpt lat="41.7789130" lon="-1.7632950">
        <ele>1076.6</ele>
        <time>2020-02-20T03:07:41Z</time>
      </trkpt>
      <trkpt lat="41.7790010" lon="-1.7630370">
        <ele>1073.4</ele>
        <time>2020-02-20T03:08:01Z</time>
      </trkpt>
      <trkpt lat="41.7791770" lon="-1.7629090">
        <ele>1070.0</ele>
        <time>2020-02-20T03:08:21Z</time>
      </trkpt>
      <trkpt lat="41.7793370" lon="-1.7631020">
        <ele>1067.8</ele>
        <time>2020-02-20T03:08:41Z</time>
      </trkpt>
      <trkpt lat="41.7795930" lon="-1.7628660">
        <ele>1063.2</ele>
        <time>2020-02-20T03:09:01Z</time>
      </trkpt>
      <trkpt lat="41.7797130" lon="-1.7626730">
        <ele>1061.0</ele>
        <time>2020-02-20T03:09:21Z</time>
      </trkpt>
      <trkpt lat="41.7798410" lon="-1.7623830">
        <ele>1058.0</ele>
        <time>2020-02-20T03:09:41Z</time>
      </trkpt>
      <trkpt lat="41.7797870" lon="-1.7621790">
        <ele>1056.7</ele>
        <time>2020-02-20T03:10:01Z</time>
      </trkpt>
      <trkpt lat="41.7796730" lon="-1.7621170">
        <ele>1056.9</ele>
        <time>2020-02-20T03:10:21Z</time>
      </trkpt>
      <trkpt lat="41.7797270" lon="-1.7618060">
        <ele>1052.1</ele>
        <time>2020-02-20T03:10:41Z</time>
      </trkpt>
      <trkpt lat="41.7798490" lon="-1.7616990">
        <ele>1048.5</ele>
        <time>2020-02-20T03:11:01Z</time>
      </trkpt>
      <trkpt lat="41.7798810" lon="-1.7615460">
        <ele>1044.7</ele>
        <time>2020-02-20T03:11:21Z</time>
      </trkpt>
      <trkpt lat="41.7797250" lon="-1.7614390">
        <ele>1044.1</ele>
        <time>2020-02-20T03:11:41Z</time>
      </trkpt>
      <trkpt lat="41.7794310" lon="-1.7612030">
        <ele>1041.1</ele>
        <time>2020-02-20T03:12:01Z</time>
      </trkpt>
      <trkpt lat="41.7792990" lon="-1.7611460">
        <ele>1039.4</ele>
        <time>2020-02-20T03:12:21Z</time>
      </trkpt>
      <trkpt lat="41.7792350" lon="-1.7610870">
        <ele>1038.4</ele>
        <time>2020-02-20T03:12:41Z</time>
      </trkpt>
      <trkpt lat="41.7791970" lon="-1.7610370">
        <ele>1037.3</ele>
        <time>2020-02-20T03:13:01Z</time>
      </trkpt>
      <trkpt lat="41.7791570" lon="-1.7609430">
        <ele>1034.1</ele>
        <time>2020-02-20T03:13:21Z</time>
      </trkpt>
      <trkpt lat="41.7791210" lon="-1.7607310">
        <ele>1030.2</ele>
        <time>2020-02-20T03:13:41Z</time>
      </trkpt>
      <trkpt lat="41.7790430" lon="-1.7605970">
        <ele>1026.2</ele>
        <time>2020-02-20T03:14:01Z</time>
      </trkpt>
      <trkpt lat="41.7789150" lon="-1.7603630">
        <ele>1021.6</ele>
        <time>2020-02-20T03:14:21Z</time>
      </trkpt>
      <trkpt lat="41.7789150" lon="-1.7601490">
        <ele>1017.5</ele>
        <time>2020-02-20T03:14:41Z</time>
      </trkpt>
      <trkpt lat="41.7788370" lon="-1.7599070">
        <ele>1012.7</ele>
        <time>2020-02-20T03:15:01Z</time>
      </trkpt>
      <trkpt lat="41.7787730" lon="-1.7597520">
        <ele>1010.3</ele>
        <time>2020-02-20T03:15:21Z</time>
      </trkpt>
      <trkpt lat="41.7787430" lon="-1.7594840">
        <ele>1005.7</ele>
        <time>2020-02-20T03:15:41Z</time>
      </trkpt>
      <trkpt lat="41.7786650" lon="-1.7592390">
        <ele>1002.9</ele>
        <time>2020-02-20T03:16:01Z</time>
      </trkpt>
      <trkpt lat="41.7785970" lon="-1.7589660">
        <ele>998.9</ele>
        <time>2020-02-20T03:16:21Z</time>
      </trkpt>
      <trkpt lat="41.7785950" lon="-1.7587060">
        <ele>995.4</ele>
        <time>2020-02-20T03:16:41Z</time>
      </trkpt>
      <trkpt lat="41.7787310" lon="-1.7581670">
        <ele>988.3</ele>
        <time>2020-02-20T03:17:01Z</time>
      </trkpt>
      <trkpt lat="41.7788050" lon="-1.7579200">
        <ele>985.0</ele>
        <time>2020-02-20T03:17:21Z</time>
      </trkpt>
      <trkpt lat="41.7788290" lon="-1.7577430">
        <ele>982.7</ele>
        <time>2020-02-20T03:17:41Z</time>
      </trkpt>
      <trkpt lat="41.7788610" lon="-1.7575980">
        <ele>981.2</ele>
        <time>2020-02-20T03:18:01Z</time>
      </trkpt>
      <trkpt lat="41.7789070" lon="-1.7574290">
        <ele>979.2</ele>
        <time>2020-02-20T03:18:21Z</time>
      </trkpt>
      <trkpt lat="41.7787170" lon="-1.7573460">
        <ele>978.7</ele>
        <time>2020-02-20T03:18:41Z</time>
      </trkpt>
      <trkpt lat="41.7786090" lon="-1.7571980">
        <ele>977.1</ele>
        <time>2020-02-20T03:19:01Z</time>
      </trkpt>
      <trkpt lat="41.7784130" lon="-1.7570050">
        <ele>974.0</ele>
        <time>2020-02-20T03:19:21Z</time>
      </trkpt>
      <trkpt lat="41.7782550" lon="-1.7566320">
        <ele>968.4</ele>
        <time>2020-02-20T03:19:41Z</time>
      </trkpt>
      <trkpt lat="41.7781130" lon="-1.7564790">
        <ele>964.1</ele>
        <time>2020-02-20T03:20:01Z</time>
      </trkpt>
      <trkpt lat="41.7779530" lon="-1.7564310">
        <ele>961.0</ele>
        <time>2020-02-20T03:20:21Z</time>
      </trkpt>
      <trkpt lat="41.7776470" lon="-1.7568550">
        <ele>963.0</ele>
        <time>2020-02-20T03:20:41Z</time>
      </trkpt>
      <trkpt lat="41.7774730" lon="-1.7570700">
        <ele>964.0</ele>
        <time>2020-02-20T03:21:01Z</time>
      </trkpt>
      <trkpt lat="41.7772810" lon="-1.7572980">
        <ele>964.6</ele>
        <time>2020-02-20T03:21:21Z</time>
      </trkpt>
      <trkpt lat="41.7770830" lon="-1.7573220">
        <ele>964.7</ele>
        <time>2020-02-20T03:21:41Z</time>
      </trkpt>
      <trkpt lat="41.7768370" lon="-1.7572060">
        <ele>964.4</ele>
        <time>2020-02-20T03:22:01Z</time>
      </trkpt>
      <trkpt lat="41.7767570" lon="-1.7571550">
        <ele>964.2</ele>
        <time>2020-02-20T03:22:21Z</time>
      </trkpt>
      <trkpt lat="41.7768450" lon="-1.7569090">
        <ele>961.1</ele>
        <time>2020-02-20T03:22:41Z</time>
      </trkpt>
      <trkpt lat="41.7769070" lon="-1.7566540">
        <ele>959.2</ele>
        <time>2020-02-20T03:23:01Z</time>
      </trkpt>
      <trkpt lat="41.7769610" lon="-1.7560580">
        <ele>951.5</ele>
        <time>2020-02-20T03:23:21Z</time>
      </trkpt>
      <trkpt lat="41.7769670" lon="-1.7557550">
        <ele>947.9</ele>
        <time>2020-02-20T03:23:41Z</time>
      </trkpt>
      <trkpt lat="41.7769750" lon="-1.7554490">
        <ele>943.7</ele>
        <time>2020-02-20T03:24:01Z</time>
      </trkpt>
      <trkpt lat="41.7770210" lon="-1.7550690">
        <ele>939.3</ele>
        <time>2020-02-20T03:24:21Z</time>
      </trkpt>
      <trkpt lat="41.7770670" lon="-1.7547280">
        <ele>935.2</ele>
        <time>2020-02-20T03:24:41Z</time>
      </trkpt>
      <trkpt lat="41.7771490" lon="-1.7541220">
        <ele>927.2</ele>
        <time>2020-02-20T03:25:01Z</time>
      </trkpt>
      <trkpt lat="41.7771930" lon="-1.7536420">
        <ele>921.2</ele>
        <time>2020-02-20T03:25:21Z</time>
      </trkpt>
      <trkpt lat="41.7772450" lon="-1.7532470">
        <ele>916.4</ele>
        <time>2020-02-20T03:25:41Z</time>
      </trkpt>
      <trkpt lat="41.7772670" lon="-1.7530760">
        <ele>914.8</ele>
        <time>2020-02-20T03:26:01Z</time>
      </trkpt>
      <trkpt lat="41.7772550" lon="-1.7528960">
        <ele>913.2</ele>
        <time>2020-02-20T03:26:21Z</time>
      </trkpt>
      <trkpt lat="41.7772010" lon="-1.7526920">
        <ele>911.2</ele>
        <time>2020-02-20T03:26:41Z</time>
      </trkpt>
      <trkpt lat="41.7771710" lon="-1.7523430">
        <ele>907.5</ele>
        <time>2020-02-20T03:27:01Z</time>
      </trkpt>
      <trkpt lat="41.7771730" lon="-1.7521370">
        <ele>905.7</ele>
        <time>2020-02-20T03:27:21Z</time>
      </trkpt>
      <trkpt lat="41.7771970" lon="-1.7519090">
        <ele>904.0</ele>
        <time>2020-02-20T03:27:41Z</time>
      </trkpt>
      <trkpt lat="41.7772570" lon="-1.7516570">
        <ele>902.9</ele>
        <time>2020-02-20T03:28:01Z</time>
      </trkpt>
      <trkpt lat="41.7772210" lon="-1.7514910">
        <ele>901.7</ele>
        <time>2020-02-20T03:28:21Z</time>
      </trkpt>
      <trkpt lat="41.7771930" lon="-1.7511710">
        <ele>899.6</ele>
        <time>2020-02-20T03:28:41Z</time>
      </trkpt>
      <trkpt lat="41.7772030" lon="-1.7508790">
        <ele>897.9</ele>
        <time>2020-02-20T03:29:01Z</time>
      </trkpt>
      <trkpt lat="41.7770710" lon="-1.7506590">
        <ele>895.7</ele>
        <time>2020-02-20T03:29:21Z</time>
      </trkpt>
      <trkpt lat="41.7770230" lon="-1.7504200">
        <ele>893.3</ele>
        <time>2020-02-20T03:29:41Z</time>
      </trkpt>
      <trkpt lat="41.7770250" lon="-1.7501280">
        <ele>890.4</ele>
        <time>2020-02-20T03:30:01Z</time>
      </trkpt>
      <trkpt lat="41.7769610" lon="-1.7500500">
        <ele>889.8</ele>
        <time>2020-02-20T03:30:21Z</time>
      </trkpt>
      <trkpt lat="41.7768850" lon="-1.7500770">
        <ele>889.5</ele>
        <time>2020-02-20T03:30:41Z</time>
      </trkpt>
      <trkpt lat="41.7768170" lon="-1.7501740">
        <ele>890.6</ele>
        <time>2020-02-20T03:31:01Z</time>
      </trkpt>
      <trkpt lat="41.7766990" lon="-1.7502250">
        <ele>891.0</ele>
        <time>2020-02-20T03:31:21Z</time>
      </trkpt>
      <trkpt lat="41.7765230" lon="-1.7502890">
        <ele>891.1</ele>
        <time>2020-02-20T03:31:41Z</time>
      </trkpt>
      <trkpt lat="41.7764390" lon="-1.7504100">
        <ele>890.8</ele>
        <time>2020-02-20T03:32:01Z</time>
      </trkpt>
      <trkpt lat="41.7763590" lon="-1.7503530">
        <ele>890.5</ele>
        <time>2020-02-20T03:32:21Z</time>
      </trkpt>
      <trkpt lat="41.7762450" lon="-1.7502490">
        <ele>889.9</ele>
        <time>2020-02-20T03:32:41Z</time>
      </trkpt>
      <trkpt lat="41.7761790" lon="-1.7499620">
        <ele>888.5</ele>
        <time>2020-02-20T03:33:01Z</time>
      </trkpt>
      <trkpt lat="41.7761710" lon="-1.7496830">
        <ele>886.3</ele>
        <time>2020-02-20T03:33:21Z</time>
      </trkpt>
      <trkpt lat="41.7761970" lon="-1.7493580">
        <ele>883.7</ele>
        <time>2020-02-20T03:33:41Z</time>
      </trkpt>
      <trkpt lat="41.7761690" lon="-1.7491730">
        <ele>882.6</ele>
        <time>2020-02-20T03:34:01Z</time>
      </trkpt>
      <trkpt lat="41.7760480" lon="-1.7489320">
        <ele>881.1</ele>
        <time>2020-02-20T03:34:21Z</time>
      </trkpt>
      <trkpt lat="41.7758860" lon="-1.7485240">
        <ele>878.2</ele>
        <time>2020-02-20T03:34:41Z</time>
      </trkpt>
      <trkpt lat="41.7757780" lon="-1.7480790">
        <ele>874.7</ele>
        <time>2020-02-20T03:35:01Z</time>
      </trkpt>
      <trkpt lat="41.7757700" lon="-1.7478450">
        <ele>873.0</ele>
        <time>2020-02-20T03:35:21Z</time>
      </trkpt>
      <trkpt lat="41.7757340" lon="-1.7475420">
        <ele>871.0</ele>
        <time>2020-02-20T03:35:41Z</time>
      </trkpt>
      <trkpt lat="41.7757280" lon="-1.7473300">
        <ele>869.8</ele>
        <time>2020-02-20T03:36:01Z</time>
      </trkpt>
      <trkpt lat="41.7757260" lon="-1.7470600">
        <ele>868.1</ele>
        <time>2020-02-20T03:36:21Z</time>
      </trkpt>
      <trkpt lat="41.7757380" lon="-1.7466300">
        <ele>864.9</ele>
        <time>2020-02-20T03:36:41Z</time>
      </trkpt>
      <trkpt lat="41.7757400" lon="-1.7465100">
        <ele>864.1</ele>
        <time>2020-02-20T03:37:01Z</time>
      </trkpt>
      <trkpt lat="41.7757480" lon="-1.7463190">
        <ele>862.6</ele>
        <time>2020-02-20T03:37:21Z</time>
      </trkpt>
      <trkpt lat="41.7756780" lon="-1.7460700">
        <ele>860.7</ele>
        <time>2020-02-20T03:37:41Z</time>
      </trkpt>
      <trkpt lat="41.7756600" lon="-1.7457240">
        <ele>857.9</ele>
        <time>2020-02-20T03:38:01Z</time>
      </trkpt>
      <trkpt lat="41.7756620" lon="-1.7454820">
        <ele>856.0</ele>
        <time>2020-02-20T03:38:21Z</time>
      </trkpt>
      <trkpt lat="41.7757560" lon="-1.7450640">
        <ele>852.8</ele>
        <time>2020-02-20T03:38:41Z</time>
      </trkpt>
      <trkpt lat="41.7758100" lon="-1.7447420">
        <ele>850.6</ele>
        <time>2020-02-20T03:39:01Z</time>
      </trkpt>
      <trkpt lat="41.7757720" lon="-1.7440340">
        <ele>846.6</ele>
        <time>2020-02-20T03:39:21Z</time>
      </trkpt>
      <trkpt lat="41.7757880" lon="-1.7435830">
        <ele>843.9</ele>
        <time>2020-02-20T03:39:41Z</time>
      </trkpt>
      <trkpt lat="41.7757780" lon="-1.7430070">
        <ele>840.5</ele>
        <time>2020-02-20T03:40:01Z</time>
      </trkpt>
      <trkpt lat="41.7757820" lon="-1.7426610">
        <ele>838.5</ele>
        <time>2020-02-20T03:40:21Z</time>
      </trkpt>
      <trkpt lat="41.7757620" lon="-1.7421560">
        <ele>834.9</ele>
        <time>2020-02-20T03:40:41Z</time>
      </trkpt>
      <trkpt lat="41.7757420" lon="-1.7418960">
        <ele>833.0</ele>
        <time>2020-02-20T03:41:01Z</time>
      </trkpt>
      <trkpt lat="41.7757880" lon="-1.7417110">
        <ele>831.8</ele>
        <time>2020-02-20T03:41:21Z</time>
      </trkpt>
      <trkpt lat="41.7759220" lon="-1.7415100">
        <ele>830.5</ele>
        <time>2020-02-20T03:41:41Z</time>
      </trkpt>
      <trkpt lat="41.7759760" lon="-1.7413760">
        <ele>830.3</ele>
        <time>2020-02-20T03:42:01Z</time>
      </trkpt>
      <trkpt lat="41.7758700" lon="-1.7411290">
        <ele>832.2</ele>
        <time>2020-02-20T03:42:21Z</time>
      </trkpt>
      <trkpt lat="41.7757340" lon="-1.7406790">
        <ele>836.0</ele>
        <time>2020-02-20T03:42:41Z</time>
      </trkpt>
      <trkpt lat="41.7757360" lon="-1.7404400">
        <ele>836.1</ele>
        <time>2020-02-20T03:43:01Z</time>
      </trkpt>
      <trkpt lat="41.7758020" lon="-1.7402490">
        <ele>835.5</ele>
        <time>2020-02-20T03:43:21Z</time>
      </trkpt>
      <trkpt lat="41.7759360" lon="-1.7399730">
        <ele>833.8</ele>
        <time>2020-02-20T03:43:41Z</time>
      </trkpt>
      <trkpt lat="41.7759900" lon="-1.7397290">
        <ele>833.8</ele>
        <time>2020-02-20T03:44:01Z</time>
      </trkpt>
      <trkpt lat="41.7760480" lon="-1.7395330">
        <ele>833.4</ele>
        <time>2020-02-20T03:44:21Z</time>
      </trkpt>
      <trkpt lat="41.7760520" lon="-1.7393270">
        <ele>832.4</ele>
        <time>2020-02-20T03:44:41Z</time>
      </trkpt>
      <trkpt lat="41.7761170" lon="-1.7391150">
        <ele>830.9</ele>
        <time>2020-02-20T03:45:01Z</time>
      </trkpt>
      <trkpt lat="41.7762990" lon="-1.7383770">
        <ele>828.0</ele>
        <time>2020-02-20T03:45:21Z</time>
      </trkpt>
      <trkpt lat="41.7763570" lon="-1.7379940">
        <ele>824.4</ele>
        <time>2020-02-20T03:45:41Z</time>
      </trkpt>
      <trkpt lat="41.7762850" lon="-1.7372530">
        <ele>820.8</ele>
        <time>2020-02-20T03:46:01Z</time>
      </trkpt>
      <trkpt lat="41.7760120" lon="-1.7368300">
        <ele>822.8</ele>
        <time>2020-02-20T03:46:21Z</time>
      </trkpt>
      <trkpt lat="41.7759020" lon="-1.7363710">
        <ele>821.1</ele>
        <time>2020-02-20T03:46:41Z</time>
      </trkpt>
      <trkpt lat="41.7756440" lon="-1.7356150">
        <ele>819.4</ele>
        <time>2020-02-20T03:47:01Z</time>
      </trkpt>
      <trkpt lat="41.7752880" lon="-1.7346140">
        <ele>811.4</ele>
        <time>2020-02-20T03:47:21Z</time>
      </trkpt>
      <trkpt lat="41.7750060" lon="-1.7337260">
        <ele>807.6</ele>
        <time>2020-02-20T03:47:41Z</time>
      </trkpt>
      <trkpt lat="41.7749380" lon="-1.7329140">
        <ele>810.9</ele>
        <time>2020-02-20T03:48:01Z</time>
      </trkpt>
      <trkpt lat="41.7748620" lon="-1.7327710">
        <ele>808.5</ele>
        <time>2020-02-20T03:48:21Z</time>
      </trkpt>
      <trkpt lat="41.7746740" lon="-1.7327960">
        <ele>805.7</ele>
        <time>2020-02-20T03:48:41Z</time>
      </trkpt>
      <trkpt lat="41.7745560" lon="-1.7327610">
        <ele>803.7</ele>
        <time>2020-02-20T03:49:01Z</time>
      </trkpt>
      <trkpt lat="41.7744200" lon="-1.7327390">
        <ele>801.2</ele>
        <time>2020-02-20T03:49:21Z</time>
      </trkpt>
      <trkpt lat="41.7743360" lon="-1.7327740">
        <ele>799.4</ele>
        <time>2020-02-20T03:49:41Z</time>
      </trkpt>
      <trkpt lat="41.7743040" lon="-1.7327150">
        <ele>797.8</ele>
        <time>2020-02-20T03:50:01Z</time>
      </trkpt>
      <trkpt lat="41.7743460" lon="-1.7324820">
        <ele>796.8</ele>
        <time>2020-02-20T03:50:21Z</time>
      </trkpt>
      <trkpt lat="41.7744060" lon="-1.7322380">
        <ele>795.7</ele>
        <time>2020-02-20T03:50:41Z</time>
      </trkpt>
      <trkpt lat="41.7745640" lon="-1.7318970">
        <ele>794.3</ele>
        <time>2020-02-20T03:51:01Z</time>
      </trkpt>
      <trkpt lat="41.7746820" lon="-1.7315830">
        <ele>792.9</ele>
        <time>2020-02-20T03:51:21Z</time>
      </trkpt>
      <trkpt lat="41.7748040" lon="-1.7315430">
        <ele>792.2</ele>
        <time>2020-02-20T03:51:41Z</time>
      </trkpt>
      <trkpt lat="41.7748940" lon="-1.7313340">
        <ele>791.1</ele>
        <time>2020-02-20T03:52:01Z</time>
      </trkpt>
      <trkpt lat="41.7749800" lon="-1.7311810">
        <ele>790.3</ele>
        <time>2020-02-20T03:52:21Z</time>
      </trkpt>
      <trkpt lat="41.7750920" lon="-1.7310360">
        <ele>789.4</ele>
        <time>2020-02-20T03:52:41Z</time>
      </trkpt>
      <trkpt lat="41.7751420" lon="-1.7307920">
        <ele>788.4</ele>
        <time>2020-02-20T03:53:01Z</time>
      </trkpt>
      <trkpt lat="41.7752140" lon="-1.7307330">
        <ele>787.9</ele>
        <time>2020-02-20T03:53:21Z</time>
      </trkpt>
      <trkpt lat="41.7754320" lon="-1.7301700">
        <ele>784.9</ele>
        <time>2020-02-20T03:53:41Z</time>
      </trkpt>
      <trkpt lat="41.7756780" lon="-1.7296250">
        <ele>781.9</ele>
        <time>2020-02-20T03:54:01Z</time>
      </trkpt>
      <trkpt lat="41.7757800" lon="-1.7291930">
        <ele>780.0</ele>
        <time>2020-02-20T03:54:21Z</time>
      </trkpt>
      <trkpt lat="41.7760680" lon="-1.7285500">
        <ele>777.5</ele>
        <time>2020-02-20T03:54:41Z</time>
      </trkpt>
      <trkpt lat="41.7761350" lon="-1.7283430">
        <ele>776.8</ele>
        <time>2020-02-20T03:55:01Z</time>
      </trkpt>
      <trkpt lat="41.7761390" lon="-1.7280290">
        <ele>776.0</ele>
        <time>2020-02-20T03:55:21Z</time>
      </trkpt>
      <trkpt lat="41.7761970" lon="-1.7277020">
        <ele>775.3</ele>
        <time>2020-02-20T03:55:41Z</time>
      </trkpt>
      <trkpt lat="41.7761930" lon="-1.7274530">
        <ele>774.6</ele>
        <time>2020-02-20T03:56:01Z</time>
      </trkpt>
      <trkpt lat="41.7764450" lon="-1.7269110">
        <ele>773.7</ele>
        <time>2020-02-20T03:56:21Z</time>
      </trkpt>
      <trkpt lat="41.7765570" lon="-1.7265510">
        <ele>773.9</ele>
        <time>2020-02-20T03:56:41Z</time>
      </trkpt>
      <trkpt lat="41.7765310" lon="-1.7259210">
        <ele>774.2</ele>
        <time>2020-02-20T03:57:01Z</time>
      </trkpt>
      <trkpt lat="41.7765590" lon="-1.7254620">
        <ele>775.1</ele>
        <time>2020-02-20T03:57:21Z</time>
      </trkpt>
      <trkpt lat="41.7765910" lon="-1.7252100">
        <ele>776.3</ele>
        <time>2020-02-20T03:57:41Z</time>
      </trkpt>
      <trkpt lat="41.7766730" lon="-1.7250900">
        <ele>777.1</ele>
        <time>2020-02-20T03:58:01Z</time>
      </trkpt>
      <trkpt lat="41.7767650" lon="-1.7250310">
        <ele>779.2</ele>
        <time>2020-02-20T03:58:21Z</time>
      </trkpt>
      <trkpt lat="41.7768610" lon="-1.7247270">
        <ele>783.3</ele>
        <time>2020-02-20T03:58:41Z</time>
      </trkpt>
      <trkpt lat="41.7769210" lon="-1.7244460">
        <ele>787.7</ele>
        <time>2020-02-20T03:59:01Z</time>
      </trkpt>
      <trkpt lat="41.7770190" lon="-1.7242210">
        <ele>791.3</ele>
        <time>2020-02-20T03:59:21Z</time>
      </trkpt>
      <trkpt lat="41.7771810" lon="-1.7239500">
        <ele>797.4</ele>
        <time>2020-02-20T03:59:41Z</time>
      </trkpt>
      <trkpt lat="41.7772330" lon="-1.7239010">
        <ele>799.1</ele>
        <time>2020-02-20T04:00:01Z</time>
      </trkpt>
      <trkpt lat="41.7772570" lon="-1.7239760">
        <ele>800.7</ele>
        <time>2020-02-20T04:00:21Z</time>
      </trkpt>
      <trkpt lat="41.7772710" lon="-1.7240810">
        <ele>802.7</ele>
        <time>2020-02-20T04:00:41Z</time>
      </trkpt>
      <trkpt lat="41.7772630" lon="-1.7241780">
        <ele>804.3</ele>
        <time>2020-02-20T04:01:01Z</time>
      </trkpt>
      <trkpt lat="41.7774290" lon="-1.7241530">
        <ele>807.4</ele>
        <time>2020-02-20T04:01:21Z</time>
      </trkpt>
      <trkpt lat="41.7775550" lon="-1.7240460">
        <ele>809.6</ele>
        <time>2020-02-20T04:01:41Z</time>
      </trkpt>
      <trkpt lat="41.7776530" lon="-1.7239580">
        <ele>811.2</ele>
        <time>2020-02-20T04:02:01Z</time>
      </trkpt>
      <trkpt lat="41.7776950" lon="-1.7238290">
        <ele>812.6</ele>
        <time>2020-02-20T04:02:21Z</time>
      </trkpt>
      <trkpt lat="41.7777450" lon="-1.7234940">
        <ele>815.2</ele>
        <time>2020-02-20T04:02:41Z</time>
      </trkpt>
      <trkpt lat="41.7777510" lon="-1.7231880">
        <ele>817.2</ele>
        <time>2020-02-20T04:03:01Z</time>
      </trkpt>
      <trkpt lat="41.7777710" lon="-1.7229630">
        <ele>821.2</ele>
        <time>2020-02-20T04:03:21Z</time>
      </trkpt>
      <trkpt lat="41.7778030" lon="-1.7227960">
        <ele>820.9</ele>
        <time>2020-02-20T04:03:41Z</time>
      </trkpt>
      <trkpt lat="41.7778030" lon="-1.7226090">
        <ele>818.7</ele>
        <time>2020-02-20T04:04:01Z</time>
      </trkpt>
      <trkpt lat="41.7777530" lon="-1.7225310">
        <ele>815.8</ele>
        <time>2020-02-20T04:04:21Z</time>
      </trkpt>
      <trkpt lat="41.7777130" lon="-1.7224660">
        <ele>813.0</ele>
        <time>2020-02-20T04:04:41Z</time>
      </trkpt>
      <trkpt lat="41.7776770" lon="-1.7222490">
        <ele>807.5</ele>
        <time>2020-02-20T04:05:01Z</time>
      </trkpt>
      <trkpt lat="41.7776250" lon="-1.7220000">
        <ele>802.9</ele>
        <time>2020-02-20T04:05:21Z</time>
      </trkpt>
      <trkpt lat="41.7775530" lon="-1.7217450">
        <ele>796.9</ele>
        <time>2020-02-20T04:05:41Z</time>
      </trkpt>
      <trkpt lat="41.7775110" lon="-1.7215870">
        <ele>791.9</ele>
        <time>2020-02-20T04:06:01Z</time>
      </trkpt>
      <trkpt lat="41.7774930" lon="-1.7215090">
        <ele>790.5</ele>
        <time>2020-02-20T04:06:21Z</time>
      </trkpt>
      <trkpt lat="41.7775030" lon="-1.7213430">
        <ele>787.8</ele>
        <time>2020-02-20T04:06:41Z</time>
      </trkpt>
      <trkpt lat="41.7774670" lon="-1.7211040">
        <ele>789.0</ele>
        <time>2020-02-20T04:07:01Z</time>
      </trkpt>
      <trkpt lat="41.7774910" lon="-1.7208520">
        <ele>786.3</ele>
        <time>2020-02-20T04:07:21Z</time>
      </trkpt>
      <trkpt lat="41.7775190" lon="-1.7207310">
        <ele>785.2</ele>
        <time>2020-02-20T04:07:41Z</time>
      </trkpt>
      <trkpt lat="41.7775690" lon="-1.7206450">
        <ele>784.2</ele>
        <time>2020-02-20T04:08:01Z</time>
      </trkpt>
      <trkpt lat="41.7776890" lon="-1.7205830">
        <ele>787.1</ele>
        <time>2020-02-20T04:08:21Z</time>
      </trkpt>
      <trkpt lat="41.7778410" lon="-1.7205190">
        <ele>790.7</ele>
        <time>2020-02-20T04:08:41Z</time>
      </trkpt>
      <trkpt lat="41.7779730" lon="-1.7203850">
        <ele>793.5</ele>
        <time>2020-02-20T04:09:01Z</time>
      </trkpt>
      <trkpt lat="41.7781170" lon="-1.7202350">
        <ele>796.0</ele>
        <time>2020-02-20T04:09:21Z</time>
      </trkpt>
      <trkpt lat="41.7782270" lon="-1.7201190">
        <ele>798.0</ele>
        <time>2020-02-20T04:09:41Z</time>
      </trkpt>
      <trkpt lat="41.7782590" lon="-1.7200150">
        <ele>799.4</ele>
        <time>2020-02-20T04:10:01Z</time>
      </trkpt>
      <trkpt lat="41.7782970" lon="-1.7198140">
        <ele>802.4</ele>
        <time>2020-02-20T04:10:21Z</time>
      </trkpt>
      <trkpt lat="41.7783370" lon="-1.7196290">
        <ele>804.8</ele>
        <time>2020-02-20T04:10:41Z</time>
      </trkpt>
      <trkpt lat="41.7784190" lon="-1.7197490">
        <ele>806.5</ele>
        <time>2020-02-20T04:11:01Z</time>
      </trkpt>
      <trkpt lat="41.7785510" lon="-1.7201300">
        <ele>811.8</ele>
        <time>2020-02-20T04:11:21Z</time>
      </trkpt>
      <trkpt lat="41.7785330" lon="-1.7202430">
        <ele>813.2</ele>
        <time>2020-02-20T04:11:41Z</time>
      </trkpt>
    </trkseg>
  </trk>
</gpx>
